<?xml version="1.0" encoding="UTF-8" standalone="no" ?>
<gpx xmlns="http://www.topografix.com/GPX/1/1" xmlns:xsi="http://www.w3.org/2001/XMLSchema-instance" xsi:schemaLocation="http://www.topografix.com/GPX/1/1 http://www.topografix.com/GPX/1/1/gpx.xsd" version="1.1" creator="VisuGPX - https://www.visugpx.com">
  <metadata>
    <name>Via Domitia</name>
    <desc><![CDATA[Via Domicia / n° 5 Bessilles]]></desc>
  </metadata>
  <wpt lat="43.4792" lon="3.53828">
    <ele>114.5</ele>
    <name><![CDATA[Start]]></name>
    <desc><![CDATA[2010-12-20 09:04:33]]></desc>
  </wpt>
  <wpt lat="43.47969" lon="3.53815">
    <ele>116</ele>
    <name><![CDATA[Lap 1]]></name>
    <desc><![CDATA[38.79km, 146:17, 15.9kph]]></desc>
  </wpt>
  <trk>
    <name><![CDATA[2010-12-20-09-04-33]]></name>
    <desc><![CDATA[146:17 - 38.8km]]></desc>
    <trkseg>
      <trkpt lat="43.4792" lon="3.53828">
        <ele>130.171</ele>
        <time>2010-12-20T09:04:34Z</time>
      </trkpt>
      <trkpt lat="43.47927" lon="3.53827">
        <ele>129.965</ele>
        <time>2010-12-20T09:04:38Z</time>
      </trkpt>
      <trkpt lat="43.47934" lon="3.53817">
        <ele>130.07</ele>
        <time>2010-12-20T09:04:43Z</time>
      </trkpt>
      <trkpt lat="43.4793" lon="3.53817">
        <ele>130.265</ele>
        <time>2010-12-20T09:04:45Z</time>
      </trkpt>
      <trkpt lat="43.47927" lon="3.53819">
        <ele>130.32</ele>
        <time>2010-12-20T09:04:47Z</time>
      </trkpt>
      <trkpt lat="43.47917" lon="3.53829">
        <ele>130.072</ele>
        <time>2010-12-20T09:04:54Z</time>
      </trkpt>
      <trkpt lat="43.47914" lon="3.53831">
        <ele>129.922</ele>
        <time>2010-12-20T09:04:55Z</time>
      </trkpt>
      <trkpt lat="43.47892" lon="3.53839">
        <ele>129.63</ele>
        <time>2010-12-20T09:05:01Z</time>
      </trkpt>
      <trkpt lat="43.47863" lon="3.53845">
        <ele>128.769</ele>
        <time>2010-12-20T09:05:07Z</time>
      </trkpt>
      <trkpt lat="43.47858" lon="3.53846">
        <ele>128.633</ele>
        <time>2010-12-20T09:05:08Z</time>
      </trkpt>
      <trkpt lat="43.4783" lon="3.53849">
        <ele>128.422</ele>
        <time>2010-12-20T09:05:13Z</time>
      </trkpt>
      <trkpt lat="43.47783" lon="3.53851">
        <ele>127.279</ele>
        <time>2010-12-20T09:05:22Z</time>
      </trkpt>
      <trkpt lat="43.47758" lon="3.53865">
        <ele>126.769</ele>
        <time>2010-12-20T09:05:28Z</time>
      </trkpt>
      <trkpt lat="43.47742" lon="3.5386">
        <ele>126.565</ele>
        <time>2010-12-20T09:05:32Z</time>
      </trkpt>
      <trkpt lat="43.47733" lon="3.53852">
        <ele>126.125</ele>
        <time>2010-12-20T09:05:34Z</time>
      </trkpt>
      <trkpt lat="43.47707" lon="3.5383">
        <ele>125.079</ele>
        <time>2010-12-20T09:05:39Z</time>
      </trkpt>
      <trkpt lat="43.47679" lon="3.53827">
        <ele>123.022</ele>
        <time>2010-12-20T09:05:43Z</time>
      </trkpt>
      <trkpt lat="43.47671" lon="3.5385">
        <ele>121.905</ele>
        <time>2010-12-20T09:05:45Z</time>
      </trkpt>
      <trkpt lat="43.47647" lon="3.53896">
        <ele>119.23</ele>
        <time>2010-12-20T09:05:49Z</time>
      </trkpt>
      <trkpt lat="43.47636" lon="3.53924">
        <ele>117.621</ele>
        <time>2010-12-20T09:05:52Z</time>
      </trkpt>
      <trkpt lat="43.47635" lon="3.53941">
        <ele>116.93</ele>
        <time>2010-12-20T09:05:54Z</time>
      </trkpt>
      <trkpt lat="43.47619" lon="3.53948">
        <ele>115.146</ele>
        <time>2010-12-20T09:05:58Z</time>
      </trkpt>
      <trkpt lat="43.47613" lon="3.53948">
        <ele>114.916</ele>
        <time>2010-12-20T09:05:59Z</time>
      </trkpt>
      <trkpt lat="43.476" lon="3.53948">
        <ele>114.725</ele>
        <time>2010-12-20T09:06:01Z</time>
      </trkpt>
      <trkpt lat="43.47564" lon="3.53953">
        <ele>114.002</ele>
        <time>2010-12-20T09:06:07Z</time>
      </trkpt>
      <trkpt lat="43.47523" lon="3.53952">
        <ele>112.43</ele>
        <time>2010-12-20T09:06:13Z</time>
      </trkpt>
      <trkpt lat="43.47509" lon="3.5395">
        <ele>111.479</ele>
        <time>2010-12-20T09:06:15Z</time>
      </trkpt>
      <trkpt lat="43.47484" lon="3.53935">
        <ele>108.933</ele>
        <time>2010-12-20T09:06:19Z</time>
      </trkpt>
      <trkpt lat="43.47469" lon="3.53924">
        <ele>107.155</ele>
        <time>2010-12-20T09:06:22Z</time>
      </trkpt>
      <trkpt lat="43.47452" lon="3.53924">
        <ele>105.576</ele>
        <time>2010-12-20T09:06:26Z</time>
      </trkpt>
      <trkpt lat="43.47448" lon="3.53928">
        <ele>105.259</ele>
        <time>2010-12-20T09:06:27Z</time>
      </trkpt>
      <trkpt lat="43.47422" lon="3.53955">
        <ele>103.742</ele>
        <time>2010-12-20T09:06:33Z</time>
      </trkpt>
      <trkpt lat="43.474" lon="3.53986">
        <ele>101.917</ele>
        <time>2010-12-20T09:06:38Z</time>
      </trkpt>
      <trkpt lat="43.47375" lon="3.54026">
        <ele>99.341</ele>
        <time>2010-12-20T09:06:43Z</time>
      </trkpt>
      <trkpt lat="43.47363" lon="3.54041">
        <ele>98.136</ele>
        <time>2010-12-20T09:06:45Z</time>
      </trkpt>
      <trkpt lat="43.47347" lon="3.54046">
        <ele>96.093</ele>
        <time>2010-12-20T09:06:48Z</time>
      </trkpt>
      <trkpt lat="43.47342" lon="3.54027">
        <ele>94.325</ele>
        <time>2010-12-20T09:06:51Z</time>
      </trkpt>
      <trkpt lat="43.47341" lon="3.5402">
        <ele>94.142</ele>
        <time>2010-12-20T09:06:52Z</time>
      </trkpt>
      <trkpt lat="43.4732" lon="3.53946">
        <ele>93.557</ele>
        <time>2010-12-20T09:07:02Z</time>
      </trkpt>
      <trkpt lat="43.47295" lon="3.53872">
        <ele>92.845</ele>
        <time>2010-12-20T09:07:12Z</time>
      </trkpt>
      <trkpt lat="43.47296" lon="3.53843">
        <ele>93.27</ele>
        <time>2010-12-20T09:07:16Z</time>
      </trkpt>
      <trkpt lat="43.47303" lon="3.53817">
        <ele>94.08</ele>
        <time>2010-12-20T09:07:20Z</time>
      </trkpt>
      <trkpt lat="43.47301" lon="3.5379">
        <ele>94.313</ele>
        <time>2010-12-20T09:07:24Z</time>
      </trkpt>
      <trkpt lat="43.47294" lon="3.53767">
        <ele>93.797</ele>
        <time>2010-12-20T09:07:27Z</time>
      </trkpt>
      <trkpt lat="43.47278" lon="3.53744">
        <ele>92.104</ele>
        <time>2010-12-20T09:07:31Z</time>
      </trkpt>
      <trkpt lat="43.47247" lon="3.53715">
        <ele>90.899</ele>
        <time>2010-12-20T09:07:36Z</time>
      </trkpt>
      <trkpt lat="43.47228" lon="3.53699">
        <ele>90.746</ele>
        <time>2010-12-20T09:07:39Z</time>
      </trkpt>
      <trkpt lat="43.47211" lon="3.53663">
        <ele>90.431</ele>
        <time>2010-12-20T09:07:44Z</time>
      </trkpt>
      <trkpt lat="43.47196" lon="3.53602">
        <ele>89.231</ele>
        <time>2010-12-20T09:07:51Z</time>
      </trkpt>
      <trkpt lat="43.47187" lon="3.53564">
        <ele>87.681</ele>
        <time>2010-12-20T09:07:55Z</time>
      </trkpt>
      <trkpt lat="43.47166" lon="3.53518">
        <ele>87.183</ele>
        <time>2010-12-20T09:08:01Z</time>
      </trkpt>
      <trkpt lat="43.47153" lon="3.53481">
        <ele>87.24</ele>
        <time>2010-12-20T09:08:06Z</time>
      </trkpt>
      <trkpt lat="43.47139" lon="3.53459">
        <ele>87.896</ele>
        <time>2010-12-20T09:08:10Z</time>
      </trkpt>
      <trkpt lat="43.47103" lon="3.53418">
        <ele>88.5</ele>
        <time>2010-12-20T09:08:20Z</time>
      </trkpt>
      <trkpt lat="43.47066" lon="3.53376">
        <ele>88.875</ele>
        <time>2010-12-20T09:08:30Z</time>
      </trkpt>
      <trkpt lat="43.47027" lon="3.53331">
        <ele>88.377</ele>
        <time>2010-12-20T09:08:40Z</time>
      </trkpt>
      <trkpt lat="43.47004" lon="3.53306">
        <ele>88.427</ele>
        <time>2010-12-20T09:08:46Z</time>
      </trkpt>
      <trkpt lat="43.46968" lon="3.53266">
        <ele>88.493</ele>
        <time>2010-12-20T09:08:56Z</time>
      </trkpt>
      <trkpt lat="43.46961" lon="3.53258">
        <ele>88.431</ele>
        <time>2010-12-20T09:08:58Z</time>
      </trkpt>
      <trkpt lat="43.46936" lon="3.53231">
        <ele>88.599</ele>
        <time>2010-12-20T09:09:05Z</time>
      </trkpt>
      <trkpt lat="43.46898" lon="3.5319">
        <ele>87.816</ele>
        <time>2010-12-20T09:09:15Z</time>
      </trkpt>
      <trkpt lat="43.46867" lon="3.53153">
        <ele>86.821</ele>
        <time>2010-12-20T09:09:23Z</time>
      </trkpt>
      <trkpt lat="43.46844" lon="3.53122">
        <ele>85.872</ele>
        <time>2010-12-20T09:09:29Z</time>
      </trkpt>
      <trkpt lat="43.46828" lon="3.53097">
        <ele>85.916</ele>
        <time>2010-12-20T09:09:34Z</time>
      </trkpt>
      <trkpt lat="43.46819" lon="3.53082">
        <ele>85.878</ele>
        <time>2010-12-20T09:09:37Z</time>
      </trkpt>
      <trkpt lat="43.46807" lon="3.53049">
        <ele>85.441</ele>
        <time>2010-12-20T09:09:43Z</time>
      </trkpt>
      <trkpt lat="43.468" lon="3.53029">
        <ele>85.399</ele>
        <time>2010-12-20T09:09:47Z</time>
      </trkpt>
      <trkpt lat="43.46787" lon="3.52982">
        <ele>85.746</ele>
        <time>2010-12-20T09:09:56Z</time>
      </trkpt>
      <trkpt lat="43.46781" lon="3.52958">
        <ele>85.157</ele>
        <time>2010-12-20T09:10:01Z</time>
      </trkpt>
      <trkpt lat="43.46782" lon="3.52955">
        <ele>85.047</ele>
        <time>2010-12-20T09:10:02Z</time>
      </trkpt>
      <trkpt lat="43.46782" lon="3.52934">
        <ele>85.961</ele>
        <time>2010-12-20T09:10:08Z</time>
      </trkpt>
      <trkpt lat="43.46779" lon="3.52906">
        <ele>88.097</ele>
        <time>2010-12-20T09:10:16Z</time>
      </trkpt>
      <trkpt lat="43.46778" lon="3.52892">
        <ele>88.51</ele>
        <time>2010-12-20T09:10:20Z</time>
      </trkpt>
      <trkpt lat="43.46772" lon="3.52858">
        <ele>89.094</ele>
        <time>2010-12-20T09:10:28Z</time>
      </trkpt>
      <trkpt lat="43.46772" lon="3.52836">
        <ele>89.309</ele>
        <time>2010-12-20T09:10:33Z</time>
      </trkpt>
      <trkpt lat="43.4678" lon="3.52823">
        <ele>89.143</ele>
        <time>2010-12-20T09:10:37Z</time>
      </trkpt>
      <trkpt lat="43.46792" lon="3.52811">
        <ele>89.612</ele>
        <time>2010-12-20T09:10:42Z</time>
      </trkpt>
      <trkpt lat="43.46805" lon="3.528">
        <ele>90.682</ele>
        <time>2010-12-20T09:10:48Z</time>
      </trkpt>
      <trkpt lat="43.46813" lon="3.5279">
        <ele>92.423</ele>
        <time>2010-12-20T09:10:53Z</time>
      </trkpt>
      <trkpt lat="43.46824" lon="3.52779">
        <ele>93.81</ele>
        <time>2010-12-20T09:10:59Z</time>
      </trkpt>
      <trkpt lat="43.46833" lon="3.52768">
        <ele>95.388</ele>
        <time>2010-12-20T09:11:06Z</time>
      </trkpt>
      <trkpt lat="43.46837" lon="3.52763">
        <ele>95.992</ele>
        <time>2010-12-20T09:11:10Z</time>
      </trkpt>
      <trkpt lat="43.46842" lon="3.52758">
        <ele>96.926</ele>
        <time>2010-12-20T09:11:15Z</time>
      </trkpt>
      <trkpt lat="43.46859" lon="3.5274">
        <ele>97.729</ele>
        <time>2010-12-20T09:11:24Z</time>
      </trkpt>
      <trkpt lat="43.46876" lon="3.52723">
        <ele>98.567</ele>
        <time>2010-12-20T09:11:33Z</time>
      </trkpt>
      <trkpt lat="43.46897" lon="3.52702">
        <ele>100.006</ele>
        <time>2010-12-20T09:11:44Z</time>
      </trkpt>
      <trkpt lat="43.46908" lon="3.52692">
        <ele>101.246</ele>
        <time>2010-12-20T09:11:50Z</time>
      </trkpt>
      <trkpt lat="43.46913" lon="3.5269">
        <ele>102.38</ele>
        <time>2010-12-20T09:11:53Z</time>
      </trkpt>
      <trkpt lat="43.46917" lon="3.52682">
        <ele>103.601</ele>
        <time>2010-12-20T09:11:58Z</time>
      </trkpt>
      <trkpt lat="43.46912" lon="3.5267">
        <ele>104.253</ele>
        <time>2010-12-20T09:12:04Z</time>
      </trkpt>
      <trkpt lat="43.46913" lon="3.52663">
        <ele>104.396</ele>
        <time>2010-12-20T09:12:06Z</time>
      </trkpt>
      <trkpt lat="43.46918" lon="3.52646">
        <ele>105.554</ele>
        <time>2010-12-20T09:12:12Z</time>
      </trkpt>
      <trkpt lat="43.46915" lon="3.52636">
        <ele>106.487</ele>
        <time>2010-12-20T09:12:15Z</time>
      </trkpt>
      <trkpt lat="43.46913" lon="3.52628">
        <ele>107.094</ele>
        <time>2010-12-20T09:12:20Z</time>
      </trkpt>
      <trkpt lat="43.46907" lon="3.5262">
        <ele>107.418</ele>
        <time>2010-12-20T09:12:25Z</time>
      </trkpt>
      <trkpt lat="43.46897" lon="3.52612">
        <ele>107.808</ele>
        <time>2010-12-20T09:12:31Z</time>
      </trkpt>
      <trkpt lat="43.46885" lon="3.5261">
        <ele>108.534</ele>
        <time>2010-12-20T09:12:36Z</time>
      </trkpt>
      <trkpt lat="43.46867" lon="3.52597">
        <ele>108.734</ele>
        <time>2010-12-20T09:12:44Z</time>
      </trkpt>
      <trkpt lat="43.46859" lon="3.5258">
        <ele>108.594</ele>
        <time>2010-12-20T09:12:49Z</time>
      </trkpt>
      <trkpt lat="43.46854" lon="3.52561">
        <ele>107.967</ele>
        <time>2010-12-20T09:12:54Z</time>
      </trkpt>
      <trkpt lat="43.46853" lon="3.52557">
        <ele>107.92</ele>
        <time>2010-12-20T09:12:55Z</time>
      </trkpt>
      <trkpt lat="43.46839" lon="3.52539">
        <ele>107.438</ele>
        <time>2010-12-20T09:13:01Z</time>
      </trkpt>
      <trkpt lat="43.46827" lon="3.52527">
        <ele>106.953</ele>
        <time>2010-12-20T09:13:05Z</time>
      </trkpt>
      <trkpt lat="43.46816" lon="3.52514">
        <ele>105.998</ele>
        <time>2010-12-20T09:13:09Z</time>
      </trkpt>
      <trkpt lat="43.46808" lon="3.52496">
        <ele>105.543</ele>
        <time>2010-12-20T09:13:14Z</time>
      </trkpt>
      <trkpt lat="43.46797" lon="3.52485">
        <ele>105.089</ele>
        <time>2010-12-20T09:13:18Z</time>
      </trkpt>
      <trkpt lat="43.46779" lon="3.52451">
        <ele>103.397</ele>
        <time>2010-12-20T09:13:25Z</time>
      </trkpt>
      <trkpt lat="43.46774" lon="3.5244">
        <ele>102.616</ele>
        <time>2010-12-20T09:13:27Z</time>
      </trkpt>
      <trkpt lat="43.46759" lon="3.52415">
        <ele>101.466</ele>
        <time>2010-12-20T09:13:33Z</time>
      </trkpt>
      <trkpt lat="43.46748" lon="3.52395">
        <ele>100.207</ele>
        <time>2010-12-20T09:13:38Z</time>
      </trkpt>
      <trkpt lat="43.46737" lon="3.52379">
        <ele>99.324</ele>
        <time>2010-12-20T09:13:43Z</time>
      </trkpt>
      <trkpt lat="43.46728" lon="3.52367">
        <ele>98.755</ele>
        <time>2010-12-20T09:13:46Z</time>
      </trkpt>
      <trkpt lat="43.46723" lon="3.52358">
        <ele>98.409</ele>
        <time>2010-12-20T09:13:48Z</time>
      </trkpt>
      <trkpt lat="43.46708" lon="3.52331">
        <ele>97.859</ele>
        <time>2010-12-20T09:13:54Z</time>
      </trkpt>
      <trkpt lat="43.46699" lon="3.52298">
        <ele>97.915</ele>
        <time>2010-12-20T09:14:01Z</time>
      </trkpt>
      <trkpt lat="43.467" lon="3.52294">
        <ele>97.984</ele>
        <time>2010-12-20T09:14:02Z</time>
      </trkpt>
      <trkpt lat="43.46694" lon="3.52278">
        <ele>98.444</ele>
        <time>2010-12-20T09:14:06Z</time>
      </trkpt>
      <trkpt lat="43.46679" lon="3.52256">
        <ele>97.415</ele>
        <time>2010-12-20T09:14:11Z</time>
      </trkpt>
      <trkpt lat="43.46672" lon="3.52247">
        <ele>96.821</ele>
        <time>2010-12-20T09:14:13Z</time>
      </trkpt>
      <trkpt lat="43.46662" lon="3.52223">
        <ele>96.198</ele>
        <time>2010-12-20T09:14:18Z</time>
      </trkpt>
      <trkpt lat="43.46652" lon="3.5221">
        <ele>95.708</ele>
        <time>2010-12-20T09:14:22Z</time>
      </trkpt>
      <trkpt lat="43.46639" lon="3.52191">
        <ele>95.539</ele>
        <time>2010-12-20T09:14:27Z</time>
      </trkpt>
      <trkpt lat="43.46627" lon="3.52176">
        <ele>96.009</ele>
        <time>2010-12-20T09:14:32Z</time>
      </trkpt>
      <trkpt lat="43.46614" lon="3.52168">
        <ele>97.328</ele>
        <time>2010-12-20T09:14:37Z</time>
      </trkpt>
      <trkpt lat="43.46605" lon="3.52163">
        <ele>98.394</ele>
        <time>2010-12-20T09:14:41Z</time>
      </trkpt>
      <trkpt lat="43.46599" lon="3.52157">
        <ele>98.68</ele>
        <time>2010-12-20T09:14:44Z</time>
      </trkpt>
      <trkpt lat="43.46597" lon="3.52133">
        <ele>99.961</ele>
        <time>2010-12-20T09:14:51Z</time>
      </trkpt>
      <trkpt lat="43.46597" lon="3.52131">
        <ele>99.92</ele>
        <time>2010-12-20T09:14:52Z</time>
      </trkpt>
      <trkpt lat="43.46586" lon="3.52125">
        <ele>98.388</ele>
        <time>2010-12-20T09:14:57Z</time>
      </trkpt>
      <trkpt lat="43.46581" lon="3.52123">
        <ele>97.204</ele>
        <time>2010-12-20T09:14:59Z</time>
      </trkpt>
      <trkpt lat="43.46578" lon="3.52118">
        <ele>96.423</ele>
        <time>2010-12-20T09:15:01Z</time>
      </trkpt>
      <trkpt lat="43.46573" lon="3.52111">
        <ele>96.317</ele>
        <time>2010-12-20T09:15:04Z</time>
      </trkpt>
      <trkpt lat="43.46558" lon="3.52101">
        <ele>98.135</ele>
        <time>2010-12-20T09:15:11Z</time>
      </trkpt>
      <trkpt lat="43.46544" lon="3.52097">
        <ele>100.531</ele>
        <time>2010-12-20T09:15:18Z</time>
      </trkpt>
      <trkpt lat="43.46531" lon="3.52097">
        <ele>100.759</ele>
        <time>2010-12-20T09:15:23Z</time>
      </trkpt>
      <trkpt lat="43.46524" lon="3.52098">
        <ele>101.851</ele>
        <time>2010-12-20T09:15:27Z</time>
      </trkpt>
      <trkpt lat="43.46507" lon="3.52099">
        <ele>101.664</ele>
        <time>2010-12-20T09:15:34Z</time>
      </trkpt>
      <trkpt lat="43.46501" lon="3.52099">
        <ele>101.436</ele>
        <time>2010-12-20T09:15:37Z</time>
      </trkpt>
      <trkpt lat="43.46491" lon="3.52095">
        <ele>101.601</ele>
        <time>2010-12-20T09:15:42Z</time>
      </trkpt>
      <trkpt lat="43.46478" lon="3.5209">
        <ele>100.982</ele>
        <time>2010-12-20T09:15:48Z</time>
      </trkpt>
      <trkpt lat="43.46464" lon="3.5208">
        <ele>100.562</ele>
        <time>2010-12-20T09:15:53Z</time>
      </trkpt>
      <trkpt lat="43.46453" lon="3.52062">
        <ele>99.589</ele>
        <time>2010-12-20T09:15:58Z</time>
      </trkpt>
      <trkpt lat="43.46451" lon="3.52058">
        <ele>99.433</ele>
        <time>2010-12-20T09:15:59Z</time>
      </trkpt>
      <trkpt lat="43.46447" lon="3.52031">
        <ele>98.489</ele>
        <time>2010-12-20T09:16:05Z</time>
      </trkpt>
      <trkpt lat="43.46445" lon="3.5202">
        <ele>98.291</ele>
        <time>2010-12-20T09:16:09Z</time>
      </trkpt>
      <trkpt lat="43.46445" lon="3.52018">
        <ele>98.325</ele>
        <time>2010-12-20T09:16:10Z</time>
      </trkpt>
      <trkpt lat="43.46452" lon="3.52006">
        <ele>98.657</ele>
        <time>2010-12-20T09:16:15Z</time>
      </trkpt>
      <trkpt lat="43.46452" lon="3.51994">
        <ele>99.065</ele>
        <time>2010-12-20T09:16:18Z</time>
      </trkpt>
      <trkpt lat="43.46448" lon="3.51979">
        <ele>97.954</ele>
        <time>2010-12-20T09:16:22Z</time>
      </trkpt>
      <trkpt lat="43.46437" lon="3.51963">
        <ele>96.39</ele>
        <time>2010-12-20T09:16:28Z</time>
      </trkpt>
      <trkpt lat="43.46428" lon="3.51948">
        <ele>95.774</ele>
        <time>2010-12-20T09:16:33Z</time>
      </trkpt>
      <trkpt lat="43.46414" lon="3.5194">
        <ele>95.359</ele>
        <time>2010-12-20T09:16:38Z</time>
      </trkpt>
      <trkpt lat="43.464" lon="3.51939">
        <ele>94.926</ele>
        <time>2010-12-20T09:16:42Z</time>
      </trkpt>
      <trkpt lat="43.46387" lon="3.5193">
        <ele>94.492</ele>
        <time>2010-12-20T09:16:48Z</time>
      </trkpt>
      <trkpt lat="43.46369" lon="3.51911">
        <ele>94.763</ele>
        <time>2010-12-20T09:16:57Z</time>
      </trkpt>
      <trkpt lat="43.46355" lon="3.51897">
        <ele>94.635</ele>
        <time>2010-12-20T09:17:02Z</time>
      </trkpt>
      <trkpt lat="43.46339" lon="3.51879">
        <ele>93.268</ele>
        <time>2010-12-20T09:17:08Z</time>
      </trkpt>
      <trkpt lat="43.46329" lon="3.51867">
        <ele>92.811</ele>
        <time>2010-12-20T09:17:12Z</time>
      </trkpt>
      <trkpt lat="43.46311" lon="3.51845">
        <ele>92.616</ele>
        <time>2010-12-20T09:17:19Z</time>
      </trkpt>
      <trkpt lat="43.46306" lon="3.51837">
        <ele>92.726</ele>
        <time>2010-12-20T09:17:21Z</time>
      </trkpt>
      <trkpt lat="43.46297" lon="3.51812">
        <ele>91.492</ele>
        <time>2010-12-20T09:17:26Z</time>
      </trkpt>
      <trkpt lat="43.46283" lon="3.51808">
        <ele>90.698</ele>
        <time>2010-12-20T09:17:30Z</time>
      </trkpt>
      <trkpt lat="43.4628" lon="3.51811">
        <ele>90.474</ele>
        <time>2010-12-20T09:17:31Z</time>
      </trkpt>
      <trkpt lat="43.46267" lon="3.51817">
        <ele>89.829</ele>
        <time>2010-12-20T09:17:35Z</time>
      </trkpt>
      <trkpt lat="43.46257" lon="3.51806">
        <ele>90.264</ele>
        <time>2010-12-20T09:17:39Z</time>
      </trkpt>
      <trkpt lat="43.46241" lon="3.51782">
        <ele>90.185</ele>
        <time>2010-12-20T09:17:46Z</time>
      </trkpt>
      <trkpt lat="43.4623" lon="3.51764">
        <ele>89.354</ele>
        <time>2010-12-20T09:17:51Z</time>
      </trkpt>
      <trkpt lat="43.46219" lon="3.51756">
        <ele>88.815</ele>
        <time>2010-12-20T09:17:54Z</time>
      </trkpt>
      <trkpt lat="43.46206" lon="3.51743">
        <ele>86.998</ele>
        <time>2010-12-20T09:17:58Z</time>
      </trkpt>
      <trkpt lat="43.46189" lon="3.51727">
        <ele>84.809</ele>
        <time>2010-12-20T09:18:03Z</time>
      </trkpt>
      <trkpt lat="43.46173" lon="3.5171">
        <ele>83.889</ele>
        <time>2010-12-20T09:18:09Z</time>
      </trkpt>
      <trkpt lat="43.46172" lon="3.51707">
        <ele>84.065</ele>
        <time>2010-12-20T09:18:10Z</time>
      </trkpt>
      <trkpt lat="43.46171" lon="3.51702">
        <ele>82.648</ele>
        <time>2010-12-20T09:18:15Z</time>
      </trkpt>
      <trkpt lat="43.46174" lon="3.51693">
        <ele>84.511</ele>
        <time>2010-12-20T09:19:13Z</time>
      </trkpt>
      <trkpt lat="43.46172" lon="3.51667">
        <ele>84.302</ele>
        <time>2010-12-20T09:19:18Z</time>
      </trkpt>
      <trkpt lat="43.46169" lon="3.51656">
        <ele>84.155</ele>
        <time>2010-12-20T09:19:20Z</time>
      </trkpt>
      <trkpt lat="43.46167" lon="3.51632">
        <ele>82.96</ele>
        <time>2010-12-20T09:19:24Z</time>
      </trkpt>
      <trkpt lat="43.46163" lon="3.51615">
        <ele>82.076</ele>
        <time>2010-12-20T09:19:27Z</time>
      </trkpt>
      <trkpt lat="43.4616" lon="3.51586">
        <ele>80.108</ele>
        <time>2010-12-20T09:19:31Z</time>
      </trkpt>
      <trkpt lat="43.46157" lon="3.51581">
        <ele>79.82</ele>
        <time>2010-12-20T09:19:32Z</time>
      </trkpt>
      <trkpt lat="43.46146" lon="3.51558">
        <ele>78.548</ele>
        <time>2010-12-20T09:19:36Z</time>
      </trkpt>
      <trkpt lat="43.46133" lon="3.51545">
        <ele>76.78</ele>
        <time>2010-12-20T09:19:39Z</time>
      </trkpt>
      <trkpt lat="43.46113" lon="3.51538">
        <ele>73.276</ele>
        <time>2010-12-20T09:19:43Z</time>
      </trkpt>
      <trkpt lat="43.46099" lon="3.51542">
        <ele>71.873</ele>
        <time>2010-12-20T09:19:46Z</time>
      </trkpt>
      <trkpt lat="43.46097" lon="3.51544">
        <ele>70.952</ele>
        <time>2010-12-20T09:19:48Z</time>
      </trkpt>
      <trkpt lat="43.46086" lon="3.51547">
        <ele>69.688</ele>
        <time>2010-12-20T09:19:53Z</time>
      </trkpt>
      <trkpt lat="43.46073" lon="3.51562">
        <ele>68.221</ele>
        <time>2010-12-20T09:19:57Z</time>
      </trkpt>
      <trkpt lat="43.46058" lon="3.51572">
        <ele>67.3</ele>
        <time>2010-12-20T09:20:01Z</time>
      </trkpt>
      <trkpt lat="43.46051" lon="3.51567">
        <ele>66.865</ele>
        <time>2010-12-20T09:20:04Z</time>
      </trkpt>
      <trkpt lat="43.46047" lon="3.51558">
        <ele>66.402</ele>
        <time>2010-12-20T09:20:06Z</time>
      </trkpt>
      <trkpt lat="43.46036" lon="3.51541">
        <ele>65.538</ele>
        <time>2010-12-20T09:20:10Z</time>
      </trkpt>
      <trkpt lat="43.46032" lon="3.51531">
        <ele>65.089</ele>
        <time>2010-12-20T09:20:12Z</time>
      </trkpt>
      <trkpt lat="43.46027" lon="3.51521">
        <ele>64.52</ele>
        <time>2010-12-20T09:20:14Z</time>
      </trkpt>
      <trkpt lat="43.46016" lon="3.51505">
        <ele>63.543</ele>
        <time>2010-12-20T09:20:18Z</time>
      </trkpt>
      <trkpt lat="43.46014" lon="3.51501">
        <ele>63.428</ele>
        <time>2010-12-20T09:20:19Z</time>
      </trkpt>
      <trkpt lat="43.46001" lon="3.51472">
        <ele>62.589</ele>
        <time>2010-12-20T09:20:25Z</time>
      </trkpt>
      <trkpt lat="43.45993" lon="3.51445">
        <ele>59.576</ele>
        <time>2010-12-20T09:20:30Z</time>
      </trkpt>
      <trkpt lat="43.45992" lon="3.51442">
        <ele>58.938</ele>
        <time>2010-12-20T09:20:31Z</time>
      </trkpt>
      <trkpt lat="43.45986" lon="3.51435">
        <ele>57.914</ele>
        <time>2010-12-20T09:20:38Z</time>
      </trkpt>
      <trkpt lat="43.45985" lon="3.51434">
        <ele>57.733</ele>
        <time>2010-12-20T09:20:42Z</time>
      </trkpt>
      <trkpt lat="43.45987" lon="3.51437">
        <ele>57.966</ele>
        <time>2010-12-20T09:20:45Z</time>
      </trkpt>
      <trkpt lat="43.45989" lon="3.5144">
        <ele>57.925</ele>
        <time>2010-12-20T09:20:49Z</time>
      </trkpt>
      <trkpt lat="43.45994" lon="3.51444">
        <ele>57.694</ele>
        <time>2010-12-20T09:20:56Z</time>
      </trkpt>
      <trkpt lat="43.45994" lon="3.51445">
        <ele>57.32</ele>
        <time>2010-12-20T09:21:01Z</time>
      </trkpt>
      <trkpt lat="43.45993" lon="3.51443">
        <ele>57.516</ele>
        <time>2010-12-20T09:21:05Z</time>
      </trkpt>
      <trkpt lat="43.4599" lon="3.51442">
        <ele>58.015</ele>
        <time>2010-12-20T09:21:13Z</time>
      </trkpt>
      <trkpt lat="43.45984" lon="3.51439">
        <ele>58.472</ele>
        <time>2010-12-20T09:21:19Z</time>
      </trkpt>
      <trkpt lat="43.45985" lon="3.51417">
        <ele>54.503</ele>
        <time>2010-12-20T09:21:25Z</time>
      </trkpt>
      <trkpt lat="43.45985" lon="3.51413">
        <ele>53.552</ele>
        <time>2010-12-20T09:21:26Z</time>
      </trkpt>
      <trkpt lat="43.45983" lon="3.5141">
        <ele>52.76</ele>
        <time>2010-12-20T09:21:28Z</time>
      </trkpt>
      <trkpt lat="43.45972" lon="3.51408">
        <ele>53.611</ele>
        <time>2010-12-20T09:21:33Z</time>
      </trkpt>
      <trkpt lat="43.45952" lon="3.51409">
        <ele>52.948</ele>
        <time>2010-12-20T09:21:39Z</time>
      </trkpt>
      <trkpt lat="43.45943" lon="3.51399">
        <ele>52.599</ele>
        <time>2010-12-20T09:21:43Z</time>
      </trkpt>
      <trkpt lat="43.45943" lon="3.51397">
        <ele>52.574</ele>
        <time>2010-12-20T09:21:44Z</time>
      </trkpt>
      <trkpt lat="43.45945" lon="3.51388">
        <ele>53.835</ele>
        <time>2010-12-20T09:21:51Z</time>
      </trkpt>
      <trkpt lat="43.45943" lon="3.51385">
        <ele>55.219</ele>
        <time>2010-12-20T09:21:59Z</time>
      </trkpt>
      <trkpt lat="43.45941" lon="3.51382">
        <ele>55.631</ele>
        <time>2010-12-20T09:22:09Z</time>
      </trkpt>
      <trkpt lat="43.45941" lon="3.51381">
        <ele>55.721</ele>
        <time>2010-12-20T09:22:12Z</time>
      </trkpt>
      <trkpt lat="43.45933" lon="3.51373">
        <ele>56.709</ele>
        <time>2010-12-20T09:22:17Z</time>
      </trkpt>
      <trkpt lat="43.45932" lon="3.5137">
        <ele>57.124</ele>
        <time>2010-12-20T09:22:18Z</time>
      </trkpt>
      <trkpt lat="43.45934" lon="3.51354">
        <ele>58.96</ele>
        <time>2010-12-20T09:22:24Z</time>
      </trkpt>
      <trkpt lat="43.45941" lon="3.51352">
        <ele>59.754</ele>
        <time>2010-12-20T09:22:27Z</time>
      </trkpt>
      <trkpt lat="43.45951" lon="3.51347">
        <ele>60.881</ele>
        <time>2010-12-20T09:22:32Z</time>
      </trkpt>
      <trkpt lat="43.45955" lon="3.51341">
        <ele>61.487</ele>
        <time>2010-12-20T09:22:34Z</time>
      </trkpt>
      <trkpt lat="43.45952" lon="3.51335">
        <ele>62.494</ele>
        <time>2010-12-20T09:22:38Z</time>
      </trkpt>
      <trkpt lat="43.45941" lon="3.5133">
        <ele>62.749</ele>
        <time>2010-12-20T09:22:43Z</time>
      </trkpt>
      <trkpt lat="43.45925" lon="3.51319">
        <ele>63.311</ele>
        <time>2010-12-20T09:22:49Z</time>
      </trkpt>
      <trkpt lat="43.4591" lon="3.51309">
        <ele>63.621</ele>
        <time>2010-12-20T09:22:54Z</time>
      </trkpt>
      <trkpt lat="43.45889" lon="3.51305">
        <ele>63.821</ele>
        <time>2010-12-20T09:23:00Z</time>
      </trkpt>
      <trkpt lat="43.45873" lon="3.51296">
        <ele>63.327</ele>
        <time>2010-12-20T09:23:05Z</time>
      </trkpt>
      <trkpt lat="43.45855" lon="3.51283">
        <ele>64.616</ele>
        <time>2010-12-20T09:23:11Z</time>
      </trkpt>
      <trkpt lat="43.45844" lon="3.5128">
        <ele>65.007</ele>
        <time>2010-12-20T09:23:15Z</time>
      </trkpt>
      <trkpt lat="43.45828" lon="3.51278">
        <ele>65.298</ele>
        <time>2010-12-20T09:23:20Z</time>
      </trkpt>
      <trkpt lat="43.45815" lon="3.51281">
        <ele>65.038</ele>
        <time>2010-12-20T09:23:25Z</time>
      </trkpt>
      <trkpt lat="43.458" lon="3.5128">
        <ele>64.899</ele>
        <time>2010-12-20T09:23:30Z</time>
      </trkpt>
      <trkpt lat="43.45778" lon="3.51286">
        <ele>65.665</ele>
        <time>2010-12-20T09:23:36Z</time>
      </trkpt>
      <trkpt lat="43.45755" lon="3.5129">
        <ele>67.173</ele>
        <time>2010-12-20T09:23:43Z</time>
      </trkpt>
      <trkpt lat="43.45742" lon="3.51286">
        <ele>68.887</ele>
        <time>2010-12-20T09:23:49Z</time>
      </trkpt>
      <trkpt lat="43.4573" lon="3.51289">
        <ele>69.662</ele>
        <time>2010-12-20T09:23:53Z</time>
      </trkpt>
      <trkpt lat="43.45714" lon="3.51296">
        <ele>71.113</ele>
        <time>2010-12-20T09:23:59Z</time>
      </trkpt>
      <trkpt lat="43.45698" lon="3.51294">
        <ele>72.644</ele>
        <time>2010-12-20T09:24:05Z</time>
      </trkpt>
      <trkpt lat="43.45689" lon="3.51291">
        <ele>73.559</ele>
        <time>2010-12-20T09:24:09Z</time>
      </trkpt>
      <trkpt lat="43.45671" lon="3.51292">
        <ele>75.285</ele>
        <time>2010-12-20T09:24:16Z</time>
      </trkpt>
      <trkpt lat="43.45657" lon="3.51288">
        <ele>76.375</ele>
        <time>2010-12-20T09:24:21Z</time>
      </trkpt>
      <trkpt lat="43.45638" lon="3.51273">
        <ele>77.437</ele>
        <time>2010-12-20T09:24:28Z</time>
      </trkpt>
      <trkpt lat="43.45621" lon="3.51259">
        <ele>78.231</ele>
        <time>2010-12-20T09:24:34Z</time>
      </trkpt>
      <trkpt lat="43.45603" lon="3.51256">
        <ele>79.541</ele>
        <time>2010-12-20T09:24:40Z</time>
      </trkpt>
      <trkpt lat="43.45584" lon="3.51247">
        <ele>80.803</ele>
        <time>2010-12-20T09:24:46Z</time>
      </trkpt>
      <trkpt lat="43.4557" lon="3.51229">
        <ele>80.522</ele>
        <time>2010-12-20T09:24:51Z</time>
      </trkpt>
      <trkpt lat="43.45561" lon="3.51194">
        <ele>78.678</ele>
        <time>2010-12-20T09:24:56Z</time>
      </trkpt>
      <trkpt lat="43.45549" lon="3.51158">
        <ele>76.158</ele>
        <time>2010-12-20T09:25:00Z</time>
      </trkpt>
      <trkpt lat="43.45545" lon="3.51127">
        <ele>74.685</ele>
        <time>2010-12-20T09:25:03Z</time>
      </trkpt>
      <trkpt lat="43.4555" lon="3.51099">
        <ele>71.196</ele>
        <time>2010-12-20T09:25:06Z</time>
      </trkpt>
      <trkpt lat="43.4556" lon="3.51068">
        <ele>66.501</ele>
        <time>2010-12-20T09:25:10Z</time>
      </trkpt>
      <trkpt lat="43.45557" lon="3.51052">
        <ele>63.596</ele>
        <time>2010-12-20T09:25:14Z</time>
      </trkpt>
      <trkpt lat="43.45554" lon="3.51059">
        <ele>62.822</ele>
        <time>2010-12-20T09:25:16Z</time>
      </trkpt>
      <trkpt lat="43.45539" lon="3.511">
        <ele>62.282</ele>
        <time>2010-12-20T09:25:24Z</time>
      </trkpt>
      <trkpt lat="43.45522" lon="3.51149">
        <ele>61.343</ele>
        <time>2010-12-20T09:25:32Z</time>
      </trkpt>
      <trkpt lat="43.45508" lon="3.512">
        <ele>60.239</ele>
        <time>2010-12-20T09:25:40Z</time>
      </trkpt>
      <trkpt lat="43.45491" lon="3.5126">
        <ele>58.595</ele>
        <time>2010-12-20T09:25:50Z</time>
      </trkpt>
      <trkpt lat="43.45488" lon="3.5127">
        <ele>58.358</ele>
        <time>2010-12-20T09:25:52Z</time>
      </trkpt>
      <trkpt lat="43.45488" lon="3.51288">
        <ele>58.136</ele>
        <time>2010-12-20T09:25:55Z</time>
      </trkpt>
      <trkpt lat="43.45481" lon="3.51328">
        <ele>56.911</ele>
        <time>2010-12-20T09:26:00Z</time>
      </trkpt>
      <trkpt lat="43.45459" lon="3.51398">
        <ele>55.248</ele>
        <time>2010-12-20T09:26:09Z</time>
      </trkpt>
      <trkpt lat="43.45442" lon="3.51453">
        <ele>54.189</ele>
        <time>2010-12-20T09:26:16Z</time>
      </trkpt>
      <trkpt lat="43.45423" lon="3.51514">
        <ele>53.509</ele>
        <time>2010-12-20T09:26:24Z</time>
      </trkpt>
      <trkpt lat="43.454" lon="3.51584">
        <ele>52.6</ele>
        <time>2010-12-20T09:26:33Z</time>
      </trkpt>
      <trkpt lat="43.45374" lon="3.51671">
        <ele>51.557</ele>
        <time>2010-12-20T09:26:44Z</time>
      </trkpt>
      <trkpt lat="43.45357" lon="3.51741">
        <ele>49.956</ele>
        <time>2010-12-20T09:26:52Z</time>
      </trkpt>
      <trkpt lat="43.45344" lon="3.51824">
        <ele>48.487</ele>
        <time>2010-12-20T09:27:01Z</time>
      </trkpt>
      <trkpt lat="43.45329" lon="3.51915">
        <ele>47.09</ele>
        <time>2010-12-20T09:27:11Z</time>
      </trkpt>
      <trkpt lat="43.45313" lon="3.52015">
        <ele>45.443</ele>
        <time>2010-12-20T09:27:22Z</time>
      </trkpt>
      <trkpt lat="43.45294" lon="3.52094">
        <ele>43.844</ele>
        <time>2010-12-20T09:27:31Z</time>
      </trkpt>
      <trkpt lat="43.45271" lon="3.5218">
        <ele>42.892</ele>
        <time>2010-12-20T09:27:41Z</time>
      </trkpt>
      <trkpt lat="43.45254" lon="3.52239">
        <ele>42.275</ele>
        <time>2010-12-20T09:27:48Z</time>
      </trkpt>
      <trkpt lat="43.45227" lon="3.52312">
        <ele>40.892</ele>
        <time>2010-12-20T09:27:57Z</time>
      </trkpt>
      <trkpt lat="43.45198" lon="3.52405">
        <ele>39.796</ele>
        <time>2010-12-20T09:28:08Z</time>
      </trkpt>
      <trkpt lat="43.45177" lon="3.52482">
        <ele>38.825</ele>
        <time>2010-12-20T09:28:17Z</time>
      </trkpt>
      <trkpt lat="43.45159" lon="3.52569">
        <ele>38.106</ele>
        <time>2010-12-20T09:28:27Z</time>
      </trkpt>
      <trkpt lat="43.45138" lon="3.52655">
        <ele>36.943</ele>
        <time>2010-12-20T09:28:37Z</time>
      </trkpt>
      <trkpt lat="43.45106" lon="3.52774">
        <ele>35.48</ele>
        <time>2010-12-20T09:28:51Z</time>
      </trkpt>
      <trkpt lat="43.45088" lon="3.5286">
        <ele>34.325</ele>
        <time>2010-12-20T09:29:01Z</time>
      </trkpt>
      <trkpt lat="43.45066" lon="3.52945">
        <ele>33.517</ele>
        <time>2010-12-20T09:29:11Z</time>
      </trkpt>
      <trkpt lat="43.45042" lon="3.53009">
        <ele>33.067</ele>
        <time>2010-12-20T09:29:19Z</time>
      </trkpt>
      <trkpt lat="43.45017" lon="3.53053">
        <ele>32.302</ele>
        <time>2010-12-20T09:29:26Z</time>
      </trkpt>
      <trkpt lat="43.45008" lon="3.53074">
        <ele>32.054</ele>
        <time>2010-12-20T09:29:30Z</time>
      </trkpt>
      <trkpt lat="43.45013" lon="3.53095">
        <ele>31.937</ele>
        <time>2010-12-20T09:29:34Z</time>
      </trkpt>
      <trkpt lat="43.45025" lon="3.53121">
        <ele>32.305</ele>
        <time>2010-12-20T09:29:38Z</time>
      </trkpt>
      <trkpt lat="43.45026" lon="3.53155">
        <ele>31.555</ele>
        <time>2010-12-20T09:29:42Z</time>
      </trkpt>
      <trkpt lat="43.45021" lon="3.53162">
        <ele>31.183</ele>
        <time>2010-12-20T09:29:43Z</time>
      </trkpt>
      <trkpt lat="43.44974" lon="3.53217">
        <ele>30.781</ele>
        <time>2010-12-20T09:29:53Z</time>
      </trkpt>
      <trkpt lat="43.44932" lon="3.53267">
        <ele>30.886</ele>
        <time>2010-12-20T09:30:02Z</time>
      </trkpt>
      <trkpt lat="43.44887" lon="3.53321">
        <ele>31.173</ele>
        <time>2010-12-20T09:30:12Z</time>
      </trkpt>
      <trkpt lat="43.4485" lon="3.53364">
        <ele>32.102</ele>
        <time>2010-12-20T09:30:21Z</time>
      </trkpt>
      <trkpt lat="43.44819" lon="3.53396">
        <ele>31.939</ele>
        <time>2010-12-20T09:30:28Z</time>
      </trkpt>
      <trkpt lat="43.44771" lon="3.53448">
        <ele>30.114</ele>
        <time>2010-12-20T09:30:37Z</time>
      </trkpt>
      <trkpt lat="43.44748" lon="3.53476">
        <ele>29.895</ele>
        <time>2010-12-20T09:30:42Z</time>
      </trkpt>
      <trkpt lat="43.44727" lon="3.53475">
        <ele>29.634</ele>
        <time>2010-12-20T09:30:46Z</time>
      </trkpt>
      <trkpt lat="43.44706" lon="3.53467">
        <ele>29.856</ele>
        <time>2010-12-20T09:30:50Z</time>
      </trkpt>
      <trkpt lat="43.44665" lon="3.53468">
        <ele>29.903</ele>
        <time>2010-12-20T09:30:57Z</time>
      </trkpt>
      <trkpt lat="43.4466" lon="3.53468">
        <ele>29.905</ele>
        <time>2010-12-20T09:30:58Z</time>
      </trkpt>
      <trkpt lat="43.44601" lon="3.53456">
        <ele>30.291</ele>
        <time>2010-12-20T09:31:08Z</time>
      </trkpt>
      <trkpt lat="43.4455" lon="3.53459">
        <ele>29.486</ele>
        <time>2010-12-20T09:31:16Z</time>
      </trkpt>
      <trkpt lat="43.44538" lon="3.53462">
        <ele>29.295</ele>
        <time>2010-12-20T09:31:18Z</time>
      </trkpt>
      <trkpt lat="43.44507" lon="3.53459">
        <ele>29.032</ele>
        <time>2010-12-20T09:31:23Z</time>
      </trkpt>
      <trkpt lat="43.44464" lon="3.53463">
        <ele>28.313</ele>
        <time>2010-12-20T09:31:30Z</time>
      </trkpt>
      <trkpt lat="43.44458" lon="3.53464">
        <ele>28.076</ele>
        <time>2010-12-20T09:31:31Z</time>
      </trkpt>
      <trkpt lat="43.44446" lon="3.53465">
        <ele>27.966</ele>
        <time>2010-12-20T09:31:33Z</time>
      </trkpt>
      <trkpt lat="43.444" lon="3.53472">
        <ele>28.137</ele>
        <time>2010-12-20T09:31:41Z</time>
      </trkpt>
      <trkpt lat="43.44384" lon="3.53473">
        <ele>28.302</ele>
        <time>2010-12-20T09:31:44Z</time>
      </trkpt>
      <trkpt lat="43.44361" lon="3.5348">
        <ele>28.622</ele>
        <time>2010-12-20T09:31:49Z</time>
      </trkpt>
      <trkpt lat="43.44352" lon="3.53495">
        <ele>28.79</ele>
        <time>2010-12-20T09:31:52Z</time>
      </trkpt>
      <trkpt lat="43.44312" lon="3.53549">
        <ele>28.757</ele>
        <time>2010-12-20T09:32:03Z</time>
      </trkpt>
      <trkpt lat="43.44304" lon="3.53558">
        <ele>28.644</ele>
        <time>2010-12-20T09:32:05Z</time>
      </trkpt>
      <trkpt lat="43.44296" lon="3.53567">
        <ele>28.574</ele>
        <time>2010-12-20T09:32:07Z</time>
      </trkpt>
      <trkpt lat="43.44273" lon="3.53597">
        <ele>28.453</ele>
        <time>2010-12-20T09:32:13Z</time>
      </trkpt>
      <trkpt lat="43.44232" lon="3.53644">
        <ele>28.07</ele>
        <time>2010-12-20T09:32:23Z</time>
      </trkpt>
      <trkpt lat="43.44224" lon="3.53653">
        <ele>28.209</ele>
        <time>2010-12-20T09:32:25Z</time>
      </trkpt>
      <trkpt lat="43.44215" lon="3.5366">
        <ele>28.234</ele>
        <time>2010-12-20T09:32:27Z</time>
      </trkpt>
      <trkpt lat="43.44175" lon="3.53707">
        <ele>28.031</ele>
        <time>2010-12-20T09:32:37Z</time>
      </trkpt>
      <trkpt lat="43.44154" lon="3.53729">
        <ele>27.832</ele>
        <time>2010-12-20T09:32:42Z</time>
      </trkpt>
      <trkpt lat="43.44137" lon="3.53746">
        <ele>27.634</ele>
        <time>2010-12-20T09:32:46Z</time>
      </trkpt>
      <trkpt lat="43.44129" lon="3.53755">
        <ele>27.526</ele>
        <time>2010-12-20T09:32:48Z</time>
      </trkpt>
      <trkpt lat="43.44116" lon="3.53767">
        <ele>27.499</ele>
        <time>2010-12-20T09:32:51Z</time>
      </trkpt>
      <trkpt lat="43.44071" lon="3.53792">
        <ele>27.051</ele>
        <time>2010-12-20T09:33:00Z</time>
      </trkpt>
      <trkpt lat="43.44028" lon="3.53816">
        <ele>26.499</ele>
        <time>2010-12-20T09:33:08Z</time>
      </trkpt>
      <trkpt lat="43.4399" lon="3.53839">
        <ele>26.008</ele>
        <time>2010-12-20T09:33:15Z</time>
      </trkpt>
      <trkpt lat="43.43941" lon="3.53868">
        <ele>25.459</ele>
        <time>2010-12-20T09:33:24Z</time>
      </trkpt>
      <trkpt lat="43.43897" lon="3.53894">
        <ele>25.191</ele>
        <time>2010-12-20T09:33:32Z</time>
      </trkpt>
      <trkpt lat="43.4386" lon="3.53915">
        <ele>25.048</ele>
        <time>2010-12-20T09:33:39Z</time>
      </trkpt>
      <trkpt lat="43.43819" lon="3.53939">
        <ele>25.16</ele>
        <time>2010-12-20T09:33:47Z</time>
      </trkpt>
      <trkpt lat="43.43794" lon="3.53952">
        <ele>24.808</ele>
        <time>2010-12-20T09:33:52Z</time>
      </trkpt>
      <trkpt lat="43.43784" lon="3.53958">
        <ele>24.995</ele>
        <time>2010-12-20T09:33:54Z</time>
      </trkpt>
      <trkpt lat="43.43775" lon="3.53964">
        <ele>25.066</ele>
        <time>2010-12-20T09:33:56Z</time>
      </trkpt>
      <trkpt lat="43.4376" lon="3.53971">
        <ele>25.059</ele>
        <time>2010-12-20T09:33:59Z</time>
      </trkpt>
      <trkpt lat="43.43731" lon="3.53985">
        <ele>24.95</ele>
        <time>2010-12-20T09:34:05Z</time>
      </trkpt>
      <trkpt lat="43.43683" lon="3.54014">
        <ele>25.236</ele>
        <time>2010-12-20T09:34:15Z</time>
      </trkpt>
      <trkpt lat="43.43673" lon="3.54019">
        <ele>25.336</ele>
        <time>2010-12-20T09:34:17Z</time>
      </trkpt>
      <trkpt lat="43.4365" lon="3.54031">
        <ele>25.239</ele>
        <time>2010-12-20T09:34:23Z</time>
      </trkpt>
      <trkpt lat="43.43635" lon="3.54039">
        <ele>25.16</ele>
        <time>2010-12-20T09:34:28Z</time>
      </trkpt>
      <trkpt lat="43.43624" lon="3.54025">
        <ele>24.672</ele>
        <time>2010-12-20T09:34:32Z</time>
      </trkpt>
      <trkpt lat="43.43604" lon="3.53969">
        <ele>22.749</ele>
        <time>2010-12-20T09:34:40Z</time>
      </trkpt>
      <trkpt lat="43.43591" lon="3.53943">
        <ele>22.184</ele>
        <time>2010-12-20T09:34:45Z</time>
      </trkpt>
      <trkpt lat="43.43583" lon="3.53919">
        <ele>22.09</ele>
        <time>2010-12-20T09:34:50Z</time>
      </trkpt>
      <trkpt lat="43.43576" lon="3.53898">
        <ele>21.076</ele>
        <time>2010-12-20T09:34:56Z</time>
      </trkpt>
      <trkpt lat="43.43575" lon="3.53897">
        <ele>20.72</ele>
        <time>2010-12-20T09:34:57Z</time>
      </trkpt>
      <trkpt lat="43.4357" lon="3.53888">
        <ele>20.576</ele>
        <time>2010-12-20T09:35:02Z</time>
      </trkpt>
      <trkpt lat="43.43557" lon="3.53847">
        <ele>21.611</ele>
        <time>2010-12-20T09:35:11Z</time>
      </trkpt>
      <trkpt lat="43.4354" lon="3.53805">
        <ele>22.511</ele>
        <time>2010-12-20T09:35:19Z</time>
      </trkpt>
      <trkpt lat="43.43522" lon="3.53761">
        <ele>23.187</ele>
        <time>2010-12-20T09:35:27Z</time>
      </trkpt>
      <trkpt lat="43.43508" lon="3.53721">
        <ele>24.49</ele>
        <time>2010-12-20T09:35:35Z</time>
      </trkpt>
      <trkpt lat="43.43502" lon="3.53689">
        <ele>26.213</ele>
        <time>2010-12-20T09:35:42Z</time>
      </trkpt>
      <trkpt lat="43.43497" lon="3.53674">
        <ele>27.86</ele>
        <time>2010-12-20T09:35:46Z</time>
      </trkpt>
      <trkpt lat="43.43493" lon="3.53655">
        <ele>30.412</ele>
        <time>2010-12-20T09:35:52Z</time>
      </trkpt>
      <trkpt lat="43.43491" lon="3.53635">
        <ele>32.257</ele>
        <time>2010-12-20T09:35:58Z</time>
      </trkpt>
      <trkpt lat="43.43481" lon="3.53609">
        <ele>33.753</ele>
        <time>2010-12-20T09:36:05Z</time>
      </trkpt>
      <trkpt lat="43.43469" lon="3.53587">
        <ele>34.622</ele>
        <time>2010-12-20T09:36:11Z</time>
      </trkpt>
      <trkpt lat="43.43455" lon="3.5356">
        <ele>35.905</ele>
        <time>2010-12-20T09:36:18Z</time>
      </trkpt>
      <trkpt lat="43.43446" lon="3.53549">
        <ele>36.507</ele>
        <time>2010-12-20T09:36:21Z</time>
      </trkpt>
      <trkpt lat="43.43427" lon="3.53512">
        <ele>35.527</ele>
        <time>2010-12-20T09:36:28Z</time>
      </trkpt>
      <trkpt lat="43.43425" lon="3.53507">
        <ele>35.465</ele>
        <time>2010-12-20T09:36:29Z</time>
      </trkpt>
      <trkpt lat="43.43404" lon="3.53462">
        <ele>34.659</ele>
        <time>2010-12-20T09:36:37Z</time>
      </trkpt>
      <trkpt lat="43.43399" lon="3.5345">
        <ele>34.62</ele>
        <time>2010-12-20T09:36:39Z</time>
      </trkpt>
      <trkpt lat="43.43382" lon="3.53417">
        <ele>34.037</ele>
        <time>2010-12-20T09:36:46Z</time>
      </trkpt>
      <trkpt lat="43.43377" lon="3.53402">
        <ele>33.905</ele>
        <time>2010-12-20T09:36:50Z</time>
      </trkpt>
      <trkpt lat="43.43362" lon="3.53369">
        <ele>34.274</ele>
        <time>2010-12-20T09:36:57Z</time>
      </trkpt>
      <trkpt lat="43.43346" lon="3.53332">
        <ele>34.667</ele>
        <time>2010-12-20T09:37:04Z</time>
      </trkpt>
      <trkpt lat="43.43334" lon="3.53301">
        <ele>34.103</ele>
        <time>2010-12-20T09:37:09Z</time>
      </trkpt>
      <trkpt lat="43.43318" lon="3.53266">
        <ele>33.499</ele>
        <time>2010-12-20T09:37:16Z</time>
      </trkpt>
      <trkpt lat="43.43311" lon="3.53251">
        <ele>33.629</ele>
        <time>2010-12-20T09:37:20Z</time>
      </trkpt>
      <trkpt lat="43.43299" lon="3.53224">
        <ele>33.879</ele>
        <time>2010-12-20T09:37:26Z</time>
      </trkpt>
      <trkpt lat="43.43289" lon="3.53202">
        <ele>34.132</ele>
        <time>2010-12-20T09:37:31Z</time>
      </trkpt>
      <trkpt lat="43.43268" lon="3.53162">
        <ele>35.211</ele>
        <time>2010-12-20T09:37:40Z</time>
      </trkpt>
      <trkpt lat="43.4325" lon="3.53132">
        <ele>36.626</ele>
        <time>2010-12-20T09:37:48Z</time>
      </trkpt>
      <trkpt lat="43.43238" lon="3.53093">
        <ele>38.225</ele>
        <time>2010-12-20T09:37:56Z</time>
      </trkpt>
      <trkpt lat="43.43226" lon="3.53063">
        <ele>38.418</ele>
        <time>2010-12-20T09:38:02Z</time>
      </trkpt>
      <trkpt lat="43.4321" lon="3.53025">
        <ele>38.516</ele>
        <time>2010-12-20T09:38:09Z</time>
      </trkpt>
      <trkpt lat="43.43198" lon="3.52999">
        <ele>38.162</ele>
        <time>2010-12-20T09:38:14Z</time>
      </trkpt>
      <trkpt lat="43.43189" lon="3.52986">
        <ele>37.746</ele>
        <time>2010-12-20T09:38:17Z</time>
      </trkpt>
      <trkpt lat="43.43176" lon="3.52964">
        <ele>36.051</ele>
        <time>2010-12-20T09:38:22Z</time>
      </trkpt>
      <trkpt lat="43.43168" lon="3.52948">
        <ele>35.847</ele>
        <time>2010-12-20T09:38:27Z</time>
      </trkpt>
      <trkpt lat="43.43153" lon="3.52913">
        <ele>36.718</ele>
        <time>2010-12-20T09:38:35Z</time>
      </trkpt>
      <trkpt lat="43.43143" lon="3.52876">
        <ele>37.277</ele>
        <time>2010-12-20T09:38:43Z</time>
      </trkpt>
      <trkpt lat="43.43134" lon="3.52857">
        <ele>38.465</ele>
        <time>2010-12-20T09:38:48Z</time>
      </trkpt>
      <trkpt lat="43.43128" lon="3.52831">
        <ele>39.978</ele>
        <time>2010-12-20T09:38:54Z</time>
      </trkpt>
      <trkpt lat="43.43122" lon="3.52808">
        <ele>41.036</ele>
        <time>2010-12-20T09:39:00Z</time>
      </trkpt>
      <trkpt lat="43.43111" lon="3.52784">
        <ele>42.367</ele>
        <time>2010-12-20T09:39:07Z</time>
      </trkpt>
      <trkpt lat="43.43105" lon="3.52768">
        <ele>42.83</ele>
        <time>2010-12-20T09:39:11Z</time>
      </trkpt>
      <trkpt lat="43.43077" lon="3.52725">
        <ele>42.001</ele>
        <time>2010-12-20T09:39:21Z</time>
      </trkpt>
      <trkpt lat="43.43064" lon="3.52705">
        <ele>41.42</ele>
        <time>2010-12-20T09:39:26Z</time>
      </trkpt>
      <trkpt lat="43.43053" lon="3.52682">
        <ele>41.431</ele>
        <time>2010-12-20T09:39:31Z</time>
      </trkpt>
      <trkpt lat="43.43037" lon="3.52646">
        <ele>41.985</ele>
        <time>2010-12-20T09:39:39Z</time>
      </trkpt>
      <trkpt lat="43.43022" lon="3.52606">
        <ele>43.197</ele>
        <time>2010-12-20T09:39:48Z</time>
      </trkpt>
      <trkpt lat="43.43008" lon="3.52573">
        <ele>43.972</ele>
        <time>2010-12-20T09:39:56Z</time>
      </trkpt>
      <trkpt lat="43.42994" lon="3.52545">
        <ele>44.411</ele>
        <time>2010-12-20T09:40:04Z</time>
      </trkpt>
      <trkpt lat="43.42976" lon="3.52507">
        <ele>46.491</ele>
        <time>2010-12-20T09:40:14Z</time>
      </trkpt>
      <trkpt lat="43.42961" lon="3.52474">
        <ele>47.875</ele>
        <time>2010-12-20T09:40:23Z</time>
      </trkpt>
      <trkpt lat="43.42947" lon="3.52442">
        <ele>49.316</ele>
        <time>2010-12-20T09:40:32Z</time>
      </trkpt>
      <trkpt lat="43.42932" lon="3.5241">
        <ele>50.57</ele>
        <time>2010-12-20T09:40:41Z</time>
      </trkpt>
      <trkpt lat="43.42918" lon="3.52379">
        <ele>52.014</ele>
        <time>2010-12-20T09:40:50Z</time>
      </trkpt>
      <trkpt lat="43.42905" lon="3.52348">
        <ele>53.545</ele>
        <time>2010-12-20T09:40:59Z</time>
      </trkpt>
      <trkpt lat="43.42891" lon="3.52318">
        <ele>54.886</ele>
        <time>2010-12-20T09:41:08Z</time>
      </trkpt>
      <trkpt lat="43.42879" lon="3.52292">
        <ele>56.42</ele>
        <time>2010-12-20T09:41:16Z</time>
      </trkpt>
      <trkpt lat="43.42873" lon="3.52268">
        <ele>57.73</ele>
        <time>2010-12-20T09:41:23Z</time>
      </trkpt>
      <trkpt lat="43.42863" lon="3.5225">
        <ele>59.489</ele>
        <time>2010-12-20T09:41:29Z</time>
      </trkpt>
      <trkpt lat="43.42851" lon="3.52224">
        <ele>61.03</ele>
        <time>2010-12-20T09:41:37Z</time>
      </trkpt>
      <trkpt lat="43.42841" lon="3.52202">
        <ele>62.379</ele>
        <time>2010-12-20T09:41:44Z</time>
      </trkpt>
      <trkpt lat="43.42829" lon="3.52181">
        <ele>63.269</ele>
        <time>2010-12-20T09:41:51Z</time>
      </trkpt>
      <trkpt lat="43.42813" lon="3.52145">
        <ele>64.704</ele>
        <time>2010-12-20T09:42:02Z</time>
      </trkpt>
      <trkpt lat="43.428" lon="3.52106">
        <ele>66.652</ele>
        <time>2010-12-20T09:42:13Z</time>
      </trkpt>
      <trkpt lat="43.42788" lon="3.52082">
        <ele>68.182</ele>
        <time>2010-12-20T09:42:21Z</time>
      </trkpt>
      <trkpt lat="43.42778" lon="3.52065">
        <ele>69.815</ele>
        <time>2010-12-20T09:42:27Z</time>
      </trkpt>
      <trkpt lat="43.42762" lon="3.52031">
        <ele>72.787</ele>
        <time>2010-12-20T09:42:38Z</time>
      </trkpt>
      <trkpt lat="43.42752" lon="3.52004">
        <ele>74.636</ele>
        <time>2010-12-20T09:42:46Z</time>
      </trkpt>
      <trkpt lat="43.42738" lon="3.51971">
        <ele>76.764</ele>
        <time>2010-12-20T09:42:56Z</time>
      </trkpt>
      <trkpt lat="43.42724" lon="3.51937">
        <ele>79.133</ele>
        <time>2010-12-20T09:43:06Z</time>
      </trkpt>
      <trkpt lat="43.42715" lon="3.51911">
        <ele>79.672</ele>
        <time>2010-12-20T09:43:12Z</time>
      </trkpt>
      <trkpt lat="43.42703" lon="3.51874">
        <ele>77.655</ele>
        <time>2010-12-20T09:43:19Z</time>
      </trkpt>
      <trkpt lat="43.42691" lon="3.51845">
        <ele>76.05</ele>
        <time>2010-12-20T09:43:25Z</time>
      </trkpt>
      <trkpt lat="43.42696" lon="3.5183">
        <ele>75.084</ele>
        <time>2010-12-20T09:43:29Z</time>
      </trkpt>
      <trkpt lat="43.42729" lon="3.518">
        <ele>75.621</ele>
        <time>2010-12-20T09:43:41Z</time>
      </trkpt>
      <trkpt lat="43.42748" lon="3.5179">
        <ele>76.185</ele>
        <time>2010-12-20T09:43:47Z</time>
      </trkpt>
      <trkpt lat="43.42773" lon="3.5178">
        <ele>76.849</ele>
        <time>2010-12-20T09:43:55Z</time>
      </trkpt>
      <trkpt lat="43.42797" lon="3.51773">
        <ele>77.749</ele>
        <time>2010-12-20T09:44:03Z</time>
      </trkpt>
      <trkpt lat="43.42821" lon="3.51765">
        <ele>79.213</ele>
        <time>2010-12-20T09:44:11Z</time>
      </trkpt>
      <trkpt lat="43.42852" lon="3.51756">
        <ele>80.499</ele>
        <time>2010-12-20T09:44:21Z</time>
      </trkpt>
      <trkpt lat="43.42884" lon="3.51751">
        <ele>81.164</ele>
        <time>2010-12-20T09:44:31Z</time>
      </trkpt>
      <trkpt lat="43.42913" lon="3.51746">
        <ele>82.799</ele>
        <time>2010-12-20T09:44:40Z</time>
      </trkpt>
      <trkpt lat="43.42945" lon="3.51739">
        <ele>84.224</ele>
        <time>2010-12-20T09:44:50Z</time>
      </trkpt>
      <trkpt lat="43.4298" lon="3.51734">
        <ele>85.786</ele>
        <time>2010-12-20T09:45:01Z</time>
      </trkpt>
      <trkpt lat="43.43008" lon="3.51726">
        <ele>87.663</ele>
        <time>2010-12-20T09:45:10Z</time>
      </trkpt>
      <trkpt lat="43.43036" lon="3.51721">
        <ele>88.425</ele>
        <time>2010-12-20T09:45:18Z</time>
      </trkpt>
      <trkpt lat="43.43057" lon="3.51702">
        <ele>88.199</ele>
        <time>2010-12-20T09:45:24Z</time>
      </trkpt>
      <trkpt lat="43.43089" lon="3.51675">
        <ele>88.203</ele>
        <time>2010-12-20T09:45:32Z</time>
      </trkpt>
      <trkpt lat="43.43101" lon="3.51667">
        <ele>87.934</ele>
        <time>2010-12-20T09:45:35Z</time>
      </trkpt>
      <trkpt lat="43.43133" lon="3.51656">
        <ele>87.133</ele>
        <time>2010-12-20T09:45:42Z</time>
      </trkpt>
      <trkpt lat="43.43146" lon="3.51642">
        <ele>86.568</ele>
        <time>2010-12-20T09:45:46Z</time>
      </trkpt>
      <trkpt lat="43.43154" lon="3.51626">
        <ele>86.37</ele>
        <time>2010-12-20T09:45:49Z</time>
      </trkpt>
      <trkpt lat="43.4316" lon="3.51616">
        <ele>86.229</ele>
        <time>2010-12-20T09:45:51Z</time>
      </trkpt>
      <trkpt lat="43.43188" lon="3.51564">
        <ele>85.276</ele>
        <time>2010-12-20T09:46:00Z</time>
      </trkpt>
      <trkpt lat="43.43201" lon="3.51543">
        <ele>85.425</ele>
        <time>2010-12-20T09:46:04Z</time>
      </trkpt>
      <trkpt lat="43.43226" lon="3.51503">
        <ele>85.285</ele>
        <time>2010-12-20T09:46:12Z</time>
      </trkpt>
      <trkpt lat="43.43248" lon="3.51471">
        <ele>85.284</ele>
        <time>2010-12-20T09:46:19Z</time>
      </trkpt>
      <trkpt lat="43.43265" lon="3.51428">
        <ele>84.957</ele>
        <time>2010-12-20T09:46:27Z</time>
      </trkpt>
      <trkpt lat="43.43275" lon="3.51408">
        <ele>85.87</ele>
        <time>2010-12-20T09:46:32Z</time>
      </trkpt>
      <trkpt lat="43.43291" lon="3.51382">
        <ele>86.353</ele>
        <time>2010-12-20T09:46:38Z</time>
      </trkpt>
      <trkpt lat="43.43308" lon="3.51368">
        <ele>86.844</ele>
        <time>2010-12-20T09:46:43Z</time>
      </trkpt>
      <trkpt lat="43.4333" lon="3.5136">
        <ele>87.86</ele>
        <time>2010-12-20T09:46:49Z</time>
      </trkpt>
      <trkpt lat="43.43345" lon="3.51347">
        <ele>88.849</ele>
        <time>2010-12-20T09:46:54Z</time>
      </trkpt>
      <trkpt lat="43.43368" lon="3.51325">
        <ele>89.453</ele>
        <time>2010-12-20T09:47:02Z</time>
      </trkpt>
      <trkpt lat="43.43385" lon="3.51307">
        <ele>90.169</ele>
        <time>2010-12-20T09:47:08Z</time>
      </trkpt>
      <trkpt lat="43.434" lon="3.51287">
        <ele>91.008</ele>
        <time>2010-12-20T09:47:14Z</time>
      </trkpt>
      <trkpt lat="43.43413" lon="3.51274">
        <ele>91.291</ele>
        <time>2010-12-20T09:47:18Z</time>
      </trkpt>
      <trkpt lat="43.43427" lon="3.51262">
        <ele>91.29</ele>
        <time>2010-12-20T09:47:22Z</time>
      </trkpt>
      <trkpt lat="43.43438" lon="3.51239">
        <ele>90.876</ele>
        <time>2010-12-20T09:47:27Z</time>
      </trkpt>
      <trkpt lat="43.43447" lon="3.51218">
        <ele>90.67</ele>
        <time>2010-12-20T09:47:32Z</time>
      </trkpt>
      <trkpt lat="43.43467" lon="3.51201">
        <ele>90.827</ele>
        <time>2010-12-20T09:47:38Z</time>
      </trkpt>
      <trkpt lat="43.43483" lon="3.51184">
        <ele>92.505</ele>
        <time>2010-12-20T09:47:44Z</time>
      </trkpt>
      <trkpt lat="43.435" lon="3.51171">
        <ele>93.16</ele>
        <time>2010-12-20T09:47:50Z</time>
      </trkpt>
      <trkpt lat="43.4353" lon="3.51162">
        <ele>94.114</ele>
        <time>2010-12-20T09:47:58Z</time>
      </trkpt>
      <trkpt lat="43.43553" lon="3.51153">
        <ele>93.868</ele>
        <time>2010-12-20T09:48:04Z</time>
      </trkpt>
      <trkpt lat="43.43584" lon="3.51146">
        <ele>92.868</ele>
        <time>2010-12-20T09:48:11Z</time>
      </trkpt>
      <trkpt lat="43.43602" lon="3.51138">
        <ele>92.444</ele>
        <time>2010-12-20T09:48:15Z</time>
      </trkpt>
      <trkpt lat="43.43634" lon="3.51121">
        <ele>90.871</ele>
        <time>2010-12-20T09:48:22Z</time>
      </trkpt>
      <trkpt lat="43.43638" lon="3.5112">
        <ele>90.716</ele>
        <time>2010-12-20T09:48:23Z</time>
      </trkpt>
      <trkpt lat="43.43667" lon="3.51117">
        <ele>91.303</ele>
        <time>2010-12-20T09:48:30Z</time>
      </trkpt>
      <trkpt lat="43.43693" lon="3.51113">
        <ele>92.603</ele>
        <time>2010-12-20T09:48:37Z</time>
      </trkpt>
      <trkpt lat="43.43715" lon="3.51105">
        <ele>93.024</ele>
        <time>2010-12-20T09:48:43Z</time>
      </trkpt>
      <trkpt lat="43.43739" lon="3.51094">
        <ele>93.53</ele>
        <time>2010-12-20T09:48:50Z</time>
      </trkpt>
      <trkpt lat="43.43766" lon="3.51086">
        <ele>94.269</ele>
        <time>2010-12-20T09:48:58Z</time>
      </trkpt>
      <trkpt lat="43.43782" lon="3.5108">
        <ele>94.848</ele>
        <time>2010-12-20T09:49:03Z</time>
      </trkpt>
      <trkpt lat="43.43801" lon="3.51071">
        <ele>95.423</ele>
        <time>2010-12-20T09:49:09Z</time>
      </trkpt>
      <trkpt lat="43.4382" lon="3.51059">
        <ele>96.136</ele>
        <time>2010-12-20T09:49:15Z</time>
      </trkpt>
      <trkpt lat="43.43845" lon="3.5105">
        <ele>96.757</ele>
        <time>2010-12-20T09:49:23Z</time>
      </trkpt>
      <trkpt lat="43.43859" lon="3.51046">
        <ele>97.306</ele>
        <time>2010-12-20T09:49:28Z</time>
      </trkpt>
      <trkpt lat="43.43879" lon="3.51039">
        <ele>97.899</ele>
        <time>2010-12-20T09:49:35Z</time>
      </trkpt>
      <trkpt lat="43.43899" lon="3.51033">
        <ele>98.041</ele>
        <time>2010-12-20T09:49:42Z</time>
      </trkpt>
      <trkpt lat="43.43921" lon="3.51024">
        <ele>98.439</ele>
        <time>2010-12-20T09:49:49Z</time>
      </trkpt>
      <trkpt lat="43.43937" lon="3.5102">
        <ele>98.972</ele>
        <time>2010-12-20T09:49:54Z</time>
      </trkpt>
      <trkpt lat="43.4396" lon="3.51022">
        <ele>99.689</ele>
        <time>2010-12-20T09:50:01Z</time>
      </trkpt>
      <trkpt lat="43.43979" lon="3.51023">
        <ele>100.046</ele>
        <time>2010-12-20T09:50:07Z</time>
      </trkpt>
      <trkpt lat="43.43998" lon="3.51017">
        <ele>101.024</ele>
        <time>2010-12-20T09:50:13Z</time>
      </trkpt>
      <trkpt lat="43.4402" lon="3.51007">
        <ele>101.437</ele>
        <time>2010-12-20T09:50:19Z</time>
      </trkpt>
      <trkpt lat="43.44044" lon="3.50996">
        <ele>102.2</ele>
        <time>2010-12-20T09:50:26Z</time>
      </trkpt>
      <trkpt lat="43.44065" lon="3.50989">
        <ele>102.489</ele>
        <time>2010-12-20T09:50:32Z</time>
      </trkpt>
      <trkpt lat="43.44083" lon="3.50982">
        <ele>102.936</ele>
        <time>2010-12-20T09:50:37Z</time>
      </trkpt>
      <trkpt lat="43.44101" lon="3.50974">
        <ele>102.92</ele>
        <time>2010-12-20T09:50:42Z</time>
      </trkpt>
      <trkpt lat="43.4412" lon="3.50965">
        <ele>103.125</ele>
        <time>2010-12-20T09:50:47Z</time>
      </trkpt>
      <trkpt lat="43.4414" lon="3.50958">
        <ele>103.127</ele>
        <time>2010-12-20T09:50:52Z</time>
      </trkpt>
      <trkpt lat="43.44163" lon="3.50946">
        <ele>103.846</ele>
        <time>2010-12-20T09:50:58Z</time>
      </trkpt>
      <trkpt lat="43.44186" lon="3.50937">
        <ele>104.043</ele>
        <time>2010-12-20T09:51:04Z</time>
      </trkpt>
      <trkpt lat="43.44203" lon="3.50927">
        <ele>104.131</ele>
        <time>2010-12-20T09:51:09Z</time>
      </trkpt>
      <trkpt lat="43.4422" lon="3.50917">
        <ele>104.242</ele>
        <time>2010-12-20T09:51:14Z</time>
      </trkpt>
      <trkpt lat="43.44244" lon="3.50896">
        <ele>104.123</ele>
        <time>2010-12-20T09:51:21Z</time>
      </trkpt>
      <trkpt lat="43.44265" lon="3.50876">
        <ele>104.211</ele>
        <time>2010-12-20T09:51:27Z</time>
      </trkpt>
      <trkpt lat="43.44281" lon="3.50865">
        <ele>103.93</ele>
        <time>2010-12-20T09:51:32Z</time>
      </trkpt>
      <trkpt lat="43.44292" lon="3.5086">
        <ele>103.842</ele>
        <time>2010-12-20T09:51:37Z</time>
      </trkpt>
      <trkpt lat="43.44304" lon="3.50851">
        <ele>103.751</ele>
        <time>2010-12-20T09:51:44Z</time>
      </trkpt>
      <trkpt lat="43.4431" lon="3.50829">
        <ele>103.625</ele>
        <time>2010-12-20T09:51:50Z</time>
      </trkpt>
      <trkpt lat="43.44318" lon="3.50817">
        <ele>103.063</ele>
        <time>2010-12-20T09:51:53Z</time>
      </trkpt>
      <trkpt lat="43.44329" lon="3.50795">
        <ele>102.361</ele>
        <time>2010-12-20T09:51:57Z</time>
      </trkpt>
      <trkpt lat="43.44344" lon="3.50775">
        <ele>102.107</ele>
        <time>2010-12-20T09:52:01Z</time>
      </trkpt>
      <trkpt lat="43.44353" lon="3.50759">
        <ele>101.939</ele>
        <time>2010-12-20T09:52:04Z</time>
      </trkpt>
      <trkpt lat="43.44358" lon="3.50748">
        <ele>101.871</ele>
        <time>2010-12-20T09:52:06Z</time>
      </trkpt>
      <trkpt lat="43.44369" lon="3.50725">
        <ele>101.128</ele>
        <time>2010-12-20T09:52:10Z</time>
      </trkpt>
      <trkpt lat="43.44378" lon="3.50708">
        <ele>100.9</ele>
        <time>2010-12-20T09:52:13Z</time>
      </trkpt>
      <trkpt lat="43.444" lon="3.50665">
        <ele>100.223</ele>
        <time>2010-12-20T09:52:20Z</time>
      </trkpt>
      <trkpt lat="43.44422" lon="3.5062">
        <ele>100.18</ele>
        <time>2010-12-20T09:52:28Z</time>
      </trkpt>
      <trkpt lat="43.44424" lon="3.50615">
        <ele>100.196</ele>
        <time>2010-12-20T09:52:29Z</time>
      </trkpt>
      <trkpt lat="43.44438" lon="3.50586">
        <ele>100.6</ele>
        <time>2010-12-20T09:52:35Z</time>
      </trkpt>
      <trkpt lat="43.44439" lon="3.50582">
        <ele>100.855</ele>
        <time>2010-12-20T09:52:36Z</time>
      </trkpt>
      <trkpt lat="43.44453" lon="3.50566">
        <ele>101.489</ele>
        <time>2010-12-20T09:52:40Z</time>
      </trkpt>
      <trkpt lat="43.44457" lon="3.50561">
        <ele>101.307</ele>
        <time>2010-12-20T09:52:41Z</time>
      </trkpt>
      <trkpt lat="43.44469" lon="3.50546">
        <ele>100.655</ele>
        <time>2010-12-20T09:52:44Z</time>
      </trkpt>
      <trkpt lat="43.4449" lon="3.50517">
        <ele>99.556</ele>
        <time>2010-12-20T09:52:50Z</time>
      </trkpt>
      <trkpt lat="43.44507" lon="3.50504">
        <ele>98.641</ele>
        <time>2010-12-20T09:52:55Z</time>
      </trkpt>
      <trkpt lat="43.44527" lon="3.50502">
        <ele>96.808</ele>
        <time>2010-12-20T09:52:59Z</time>
      </trkpt>
      <trkpt lat="43.4457" lon="3.505">
        <ele>96.148</ele>
        <time>2010-12-20T09:53:07Z</time>
      </trkpt>
      <trkpt lat="43.44574" lon="3.50499">
        <ele>96.216</ele>
        <time>2010-12-20T09:53:08Z</time>
      </trkpt>
      <trkpt lat="43.44598" lon="3.50485">
        <ele>96.702</ele>
        <time>2010-12-20T09:53:14Z</time>
      </trkpt>
      <trkpt lat="43.44626" lon="3.50462">
        <ele>95.906</ele>
        <time>2010-12-20T09:53:21Z</time>
      </trkpt>
      <trkpt lat="43.44644" lon="3.50451">
        <ele>96.018</ele>
        <time>2010-12-20T09:53:26Z</time>
      </trkpt>
      <trkpt lat="43.44673" lon="3.50426">
        <ele>95.46</ele>
        <time>2010-12-20T09:53:34Z</time>
      </trkpt>
      <trkpt lat="43.447" lon="3.50395">
        <ele>95.219</ele>
        <time>2010-12-20T09:53:42Z</time>
      </trkpt>
      <trkpt lat="43.4473" lon="3.50353">
        <ele>95.172</ele>
        <time>2010-12-20T09:53:52Z</time>
      </trkpt>
      <trkpt lat="43.44748" lon="3.5033">
        <ele>95.225</ele>
        <time>2010-12-20T09:53:58Z</time>
      </trkpt>
      <trkpt lat="43.44781" lon="3.5029">
        <ele>95.27</ele>
        <time>2010-12-20T09:54:09Z</time>
      </trkpt>
      <trkpt lat="43.44818" lon="3.50253">
        <ele>96.321</ele>
        <time>2010-12-20T09:54:21Z</time>
      </trkpt>
      <trkpt lat="43.44852" lon="3.50217">
        <ele>97.279</ele>
        <time>2010-12-20T09:54:32Z</time>
      </trkpt>
      <trkpt lat="43.44873" lon="3.50197">
        <ele>98.351</ele>
        <time>2010-12-20T09:54:39Z</time>
      </trkpt>
      <trkpt lat="43.44888" lon="3.50189">
        <ele>98.868</ele>
        <time>2010-12-20T09:54:44Z</time>
      </trkpt>
      <trkpt lat="43.44904" lon="3.5018">
        <ele>99.366</ele>
        <time>2010-12-20T09:54:49Z</time>
      </trkpt>
      <trkpt lat="43.44918" lon="3.5016">
        <ele>99.007</ele>
        <time>2010-12-20T09:54:55Z</time>
      </trkpt>
      <trkpt lat="43.44928" lon="3.50145">
        <ele>98.801</ele>
        <time>2010-12-20T09:55:01Z</time>
      </trkpt>
      <trkpt lat="43.44944" lon="3.50123">
        <ele>98.743</ele>
        <time>2010-12-20T09:55:09Z</time>
      </trkpt>
      <trkpt lat="43.44963" lon="3.5008">
        <ele>98.654</ele>
        <time>2010-12-20T09:55:17Z</time>
      </trkpt>
      <trkpt lat="43.44982" lon="3.50029">
        <ele>97.721</ele>
        <time>2010-12-20T09:55:25Z</time>
      </trkpt>
      <trkpt lat="43.44997" lon="3.49968">
        <ele>97.351</ele>
        <time>2010-12-20T09:55:33Z</time>
      </trkpt>
      <trkpt lat="43.45017" lon="3.49904">
        <ele>97.518</ele>
        <time>2010-12-20T09:55:42Z</time>
      </trkpt>
      <trkpt lat="43.45021" lon="3.49892">
        <ele>97.804</ele>
        <time>2010-12-20T09:55:44Z</time>
      </trkpt>
      <trkpt lat="43.45033" lon="3.49871">
        <ele>98.203</ele>
        <time>2010-12-20T09:55:48Z</time>
      </trkpt>
      <trkpt lat="43.4504" lon="3.49853">
        <ele>98.469</ele>
        <time>2010-12-20T09:55:51Z</time>
      </trkpt>
      <trkpt lat="43.4505" lon="3.49826">
        <ele>99.147</ele>
        <time>2010-12-20T09:55:56Z</time>
      </trkpt>
      <trkpt lat="43.45068" lon="3.49792">
        <ele>99.537</ele>
        <time>2010-12-20T09:56:02Z</time>
      </trkpt>
      <trkpt lat="43.45095" lon="3.49761">
        <ele>98.955</ele>
        <time>2010-12-20T09:56:09Z</time>
      </trkpt>
      <trkpt lat="43.45104" lon="3.49753">
        <ele>98.869</ele>
        <time>2010-12-20T09:56:12Z</time>
      </trkpt>
      <trkpt lat="43.45111" lon="3.49746">
        <ele>98.862</ele>
        <time>2010-12-20T09:56:14Z</time>
      </trkpt>
      <trkpt lat="43.45136" lon="3.49722">
        <ele>99.352</ele>
        <time>2010-12-20T09:56:20Z</time>
      </trkpt>
      <trkpt lat="43.45157" lon="3.4969">
        <ele>99.585</ele>
        <time>2010-12-20T09:56:26Z</time>
      </trkpt>
      <trkpt lat="43.45182" lon="3.49638">
        <ele>99.329</ele>
        <time>2010-12-20T09:56:34Z</time>
      </trkpt>
      <trkpt lat="43.45217" lon="3.49568">
        <ele>99.286</ele>
        <time>2010-12-20T09:56:45Z</time>
      </trkpt>
      <trkpt lat="43.45244" lon="3.49519">
        <ele>98.927</ele>
        <time>2010-12-20T09:56:53Z</time>
      </trkpt>
      <trkpt lat="43.45258" lon="3.49497">
        <ele>99.351</ele>
        <time>2010-12-20T09:56:57Z</time>
      </trkpt>
      <trkpt lat="43.45283" lon="3.49453">
        <ele>99.819</ele>
        <time>2010-12-20T09:57:05Z</time>
      </trkpt>
      <trkpt lat="43.45307" lon="3.49404">
        <ele>100.807</ele>
        <time>2010-12-20T09:57:14Z</time>
      </trkpt>
      <trkpt lat="43.4532" lon="3.49377">
        <ele>100.968</ele>
        <time>2010-12-20T09:57:19Z</time>
      </trkpt>
      <trkpt lat="43.45326" lon="3.49357">
        <ele>100.629</ele>
        <time>2010-12-20T09:57:23Z</time>
      </trkpt>
      <trkpt lat="43.45334" lon="3.49339">
        <ele>100.001</ele>
        <time>2010-12-20T09:57:28Z</time>
      </trkpt>
      <trkpt lat="43.45343" lon="3.49329">
        <ele>99.927</ele>
        <time>2010-12-20T09:57:33Z</time>
      </trkpt>
      <trkpt lat="43.45358" lon="3.49311">
        <ele>100.082</ele>
        <time>2010-12-20T09:57:40Z</time>
      </trkpt>
      <trkpt lat="43.45384" lon="3.4929">
        <ele>99.757</ele>
        <time>2010-12-20T09:57:49Z</time>
      </trkpt>
      <trkpt lat="43.45397" lon="3.49277">
        <ele>100.022</ele>
        <time>2010-12-20T09:57:54Z</time>
      </trkpt>
      <trkpt lat="43.45429" lon="3.4925">
        <ele>100.316</ele>
        <time>2010-12-20T09:58:04Z</time>
      </trkpt>
      <trkpt lat="43.45445" lon="3.4924">
        <ele>100.031</ele>
        <time>2010-12-20T09:58:10Z</time>
      </trkpt>
      <trkpt lat="43.45462" lon="3.49229">
        <ele>100.114</ele>
        <time>2010-12-20T09:58:16Z</time>
      </trkpt>
      <trkpt lat="43.45491" lon="3.4921">
        <ele>100.506</ele>
        <time>2010-12-20T09:58:23Z</time>
      </trkpt>
      <trkpt lat="43.45498" lon="3.49204">
        <ele>100.508</ele>
        <time>2010-12-20T09:58:25Z</time>
      </trkpt>
      <trkpt lat="43.45529" lon="3.49186">
        <ele>101.033</ele>
        <time>2010-12-20T09:58:33Z</time>
      </trkpt>
      <trkpt lat="43.45554" lon="3.49169">
        <ele>102.471</ele>
        <time>2010-12-20T09:58:40Z</time>
      </trkpt>
      <trkpt lat="43.45571" lon="3.49154">
        <ele>103.266</ele>
        <time>2010-12-20T09:58:46Z</time>
      </trkpt>
      <trkpt lat="43.45603" lon="3.49122">
        <ele>104.069</ele>
        <time>2010-12-20T09:58:56Z</time>
      </trkpt>
      <trkpt lat="43.45631" lon="3.49093">
        <ele>104.532</ele>
        <time>2010-12-20T09:59:05Z</time>
      </trkpt>
      <trkpt lat="43.45639" lon="3.49068">
        <ele>105.33</ele>
        <time>2010-12-20T09:59:10Z</time>
      </trkpt>
      <trkpt lat="43.4564" lon="3.49064">
        <ele>105.573</ele>
        <time>2010-12-20T09:59:11Z</time>
      </trkpt>
      <trkpt lat="43.45631" lon="3.49048">
        <ele>105.74</ele>
        <time>2010-12-20T09:59:15Z</time>
      </trkpt>
      <trkpt lat="43.45628" lon="3.49044">
        <ele>105.737</ele>
        <time>2010-12-20T09:59:16Z</time>
      </trkpt>
      <trkpt lat="43.45595" lon="3.48996">
        <ele>106.377</ele>
        <time>2010-12-20T09:59:27Z</time>
      </trkpt>
      <trkpt lat="43.45588" lon="3.48988">
        <ele>106.299</ele>
        <time>2010-12-20T09:59:29Z</time>
      </trkpt>
      <trkpt lat="43.45567" lon="3.48946">
        <ele>106.609</ele>
        <time>2010-12-20T09:59:37Z</time>
      </trkpt>
      <trkpt lat="43.45548" lon="3.48901">
        <ele>107.018</ele>
        <time>2010-12-20T09:59:45Z</time>
      </trkpt>
      <trkpt lat="43.45534" lon="3.48876">
        <ele>106.988</ele>
        <time>2010-12-20T09:59:50Z</time>
      </trkpt>
      <trkpt lat="43.45528" lon="3.48852">
        <ele>107.503</ele>
        <time>2010-12-20T09:59:54Z</time>
      </trkpt>
      <trkpt lat="43.45507" lon="3.48796">
        <ele>108.202</ele>
        <time>2010-12-20T10:00:04Z</time>
      </trkpt>
      <trkpt lat="43.45489" lon="3.4875">
        <ele>108.598</ele>
        <time>2010-12-20T10:00:12Z</time>
      </trkpt>
      <trkpt lat="43.45473" lon="3.48722">
        <ele>108.432</ele>
        <time>2010-12-20T10:00:17Z</time>
      </trkpt>
      <trkpt lat="43.45465" lon="3.48706">
        <ele>108.1</ele>
        <time>2010-12-20T10:00:20Z</time>
      </trkpt>
      <trkpt lat="43.45449" lon="3.48681">
        <ele>107.788</ele>
        <time>2010-12-20T10:00:25Z</time>
      </trkpt>
      <trkpt lat="43.45444" lon="3.48678">
        <ele>107.643</ele>
        <time>2010-12-20T10:00:26Z</time>
      </trkpt>
      <trkpt lat="43.4543" lon="3.48671">
        <ele>107.152</ele>
        <time>2010-12-20T10:00:29Z</time>
      </trkpt>
      <trkpt lat="43.45396" lon="3.48637">
        <ele>106.713</ele>
        <time>2010-12-20T10:00:37Z</time>
      </trkpt>
      <trkpt lat="43.4537" lon="3.48605">
        <ele>105.008</ele>
        <time>2010-12-20T10:00:44Z</time>
      </trkpt>
      <trkpt lat="43.45347" lon="3.48581">
        <ele>104.115</ele>
        <time>2010-12-20T10:00:50Z</time>
      </trkpt>
      <trkpt lat="43.45335" lon="3.48553">
        <ele>103.441</ele>
        <time>2010-12-20T10:00:55Z</time>
      </trkpt>
      <trkpt lat="43.45337" lon="3.48527">
        <ele>103.054</ele>
        <time>2010-12-20T10:00:59Z</time>
      </trkpt>
      <trkpt lat="43.45353" lon="3.48477">
        <ele>103.135</ele>
        <time>2010-12-20T10:01:07Z</time>
      </trkpt>
      <trkpt lat="43.45355" lon="3.48471">
        <ele>103.29</ele>
        <time>2010-12-20T10:01:08Z</time>
      </trkpt>
      <trkpt lat="43.45368" lon="3.48429">
        <ele>102.659</ele>
        <time>2010-12-20T10:01:15Z</time>
      </trkpt>
      <trkpt lat="43.4538" lon="3.48368">
        <ele>101.556</ele>
        <time>2010-12-20T10:01:24Z</time>
      </trkpt>
      <trkpt lat="43.45382" lon="3.48355">
        <ele>101.183</ele>
        <time>2010-12-20T10:01:26Z</time>
      </trkpt>
      <trkpt lat="43.45373" lon="3.48338">
        <ele>100.881</ele>
        <time>2010-12-20T10:01:30Z</time>
      </trkpt>
      <trkpt lat="43.4536" lon="3.48343">
        <ele>101.095</ele>
        <time>2010-12-20T10:01:33Z</time>
      </trkpt>
      <trkpt lat="43.45341" lon="3.4835">
        <ele>101.613</ele>
        <time>2010-12-20T10:01:37Z</time>
      </trkpt>
      <trkpt lat="43.45319" lon="3.48359">
        <ele>102.487</ele>
        <time>2010-12-20T10:01:42Z</time>
      </trkpt>
      <trkpt lat="43.453" lon="3.48362">
        <ele>103.164</ele>
        <time>2010-12-20T10:01:46Z</time>
      </trkpt>
      <trkpt lat="43.45284" lon="3.48373">
        <ele>103.839</ele>
        <time>2010-12-20T10:01:50Z</time>
      </trkpt>
      <trkpt lat="43.45264" lon="3.48386">
        <ele>104.247</ele>
        <time>2010-12-20T10:01:55Z</time>
      </trkpt>
      <trkpt lat="43.45225" lon="3.48415">
        <ele>104.913</ele>
        <time>2010-12-20T10:02:04Z</time>
      </trkpt>
      <trkpt lat="43.45195" lon="3.48431">
        <ele>104.994</ele>
        <time>2010-12-20T10:02:11Z</time>
      </trkpt>
      <trkpt lat="43.45163" lon="3.48441">
        <ele>105.483</ele>
        <time>2010-12-20T10:02:18Z</time>
      </trkpt>
      <trkpt lat="43.45146" lon="3.48445">
        <ele>105.491</ele>
        <time>2010-12-20T10:02:23Z</time>
      </trkpt>
      <trkpt lat="43.45133" lon="3.4844">
        <ele>105.143</ele>
        <time>2010-12-20T10:02:27Z</time>
      </trkpt>
      <trkpt lat="43.45116" lon="3.48428">
        <ele>105.123</ele>
        <time>2010-12-20T10:02:32Z</time>
      </trkpt>
      <trkpt lat="43.45098" lon="3.48412">
        <ele>104.935</ele>
        <time>2010-12-20T10:02:38Z</time>
      </trkpt>
      <trkpt lat="43.45094" lon="3.48409">
        <ele>104.902</ele>
        <time>2010-12-20T10:02:39Z</time>
      </trkpt>
      <trkpt lat="43.45075" lon="3.48409">
        <ele>104.235</ele>
        <time>2010-12-20T10:02:43Z</time>
      </trkpt>
      <trkpt lat="43.45064" lon="3.48417">
        <ele>103.519</ele>
        <time>2010-12-20T10:02:45Z</time>
      </trkpt>
      <trkpt lat="43.45034" lon="3.48447">
        <ele>100.978</ele>
        <time>2010-12-20T10:02:51Z</time>
      </trkpt>
      <trkpt lat="43.45008" lon="3.48452">
        <ele>98.482</ele>
        <time>2010-12-20T10:02:55Z</time>
      </trkpt>
      <trkpt lat="43.44956" lon="3.48445">
        <ele>94.337</ele>
        <time>2010-12-20T10:03:02Z</time>
      </trkpt>
      <trkpt lat="43.44939" lon="3.48445">
        <ele>93.604</ele>
        <time>2010-12-20T10:03:04Z</time>
      </trkpt>
      <trkpt lat="43.4493" lon="3.48447">
        <ele>92.693</ele>
        <time>2010-12-20T10:03:05Z</time>
      </trkpt>
      <trkpt lat="43.4487" lon="3.48468">
        <ele>88.128</ele>
        <time>2010-12-20T10:03:11Z</time>
      </trkpt>
      <trkpt lat="43.44809" lon="3.48478">
        <ele>83.927</ele>
        <time>2010-12-20T10:03:17Z</time>
      </trkpt>
      <trkpt lat="43.44793" lon="3.48479">
        <ele>82.447</ele>
        <time>2010-12-20T10:03:19Z</time>
      </trkpt>
      <trkpt lat="43.4477" lon="3.48481">
        <ele>80.439</ele>
        <time>2010-12-20T10:03:23Z</time>
      </trkpt>
      <trkpt lat="43.44765" lon="3.48471">
        <ele>79.976</ele>
        <time>2010-12-20T10:03:25Z</time>
      </trkpt>
      <trkpt lat="43.44755" lon="3.48436">
        <ele>80.481</ele>
        <time>2010-12-20T10:03:31Z</time>
      </trkpt>
      <trkpt lat="43.44752" lon="3.48412">
        <ele>81.173</ele>
        <time>2010-12-20T10:03:35Z</time>
      </trkpt>
      <trkpt lat="43.44746" lon="3.48379">
        <ele>81.365</ele>
        <time>2010-12-20T10:03:41Z</time>
      </trkpt>
      <trkpt lat="43.4474" lon="3.48333">
        <ele>82.189</ele>
        <time>2010-12-20T10:03:49Z</time>
      </trkpt>
      <trkpt lat="43.44736" lon="3.48283">
        <ele>82.896</ele>
        <time>2010-12-20T10:03:58Z</time>
      </trkpt>
      <trkpt lat="43.44733" lon="3.48242">
        <ele>83.788</ele>
        <time>2010-12-20T10:04:06Z</time>
      </trkpt>
      <trkpt lat="43.44739" lon="3.48224">
        <ele>84.229</ele>
        <time>2010-12-20T10:04:10Z</time>
      </trkpt>
      <trkpt lat="43.44746" lon="3.48206">
        <ele>85.787</ele>
        <time>2010-12-20T10:04:15Z</time>
      </trkpt>
      <trkpt lat="43.44764" lon="3.48188">
        <ele>87.144</ele>
        <time>2010-12-20T10:04:23Z</time>
      </trkpt>
      <trkpt lat="43.44766" lon="3.48187">
        <ele>87.555</ele>
        <time>2010-12-20T10:04:24Z</time>
      </trkpt>
      <trkpt lat="43.4477" lon="3.4818">
        <ele>88.78</ele>
        <time>2010-12-20T10:04:27Z</time>
      </trkpt>
      <trkpt lat="43.44779" lon="3.48165">
        <ele>90.349</ele>
        <time>2010-12-20T10:04:33Z</time>
      </trkpt>
      <trkpt lat="43.44788" lon="3.48148">
        <ele>92.092</ele>
        <time>2010-12-20T10:04:39Z</time>
      </trkpt>
      <trkpt lat="43.44791" lon="3.4814">
        <ele>92.624</ele>
        <time>2010-12-20T10:04:42Z</time>
      </trkpt>
      <trkpt lat="43.44786" lon="3.48125">
        <ele>92.826</ele>
        <time>2010-12-20T10:04:46Z</time>
      </trkpt>
      <trkpt lat="43.44781" lon="3.48105">
        <ele>91.437</ele>
        <time>2010-12-20T10:04:50Z</time>
      </trkpt>
      <trkpt lat="43.44778" lon="3.48092">
        <ele>90.651</ele>
        <time>2010-12-20T10:04:54Z</time>
      </trkpt>
      <trkpt lat="43.44772" lon="3.48089">
        <ele>91.071</ele>
        <time>2010-12-20T10:04:57Z</time>
      </trkpt>
      <trkpt lat="43.44763" lon="3.48076">
        <ele>90.94</ele>
        <time>2010-12-20T10:05:01Z</time>
      </trkpt>
      <trkpt lat="43.44761" lon="3.48057">
        <ele>90.583</ele>
        <time>2010-12-20T10:05:05Z</time>
      </trkpt>
      <trkpt lat="43.44762" lon="3.48049">
        <ele>90.787</ele>
        <time>2010-12-20T10:05:07Z</time>
      </trkpt>
      <trkpt lat="43.44748" lon="3.48024">
        <ele>91.973</ele>
        <time>2010-12-20T10:05:14Z</time>
      </trkpt>
      <trkpt lat="43.44739" lon="3.48005">
        <ele>92.285</ele>
        <time>2010-12-20T10:05:19Z</time>
      </trkpt>
      <trkpt lat="43.44731" lon="3.47994">
        <ele>91.547</ele>
        <time>2010-12-20T10:05:22Z</time>
      </trkpt>
      <trkpt lat="43.44721" lon="3.47991">
        <ele>90.588</ele>
        <time>2010-12-20T10:05:25Z</time>
      </trkpt>
      <trkpt lat="43.44695" lon="3.47989">
        <ele>89.314</ele>
        <time>2010-12-20T10:05:31Z</time>
      </trkpt>
      <trkpt lat="43.44691" lon="3.47974">
        <ele>88.638</ele>
        <time>2010-12-20T10:05:34Z</time>
      </trkpt>
      <trkpt lat="43.44687" lon="3.47946">
        <ele>87.923</ele>
        <time>2010-12-20T10:05:39Z</time>
      </trkpt>
      <trkpt lat="43.44684" lon="3.47941">
        <ele>87.813</ele>
        <time>2010-12-20T10:05:40Z</time>
      </trkpt>
      <trkpt lat="43.44668" lon="3.47907">
        <ele>87.147</ele>
        <time>2010-12-20T10:05:46Z</time>
      </trkpt>
      <trkpt lat="43.44655" lon="3.47879">
        <ele>87.068</ele>
        <time>2010-12-20T10:05:51Z</time>
      </trkpt>
      <trkpt lat="43.44653" lon="3.47849">
        <ele>86.98</ele>
        <time>2010-12-20T10:05:56Z</time>
      </trkpt>
      <trkpt lat="43.44657" lon="3.4784">
        <ele>86.85</ele>
        <time>2010-12-20T10:05:58Z</time>
      </trkpt>
      <trkpt lat="43.44658" lon="3.47809">
        <ele>87.231</ele>
        <time>2010-12-20T10:06:04Z</time>
      </trkpt>
      <trkpt lat="43.44657" lon="3.47804">
        <ele>87.52</ele>
        <time>2010-12-20T10:06:05Z</time>
      </trkpt>
      <trkpt lat="43.44657" lon="3.47783">
        <ele>87.958</ele>
        <time>2010-12-20T10:06:09Z</time>
      </trkpt>
      <trkpt lat="43.44661" lon="3.47743">
        <ele>87.7</ele>
        <time>2010-12-20T10:06:17Z</time>
      </trkpt>
      <trkpt lat="43.44654" lon="3.4773">
        <ele>87.772</ele>
        <time>2010-12-20T10:06:21Z</time>
      </trkpt>
      <trkpt lat="43.44653" lon="3.47727">
        <ele>87.76</ele>
        <time>2010-12-20T10:06:23Z</time>
      </trkpt>
      <trkpt lat="43.44647" lon="3.4773">
        <ele>87.806</ele>
        <time>2010-12-20T10:06:29Z</time>
      </trkpt>
      <trkpt lat="43.44649" lon="3.47731">
        <ele>87.665</ele>
        <time>2010-12-20T10:06:33Z</time>
      </trkpt>
      <trkpt lat="43.44649" lon="3.4773">
        <ele>87.784</ele>
        <time>2010-12-20T10:08:12Z</time>
      </trkpt>
      <trkpt lat="43.44648" lon="3.47717">
        <ele>88.078</ele>
        <time>2010-12-20T10:08:18Z</time>
      </trkpt>
      <trkpt lat="43.44652" lon="3.47699">
        <ele>88.243</ele>
        <time>2010-12-20T10:08:22Z</time>
      </trkpt>
      <trkpt lat="43.44646" lon="3.47684">
        <ele>87.891</ele>
        <time>2010-12-20T10:08:26Z</time>
      </trkpt>
      <trkpt lat="43.44634" lon="3.47682">
        <ele>87.505</ele>
        <time>2010-12-20T10:08:29Z</time>
      </trkpt>
      <trkpt lat="43.44615" lon="3.47685">
        <ele>87.162</ele>
        <time>2010-12-20T10:08:34Z</time>
      </trkpt>
      <trkpt lat="43.44611" lon="3.47687">
        <ele>87.161</ele>
        <time>2010-12-20T10:08:35Z</time>
      </trkpt>
      <trkpt lat="43.4459" lon="3.47691">
        <ele>86.657</ele>
        <time>2010-12-20T10:08:40Z</time>
      </trkpt>
      <trkpt lat="43.44556" lon="3.47686">
        <ele>85.386</ele>
        <time>2010-12-20T10:08:47Z</time>
      </trkpt>
      <trkpt lat="43.44523" lon="3.47678">
        <ele>85.114</ele>
        <time>2010-12-20T10:08:54Z</time>
      </trkpt>
      <trkpt lat="43.445" lon="3.47678">
        <ele>84.836</ele>
        <time>2010-12-20T10:09:00Z</time>
      </trkpt>
      <trkpt lat="43.44471" lon="3.47681">
        <ele>84.716</ele>
        <time>2010-12-20T10:09:08Z</time>
      </trkpt>
      <trkpt lat="43.44441" lon="3.4769">
        <ele>84.671</ele>
        <time>2010-12-20T10:09:17Z</time>
      </trkpt>
      <trkpt lat="43.44413" lon="3.47699">
        <ele>84.981</ele>
        <time>2010-12-20T10:09:26Z</time>
      </trkpt>
      <trkpt lat="43.44378" lon="3.47708">
        <ele>85.446</ele>
        <time>2010-12-20T10:09:37Z</time>
      </trkpt>
      <trkpt lat="43.44349" lon="3.47715">
        <ele>85.588</ele>
        <time>2010-12-20T10:09:46Z</time>
      </trkpt>
      <trkpt lat="43.44323" lon="3.47724">
        <ele>85.962</ele>
        <time>2010-12-20T10:09:54Z</time>
      </trkpt>
      <trkpt lat="43.44294" lon="3.47734">
        <ele>86.851</ele>
        <time>2010-12-20T10:10:03Z</time>
      </trkpt>
      <trkpt lat="43.44275" lon="3.47738">
        <ele>87.882</ele>
        <time>2010-12-20T10:10:09Z</time>
      </trkpt>
      <trkpt lat="43.44267" lon="3.47722">
        <ele>88.388</ele>
        <time>2010-12-20T10:10:14Z</time>
      </trkpt>
      <trkpt lat="43.44266" lon="3.47703">
        <ele>89.283</ele>
        <time>2010-12-20T10:10:19Z</time>
      </trkpt>
      <trkpt lat="43.44273" lon="3.47673">
        <ele>90.455</ele>
        <time>2010-12-20T10:10:26Z</time>
      </trkpt>
      <trkpt lat="43.44281" lon="3.47649">
        <ele>90.836</ele>
        <time>2010-12-20T10:10:31Z</time>
      </trkpt>
      <trkpt lat="43.44293" lon="3.47611">
        <ele>92.026</ele>
        <time>2010-12-20T10:10:39Z</time>
      </trkpt>
      <trkpt lat="43.44303" lon="3.47578">
        <ele>93.81</ele>
        <time>2010-12-20T10:10:46Z</time>
      </trkpt>
      <trkpt lat="43.44307" lon="3.47555">
        <ele>94.537</ele>
        <time>2010-12-20T10:10:51Z</time>
      </trkpt>
      <trkpt lat="43.44318" lon="3.4753">
        <ele>95.116</ele>
        <time>2010-12-20T10:10:57Z</time>
      </trkpt>
      <trkpt lat="43.44336" lon="3.47511">
        <ele>95.446</ele>
        <time>2010-12-20T10:11:03Z</time>
      </trkpt>
      <trkpt lat="43.44351" lon="3.47494">
        <ele>95.497</ele>
        <time>2010-12-20T10:11:08Z</time>
      </trkpt>
      <trkpt lat="43.44377" lon="3.4748">
        <ele>94.906</ele>
        <time>2010-12-20T10:11:14Z</time>
      </trkpt>
      <trkpt lat="43.44386" lon="3.47476">
        <ele>94.922</ele>
        <time>2010-12-20T10:11:16Z</time>
      </trkpt>
      <trkpt lat="43.44405" lon="3.47456">
        <ele>94.567</ele>
        <time>2010-12-20T10:11:21Z</time>
      </trkpt>
      <trkpt lat="43.44412" lon="3.47431">
        <ele>94.286</ele>
        <time>2010-12-20T10:11:25Z</time>
      </trkpt>
      <trkpt lat="43.44412" lon="3.47424">
        <ele>94.151</ele>
        <time>2010-12-20T10:11:26Z</time>
      </trkpt>
      <trkpt lat="43.44411" lon="3.47404">
        <ele>94.011</ele>
        <time>2010-12-20T10:11:29Z</time>
      </trkpt>
      <trkpt lat="43.44416" lon="3.47373">
        <ele>93.127</ele>
        <time>2010-12-20T10:11:34Z</time>
      </trkpt>
      <trkpt lat="43.44409" lon="3.47362">
        <ele>91.649</ele>
        <time>2010-12-20T10:11:38Z</time>
      </trkpt>
      <trkpt lat="43.44378" lon="3.47361">
        <ele>90.657</ele>
        <time>2010-12-20T10:11:44Z</time>
      </trkpt>
      <trkpt lat="43.44367" lon="3.47362">
        <ele>90.249</ele>
        <time>2010-12-20T10:11:46Z</time>
      </trkpt>
      <trkpt lat="43.44347" lon="3.47356">
        <ele>89.457</ele>
        <time>2010-12-20T10:11:50Z</time>
      </trkpt>
      <trkpt lat="43.44327" lon="3.47338">
        <ele>88.525</ele>
        <time>2010-12-20T10:11:54Z</time>
      </trkpt>
      <trkpt lat="43.44316" lon="3.47331">
        <ele>87.974</ele>
        <time>2010-12-20T10:11:56Z</time>
      </trkpt>
      <trkpt lat="43.44291" lon="3.47308">
        <ele>85.994</ele>
        <time>2010-12-20T10:12:01Z</time>
      </trkpt>
      <trkpt lat="43.44264" lon="3.47273">
        <ele>85.091</ele>
        <time>2010-12-20T10:12:07Z</time>
      </trkpt>
      <trkpt lat="43.44259" lon="3.47266">
        <ele>84.784</ele>
        <time>2010-12-20T10:12:08Z</time>
      </trkpt>
      <trkpt lat="43.44249" lon="3.47243">
        <ele>83.631</ele>
        <time>2010-12-20T10:12:11Z</time>
      </trkpt>
      <trkpt lat="43.4423" lon="3.47221">
        <ele>82.336</ele>
        <time>2010-12-20T10:12:15Z</time>
      </trkpt>
      <trkpt lat="43.44225" lon="3.47219">
        <ele>81.889</ele>
        <time>2010-12-20T10:12:16Z</time>
      </trkpt>
      <trkpt lat="43.44199" lon="3.47205">
        <ele>80.556</ele>
        <time>2010-12-20T10:12:22Z</time>
      </trkpt>
      <trkpt lat="43.44182" lon="3.47189">
        <ele>80.51</ele>
        <time>2010-12-20T10:12:26Z</time>
      </trkpt>
      <trkpt lat="43.44163" lon="3.47153">
        <ele>79.219</ele>
        <time>2010-12-20T10:12:31Z</time>
      </trkpt>
      <trkpt lat="43.44144" lon="3.47129">
        <ele>77.761</ele>
        <time>2010-12-20T10:12:36Z</time>
      </trkpt>
      <trkpt lat="43.44136" lon="3.47121">
        <ele>77.799</ele>
        <time>2010-12-20T10:12:38Z</time>
      </trkpt>
      <trkpt lat="43.44125" lon="3.47098">
        <ele>78.218</ele>
        <time>2010-12-20T10:12:42Z</time>
      </trkpt>
      <trkpt lat="43.44124" lon="3.47092">
        <ele>78.602</ele>
        <time>2010-12-20T10:12:43Z</time>
      </trkpt>
      <trkpt lat="43.44111" lon="3.47064">
        <ele>79.509</ele>
        <time>2010-12-20T10:12:48Z</time>
      </trkpt>
      <trkpt lat="43.44106" lon="3.4706">
        <ele>79.391</ele>
        <time>2010-12-20T10:12:49Z</time>
      </trkpt>
      <trkpt lat="43.44072" lon="3.47032">
        <ele>78.81</ele>
        <time>2010-12-20T10:12:56Z</time>
      </trkpt>
      <trkpt lat="43.44066" lon="3.47029">
        <ele>78.724</ele>
        <time>2010-12-20T10:12:57Z</time>
      </trkpt>
      <trkpt lat="43.4403" lon="3.47003">
        <ele>77.745</ele>
        <time>2010-12-20T10:13:04Z</time>
      </trkpt>
      <trkpt lat="43.44009" lon="3.46971">
        <ele>77.476</ele>
        <time>2010-12-20T10:13:09Z</time>
      </trkpt>
      <trkpt lat="43.43999" lon="3.4695">
        <ele>77.416</ele>
        <time>2010-12-20T10:13:12Z</time>
      </trkpt>
      <trkpt lat="43.43976" lon="3.46929">
        <ele>76.979</ele>
        <time>2010-12-20T10:13:17Z</time>
      </trkpt>
      <trkpt lat="43.43963" lon="3.46914">
        <ele>76.62</ele>
        <time>2010-12-20T10:13:20Z</time>
      </trkpt>
      <trkpt lat="43.43958" lon="3.46884">
        <ele>75.793</ele>
        <time>2010-12-20T10:13:24Z</time>
      </trkpt>
      <trkpt lat="43.43966" lon="3.46868">
        <ele>75.556</ele>
        <time>2010-12-20T10:13:27Z</time>
      </trkpt>
      <trkpt lat="43.4398" lon="3.46859">
        <ele>75.235</ele>
        <time>2010-12-20T10:13:30Z</time>
      </trkpt>
      <trkpt lat="43.43996" lon="3.46843">
        <ele>74.292</ele>
        <time>2010-12-20T10:13:34Z</time>
      </trkpt>
      <trkpt lat="43.44006" lon="3.46815">
        <ele>73.227</ele>
        <time>2010-12-20T10:13:38Z</time>
      </trkpt>
      <trkpt lat="43.43998" lon="3.46805">
        <ele>72.321</ele>
        <time>2010-12-20T10:13:40Z</time>
      </trkpt>
      <trkpt lat="43.43973" lon="3.46796">
        <ele>70.966</ele>
        <time>2010-12-20T10:13:44Z</time>
      </trkpt>
      <trkpt lat="43.43968" lon="3.46793">
        <ele>70.704</ele>
        <time>2010-12-20T10:13:45Z</time>
      </trkpt>
      <trkpt lat="43.43939" lon="3.46775">
        <ele>69.034</ele>
        <time>2010-12-20T10:13:50Z</time>
      </trkpt>
      <trkpt lat="43.4389" lon="3.4675">
        <ele>65.317</ele>
        <time>2010-12-20T10:13:56Z</time>
      </trkpt>
      <trkpt lat="43.43853" lon="3.46717">
        <ele>61.966</ele>
        <time>2010-12-20T10:14:01Z</time>
      </trkpt>
      <trkpt lat="43.43847" lon="3.4671">
        <ele>61.435</ele>
        <time>2010-12-20T10:14:02Z</time>
      </trkpt>
      <trkpt lat="43.43818" lon="3.46689">
        <ele>59.561</ele>
        <time>2010-12-20T10:14:06Z</time>
      </trkpt>
      <trkpt lat="43.43811" lon="3.46685">
        <ele>59.22</ele>
        <time>2010-12-20T10:14:07Z</time>
      </trkpt>
      <trkpt lat="43.43796" lon="3.46677">
        <ele>58.477</ele>
        <time>2010-12-20T10:14:09Z</time>
      </trkpt>
      <trkpt lat="43.43777" lon="3.46659">
        <ele>56.757</ele>
        <time>2010-12-20T10:14:12Z</time>
      </trkpt>
      <trkpt lat="43.43753" lon="3.46643">
        <ele>54.865</ele>
        <time>2010-12-20T10:14:16Z</time>
      </trkpt>
      <trkpt lat="43.43746" lon="3.46641">
        <ele>54.41</ele>
        <time>2010-12-20T10:14:17Z</time>
      </trkpt>
      <trkpt lat="43.43727" lon="3.46624">
        <ele>53.234</ele>
        <time>2010-12-20T10:14:21Z</time>
      </trkpt>
      <trkpt lat="43.43723" lon="3.46618">
        <ele>52.898</ele>
        <time>2010-12-20T10:14:22Z</time>
      </trkpt>
      <trkpt lat="43.43719" lon="3.46609">
        <ele>52.269</ele>
        <time>2010-12-20T10:14:24Z</time>
      </trkpt>
      <trkpt lat="43.43724" lon="3.46588">
        <ele>51.522</ele>
        <time>2010-12-20T10:14:29Z</time>
      </trkpt>
      <trkpt lat="43.4373" lon="3.46573">
        <ele>51.619</ele>
        <time>2010-12-20T10:14:32Z</time>
      </trkpt>
      <trkpt lat="43.43749" lon="3.4652">
        <ele>52.315</ele>
        <time>2010-12-20T10:14:42Z</time>
      </trkpt>
      <trkpt lat="43.43765" lon="3.46495">
        <ele>53.157</ele>
        <time>2010-12-20T10:14:48Z</time>
      </trkpt>
      <trkpt lat="43.43769" lon="3.46492">
        <ele>53.304</ele>
        <time>2010-12-20T10:14:49Z</time>
      </trkpt>
      <trkpt lat="43.43789" lon="3.46472">
        <ele>53.994</ele>
        <time>2010-12-20T10:14:55Z</time>
      </trkpt>
      <trkpt lat="43.43799" lon="3.4646">
        <ele>54.759</ele>
        <time>2010-12-20T10:14:59Z</time>
      </trkpt>
      <trkpt lat="43.43815" lon="3.46432">
        <ele>55.772</ele>
        <time>2010-12-20T10:15:06Z</time>
      </trkpt>
      <trkpt lat="43.43834" lon="3.46405">
        <ele>56.339</ele>
        <time>2010-12-20T10:15:13Z</time>
      </trkpt>
      <trkpt lat="43.43853" lon="3.46383">
        <ele>56.935</ele>
        <time>2010-12-20T10:15:20Z</time>
      </trkpt>
      <trkpt lat="43.43851" lon="3.46358">
        <ele>58.017</ele>
        <time>2010-12-20T10:15:26Z</time>
      </trkpt>
      <trkpt lat="43.43847" lon="3.46348">
        <ele>58.007</ele>
        <time>2010-12-20T10:15:29Z</time>
      </trkpt>
      <trkpt lat="43.43857" lon="3.46332">
        <ele>56.186</ele>
        <time>2010-12-20T10:15:34Z</time>
      </trkpt>
      <trkpt lat="43.4386" lon="3.46328">
        <ele>55.739</ele>
        <time>2010-12-20T10:15:35Z</time>
      </trkpt>
      <trkpt lat="43.43873" lon="3.46313">
        <ele>54.199</ele>
        <time>2010-12-20T10:15:39Z</time>
      </trkpt>
      <trkpt lat="43.43878" lon="3.46299">
        <ele>53.613</ele>
        <time>2010-12-20T10:15:43Z</time>
      </trkpt>
      <trkpt lat="43.43878" lon="3.463">
        <ele>52.704</ele>
        <time>2010-12-20T10:15:50Z</time>
      </trkpt>
      <trkpt lat="43.43876" lon="3.46299">
        <ele>53.045</ele>
        <time>2010-12-20T10:16:16Z</time>
      </trkpt>
      <trkpt lat="43.43878" lon="3.4629">
        <ele>52.938</ele>
        <time>2010-12-20T10:16:23Z</time>
      </trkpt>
      <trkpt lat="43.43879" lon="3.46281">
        <ele>53.049</ele>
        <time>2010-12-20T10:16:54Z</time>
      </trkpt>
      <trkpt lat="43.43886" lon="3.46252">
        <ele>51.759</ele>
        <time>2010-12-20T10:17:00Z</time>
      </trkpt>
      <trkpt lat="43.43903" lon="3.46206">
        <ele>50.817</ele>
        <time>2010-12-20T10:17:08Z</time>
      </trkpt>
      <trkpt lat="43.43909" lon="3.46195">
        <ele>50.741</ele>
        <time>2010-12-20T10:17:10Z</time>
      </trkpt>
      <trkpt lat="43.43916" lon="3.46178">
        <ele>50.356</ele>
        <time>2010-12-20T10:17:13Z</time>
      </trkpt>
      <trkpt lat="43.43921" lon="3.46166">
        <ele>50.02</ele>
        <time>2010-12-20T10:17:15Z</time>
      </trkpt>
      <trkpt lat="43.4394" lon="3.4614">
        <ele>49.097</ele>
        <time>2010-12-20T10:17:21Z</time>
      </trkpt>
      <trkpt lat="43.43943" lon="3.46125">
        <ele>49.443</ele>
        <time>2010-12-20T10:17:24Z</time>
      </trkpt>
      <trkpt lat="43.43942" lon="3.46112">
        <ele>49.606</ele>
        <time>2010-12-20T10:17:26Z</time>
      </trkpt>
      <trkpt lat="43.43943" lon="3.46085">
        <ele>48.979</ele>
        <time>2010-12-20T10:17:31Z</time>
      </trkpt>
      <trkpt lat="43.4395" lon="3.46049">
        <ele>49.254</ele>
        <time>2010-12-20T10:17:38Z</time>
      </trkpt>
      <trkpt lat="43.43959" lon="3.46016">
        <ele>51.081</ele>
        <time>2010-12-20T10:17:45Z</time>
      </trkpt>
      <trkpt lat="43.43968" lon="3.45983">
        <ele>51.473</ele>
        <time>2010-12-20T10:17:52Z</time>
      </trkpt>
      <trkpt lat="43.43984" lon="3.45929">
        <ele>53.519</ele>
        <time>2010-12-20T10:18:04Z</time>
      </trkpt>
      <trkpt lat="43.43997" lon="3.45891">
        <ele>54.767</ele>
        <time>2010-12-20T10:18:13Z</time>
      </trkpt>
      <trkpt lat="43.44004" lon="3.45861">
        <ele>56.415</ele>
        <time>2010-12-20T10:18:20Z</time>
      </trkpt>
      <trkpt lat="43.44008" lon="3.45831">
        <ele>59.788</ele>
        <time>2010-12-20T10:18:28Z</time>
      </trkpt>
      <trkpt lat="43.44008" lon="3.45803">
        <ele>59.991</ele>
        <time>2010-12-20T10:18:33Z</time>
      </trkpt>
      <trkpt lat="43.44016" lon="3.4576">
        <ele>59.592</ele>
        <time>2010-12-20T10:18:40Z</time>
      </trkpt>
      <trkpt lat="43.44019" lon="3.45749">
        <ele>59.539</ele>
        <time>2010-12-20T10:18:42Z</time>
      </trkpt>
      <trkpt lat="43.44033" lon="3.45709">
        <ele>59.503</ele>
        <time>2010-12-20T10:18:49Z</time>
      </trkpt>
      <trkpt lat="43.44047" lon="3.45682">
        <ele>60.381</ele>
        <time>2010-12-20T10:18:55Z</time>
      </trkpt>
      <trkpt lat="43.44058" lon="3.45665">
        <ele>61.41</ele>
        <time>2010-12-20T10:19:00Z</time>
      </trkpt>
      <trkpt lat="43.44057" lon="3.45669">
        <ele>61.511</ele>
        <time>2010-12-20T10:19:04Z</time>
      </trkpt>
      <trkpt lat="43.44048" lon="3.4568">
        <ele>61.317</ele>
        <time>2010-12-20T10:19:10Z</time>
      </trkpt>
      <trkpt lat="43.44041" lon="3.45689">
        <ele>60.42</ele>
        <time>2010-12-20T10:19:16Z</time>
      </trkpt>
      <trkpt lat="43.44041" lon="3.4569">
        <ele>60.412</ele>
        <time>2010-12-20T10:19:17Z</time>
      </trkpt>
      <trkpt lat="43.44045" lon="3.45698">
        <ele>60.323</ele>
        <time>2010-12-20T10:19:23Z</time>
      </trkpt>
      <trkpt lat="43.44046" lon="3.45693">
        <ele>60.273</ele>
        <time>2010-12-20T10:19:26Z</time>
      </trkpt>
      <trkpt lat="43.44045" lon="3.45683">
        <ele>60.247</ele>
        <time>2010-12-20T10:19:29Z</time>
      </trkpt>
      <trkpt lat="43.44035" lon="3.45677">
        <ele>60.991</ele>
        <time>2010-12-20T10:19:33Z</time>
      </trkpt>
      <trkpt lat="43.4402" lon="3.45676">
        <ele>60.515</ele>
        <time>2010-12-20T10:19:36Z</time>
      </trkpt>
      <trkpt lat="43.44004" lon="3.45663">
        <ele>59.472</ele>
        <time>2010-12-20T10:19:39Z</time>
      </trkpt>
      <trkpt lat="43.43993" lon="3.45636">
        <ele>58.162</ele>
        <time>2010-12-20T10:19:42Z</time>
      </trkpt>
      <trkpt lat="43.43982" lon="3.45621">
        <ele>57.248</ele>
        <time>2010-12-20T10:19:44Z</time>
      </trkpt>
      <trkpt lat="43.43943" lon="3.45576">
        <ele>54.319</ele>
        <time>2010-12-20T10:19:50Z</time>
      </trkpt>
      <trkpt lat="43.43905" lon="3.4554">
        <ele>52.013</ele>
        <time>2010-12-20T10:19:55Z</time>
      </trkpt>
      <trkpt lat="43.43867" lon="3.45508">
        <ele>49.556</ele>
        <time>2010-12-20T10:20:00Z</time>
      </trkpt>
      <trkpt lat="43.4384" lon="3.45479">
        <ele>48.263</ele>
        <time>2010-12-20T10:20:04Z</time>
      </trkpt>
      <trkpt lat="43.43818" lon="3.45434">
        <ele>46.873</ele>
        <time>2010-12-20T10:20:09Z</time>
      </trkpt>
      <trkpt lat="43.43808" lon="3.45395">
        <ele>46.167</ele>
        <time>2010-12-20T10:20:13Z</time>
      </trkpt>
      <trkpt lat="43.43804" lon="3.45386">
        <ele>45.929</ele>
        <time>2010-12-20T10:20:14Z</time>
      </trkpt>
      <trkpt lat="43.43792" lon="3.45361">
        <ele>45.33</ele>
        <time>2010-12-20T10:20:17Z</time>
      </trkpt>
      <trkpt lat="43.43778" lon="3.45339">
        <ele>44.817</ele>
        <time>2010-12-20T10:20:20Z</time>
      </trkpt>
      <trkpt lat="43.43775" lon="3.4532">
        <ele>43.587</ele>
        <time>2010-12-20T10:20:24Z</time>
      </trkpt>
      <trkpt lat="43.43781" lon="3.45321">
        <ele>43.368</ele>
        <time>2010-12-20T10:20:27Z</time>
      </trkpt>
      <trkpt lat="43.43788" lon="3.45329">
        <ele>44.527</ele>
        <time>2010-12-20T10:20:33Z</time>
      </trkpt>
      <trkpt lat="43.43789" lon="3.45331">
        <ele>44.691</ele>
        <time>2010-12-20T10:20:34Z</time>
      </trkpt>
      <trkpt lat="43.43795" lon="3.45335">
        <ele>44.941</ele>
        <time>2010-12-20T10:20:39Z</time>
      </trkpt>
      <trkpt lat="43.43803" lon="3.45349">
        <ele>45.449</ele>
        <time>2010-12-20T10:20:46Z</time>
      </trkpt>
      <trkpt lat="43.4382" lon="3.45361">
        <ele>47.176</ele>
        <time>2010-12-20T10:20:55Z</time>
      </trkpt>
      <trkpt lat="43.43829" lon="3.4536">
        <ele>48.112</ele>
        <time>2010-12-20T10:21:01Z</time>
      </trkpt>
      <trkpt lat="43.43835" lon="3.45366">
        <ele>48.777</ele>
        <time>2010-12-20T10:21:06Z</time>
      </trkpt>
      <trkpt lat="43.43835" lon="3.45377">
        <ele>49.512</ele>
        <time>2010-12-20T10:21:11Z</time>
      </trkpt>
      <trkpt lat="43.43841" lon="3.45385">
        <ele>50.054</ele>
        <time>2010-12-20T10:21:16Z</time>
      </trkpt>
      <trkpt lat="43.4385" lon="3.45396">
        <ele>51.138</ele>
        <time>2010-12-20T10:21:23Z</time>
      </trkpt>
      <trkpt lat="43.4386" lon="3.45404">
        <ele>52.965</ele>
        <time>2010-12-20T10:21:30Z</time>
      </trkpt>
      <trkpt lat="43.43867" lon="3.45416">
        <ele>53.432</ele>
        <time>2010-12-20T10:21:37Z</time>
      </trkpt>
      <trkpt lat="43.43875" lon="3.4542">
        <ele>54.219</ele>
        <time>2010-12-20T10:21:42Z</time>
      </trkpt>
      <trkpt lat="43.43879" lon="3.45421">
        <ele>54.416</ele>
        <time>2010-12-20T10:21:44Z</time>
      </trkpt>
      <trkpt lat="43.43891" lon="3.45419">
        <ele>55.716</ele>
        <time>2010-12-20T10:21:51Z</time>
      </trkpt>
      <trkpt lat="43.43894" lon="3.45422">
        <ele>55.996</ele>
        <time>2010-12-20T10:21:53Z</time>
      </trkpt>
      <trkpt lat="43.43905" lon="3.4543">
        <ele>56.711</ele>
        <time>2010-12-20T10:22:00Z</time>
      </trkpt>
      <trkpt lat="43.43912" lon="3.45435">
        <ele>57.189</ele>
        <time>2010-12-20T10:22:05Z</time>
      </trkpt>
      <trkpt lat="43.43919" lon="3.4544">
        <ele>57.517</ele>
        <time>2010-12-20T10:22:10Z</time>
      </trkpt>
      <trkpt lat="43.43927" lon="3.45446">
        <ele>58.088</ele>
        <time>2010-12-20T10:22:15Z</time>
      </trkpt>
      <trkpt lat="43.43928" lon="3.45448">
        <ele>58.227</ele>
        <time>2010-12-20T10:22:16Z</time>
      </trkpt>
      <trkpt lat="43.43932" lon="3.45453">
        <ele>58.699</ele>
        <time>2010-12-20T10:22:20Z</time>
      </trkpt>
      <trkpt lat="43.43936" lon="3.45448">
        <ele>59.306</ele>
        <time>2010-12-20T10:22:25Z</time>
      </trkpt>
      <trkpt lat="43.43938" lon="3.45446">
        <ele>59.433</ele>
        <time>2010-12-20T10:22:26Z</time>
      </trkpt>
      <trkpt lat="43.43944" lon="3.45447">
        <ele>60.497</ele>
        <time>2010-12-20T10:22:32Z</time>
      </trkpt>
      <trkpt lat="43.43951" lon="3.45449">
        <ele>61.501</ele>
        <time>2010-12-20T10:22:37Z</time>
      </trkpt>
      <trkpt lat="43.43955" lon="3.45454">
        <ele>62.521</ele>
        <time>2010-12-20T10:22:44Z</time>
      </trkpt>
      <trkpt lat="43.43954" lon="3.45453">
        <ele>62.311</ele>
        <time>2010-12-20T10:22:47Z</time>
      </trkpt>
      <trkpt lat="43.4395" lon="3.45448">
        <ele>61.986</ele>
        <time>2010-12-20T10:22:51Z</time>
      </trkpt>
      <trkpt lat="43.43942" lon="3.45447">
        <ele>61.365</ele>
        <time>2010-12-20T10:22:56Z</time>
      </trkpt>
      <trkpt lat="43.43936" lon="3.45447">
        <ele>60.326</ele>
        <time>2010-12-20T10:23:00Z</time>
      </trkpt>
      <trkpt lat="43.4393" lon="3.45451">
        <ele>59.643</ele>
        <time>2010-12-20T10:23:04Z</time>
      </trkpt>
      <trkpt lat="43.43927" lon="3.45455">
        <ele>58.599</ele>
        <time>2010-12-20T10:23:08Z</time>
      </trkpt>
      <trkpt lat="43.43927" lon="3.45458">
        <ele>58.421</ele>
        <time>2010-12-20T10:23:09Z</time>
      </trkpt>
      <trkpt lat="43.43926" lon="3.45464">
        <ele>58.49</ele>
        <time>2010-12-20T10:23:12Z</time>
      </trkpt>
      <trkpt lat="43.43931" lon="3.4547">
        <ele>59.144</ele>
        <time>2010-12-20T10:23:16Z</time>
      </trkpt>
      <trkpt lat="43.43934" lon="3.45476">
        <ele>60.012</ele>
        <time>2010-12-20T10:23:22Z</time>
      </trkpt>
      <trkpt lat="43.43939" lon="3.45484">
        <ele>60.384</ele>
        <time>2010-12-20T10:23:27Z</time>
      </trkpt>
      <trkpt lat="43.43941" lon="3.45489">
        <ele>61.1</ele>
        <time>2010-12-20T10:23:30Z</time>
      </trkpt>
      <trkpt lat="43.43947" lon="3.45494">
        <ele>61.78</ele>
        <time>2010-12-20T10:23:35Z</time>
      </trkpt>
      <trkpt lat="43.43949" lon="3.45497">
        <ele>62.259</ele>
        <time>2010-12-20T10:23:38Z</time>
      </trkpt>
      <trkpt lat="43.43949" lon="3.45506">
        <ele>62.163</ele>
        <time>2010-12-20T10:23:43Z</time>
      </trkpt>
      <trkpt lat="43.43948" lon="3.45511">
        <ele>61.938</ele>
        <time>2010-12-20T10:23:45Z</time>
      </trkpt>
      <trkpt lat="43.43943" lon="3.45524">
        <ele>59.814</ele>
        <time>2010-12-20T10:23:50Z</time>
      </trkpt>
      <trkpt lat="43.4394" lon="3.45529">
        <ele>58.718</ele>
        <time>2010-12-20T10:23:52Z</time>
      </trkpt>
      <trkpt lat="43.43938" lon="3.45536">
        <ele>57.049</ele>
        <time>2010-12-20T10:23:55Z</time>
      </trkpt>
      <trkpt lat="43.43926" lon="3.45547">
        <ele>53.315</ele>
        <time>2010-12-20T10:24:01Z</time>
      </trkpt>
      <trkpt lat="43.43916" lon="3.45545">
        <ele>51.014</ele>
        <time>2010-12-20T10:24:05Z</time>
      </trkpt>
      <trkpt lat="43.43912" lon="3.45545">
        <ele>50.519</ele>
        <time>2010-12-20T10:24:06Z</time>
      </trkpt>
      <trkpt lat="43.439" lon="3.4554">
        <ele>49.668</ele>
        <time>2010-12-20T10:24:09Z</time>
      </trkpt>
      <trkpt lat="43.43874" lon="3.45515">
        <ele>48.202</ele>
        <time>2010-12-20T10:24:15Z</time>
      </trkpt>
      <trkpt lat="43.4384" lon="3.45478">
        <ele>47.127</ele>
        <time>2010-12-20T10:24:22Z</time>
      </trkpt>
      <trkpt lat="43.43821" lon="3.45444">
        <ele>46.238</ele>
        <time>2010-12-20T10:24:27Z</time>
      </trkpt>
      <trkpt lat="43.43819" lon="3.45436">
        <ele>46.059</ele>
        <time>2010-12-20T10:24:28Z</time>
      </trkpt>
      <trkpt lat="43.43813" lon="3.4541">
        <ele>45.581</ele>
        <time>2010-12-20T10:24:31Z</time>
      </trkpt>
      <trkpt lat="43.43794" lon="3.45363">
        <ele>44.681</ele>
        <time>2010-12-20T10:24:37Z</time>
      </trkpt>
      <trkpt lat="43.43781" lon="3.45342">
        <ele>43.818</ele>
        <time>2010-12-20T10:24:40Z</time>
      </trkpt>
      <trkpt lat="43.4377" lon="3.45321">
        <ele>42.984</ele>
        <time>2010-12-20T10:24:43Z</time>
      </trkpt>
      <trkpt lat="43.43754" lon="3.453">
        <ele>41.717</ele>
        <time>2010-12-20T10:24:47Z</time>
      </trkpt>
      <trkpt lat="43.43741" lon="3.45274">
        <ele>39.545</ele>
        <time>2010-12-20T10:24:52Z</time>
      </trkpt>
      <trkpt lat="43.43737" lon="3.45229">
        <ele>39.241</ele>
        <time>2010-12-20T10:24:58Z</time>
      </trkpt>
      <trkpt lat="43.43737" lon="3.45222">
        <ele>39.24</ele>
        <time>2010-12-20T10:24:59Z</time>
      </trkpt>
      <trkpt lat="43.43731" lon="3.45207">
        <ele>38.694</ele>
        <time>2010-12-20T10:25:02Z</time>
      </trkpt>
      <trkpt lat="43.43722" lon="3.45207">
        <ele>38.358</ele>
        <time>2010-12-20T10:25:04Z</time>
      </trkpt>
      <trkpt lat="43.43706" lon="3.45211">
        <ele>38.387</ele>
        <time>2010-12-20T10:25:08Z</time>
      </trkpt>
      <trkpt lat="43.43698" lon="3.45198">
        <ele>39.193</ele>
        <time>2010-12-20T10:25:12Z</time>
      </trkpt>
      <trkpt lat="43.43692" lon="3.45166">
        <ele>40.434</ele>
        <time>2010-12-20T10:25:21Z</time>
      </trkpt>
      <trkpt lat="43.43691" lon="3.45161">
        <ele>40.834</ele>
        <time>2010-12-20T10:25:23Z</time>
      </trkpt>
      <trkpt lat="43.43689" lon="3.45164">
        <ele>41.294</ele>
        <time>2010-12-20T10:25:27Z</time>
      </trkpt>
      <trkpt lat="43.43695" lon="3.45182">
        <ele>40.941</ele>
        <time>2010-12-20T10:25:31Z</time>
      </trkpt>
      <trkpt lat="43.437" lon="3.45207">
        <ele>40.168</ele>
        <time>2010-12-20T10:25:36Z</time>
      </trkpt>
      <trkpt lat="43.43714" lon="3.45211">
        <ele>39.2</ele>
        <time>2010-12-20T10:25:40Z</time>
      </trkpt>
      <trkpt lat="43.43735" lon="3.45206">
        <ele>38.294</ele>
        <time>2010-12-20T10:25:46Z</time>
      </trkpt>
      <trkpt lat="43.43742" lon="3.45194">
        <ele>38.63</ele>
        <time>2010-12-20T10:25:50Z</time>
      </trkpt>
      <trkpt lat="43.43751" lon="3.45179">
        <ele>38.726</ele>
        <time>2010-12-20T10:25:55Z</time>
      </trkpt>
      <trkpt lat="43.43757" lon="3.45175">
        <ele>38.601</ele>
        <time>2010-12-20T10:25:58Z</time>
      </trkpt>
      <trkpt lat="43.43755" lon="3.45179">
        <ele>38.948</ele>
        <time>2010-12-20T10:26:02Z</time>
      </trkpt>
      <trkpt lat="43.43753" lon="3.4518">
        <ele>38.972</ele>
        <time>2010-12-20T10:26:03Z</time>
      </trkpt>
      <trkpt lat="43.43744" lon="3.4519">
        <ele>39.075</ele>
        <time>2010-12-20T10:26:08Z</time>
      </trkpt>
      <trkpt lat="43.43744" lon="3.45202">
        <ele>39.139</ele>
        <time>2010-12-20T10:26:13Z</time>
      </trkpt>
      <trkpt lat="43.43743" lon="3.45208">
        <ele>38.882</ele>
        <time>2010-12-20T10:26:16Z</time>
      </trkpt>
      <trkpt lat="43.43739" lon="3.45205">
        <ele>38.777</ele>
        <time>2010-12-20T10:26:21Z</time>
      </trkpt>
      <trkpt lat="43.43741" lon="3.45204">
        <ele>38.864</ele>
        <time>2010-12-20T10:26:22Z</time>
      </trkpt>
      <trkpt lat="43.43755" lon="3.452">
        <ele>39.824</ele>
        <time>2010-12-20T10:26:28Z</time>
      </trkpt>
      <trkpt lat="43.43758" lon="3.452">
        <ele>41.688</ele>
        <time>2010-12-20T10:26:32Z</time>
      </trkpt>
      <trkpt lat="43.43767" lon="3.45201">
        <ele>43.447</ele>
        <time>2010-12-20T10:26:41Z</time>
      </trkpt>
      <trkpt lat="43.43775" lon="3.45209">
        <ele>44.259</ele>
        <time>2010-12-20T10:26:48Z</time>
      </trkpt>
      <trkpt lat="43.43778" lon="3.45214">
        <ele>45.63</ele>
        <time>2010-12-20T10:26:52Z</time>
      </trkpt>
      <trkpt lat="43.43783" lon="3.45222">
        <ele>47.476</ele>
        <time>2010-12-20T10:26:58Z</time>
      </trkpt>
      <trkpt lat="43.43783" lon="3.45227">
        <ele>48.669</ele>
        <time>2010-12-20T10:27:04Z</time>
      </trkpt>
      <trkpt lat="43.43782" lon="3.45228">
        <ele>48.867</ele>
        <time>2010-12-20T10:27:07Z</time>
      </trkpt>
      <trkpt lat="43.43781" lon="3.45239">
        <ele>48.345</ele>
        <time>2010-12-20T10:27:13Z</time>
      </trkpt>
      <trkpt lat="43.43785" lon="3.45251">
        <ele>47.531</ele>
        <time>2010-12-20T10:27:18Z</time>
      </trkpt>
      <trkpt lat="43.43786" lon="3.45253">
        <ele>47.599</ele>
        <time>2010-12-20T10:27:19Z</time>
      </trkpt>
      <trkpt lat="43.43796" lon="3.45269">
        <ele>48.811</ele>
        <time>2010-12-20T10:27:26Z</time>
      </trkpt>
      <trkpt lat="43.43808" lon="3.45282">
        <ele>49.248</ele>
        <time>2010-12-20T10:27:33Z</time>
      </trkpt>
      <trkpt lat="43.43821" lon="3.45292">
        <ele>51.413</ele>
        <time>2010-12-20T10:27:41Z</time>
      </trkpt>
      <trkpt lat="43.43839" lon="3.45304">
        <ele>53.685</ele>
        <time>2010-12-20T10:27:51Z</time>
      </trkpt>
      <trkpt lat="43.43853" lon="3.45314">
        <ele>55.416</ele>
        <time>2010-12-20T10:27:59Z</time>
      </trkpt>
      <trkpt lat="43.43862" lon="3.45313">
        <ele>56.883</ele>
        <time>2010-12-20T10:28:05Z</time>
      </trkpt>
      <trkpt lat="43.43864" lon="3.45312">
        <ele>57.213</ele>
        <time>2010-12-20T10:28:06Z</time>
      </trkpt>
      <trkpt lat="43.43873" lon="3.45315">
        <ele>58.779</ele>
        <time>2010-12-20T10:28:12Z</time>
      </trkpt>
      <trkpt lat="43.4388" lon="3.45321">
        <ele>59.704</ele>
        <time>2010-12-20T10:28:17Z</time>
      </trkpt>
      <trkpt lat="43.43882" lon="3.45323">
        <ele>60.06</ele>
        <time>2010-12-20T10:28:18Z</time>
      </trkpt>
      <trkpt lat="43.43893" lon="3.45338">
        <ele>61.388</ele>
        <time>2010-12-20T10:28:26Z</time>
      </trkpt>
      <trkpt lat="43.439" lon="3.45342">
        <ele>62.307</ele>
        <time>2010-12-20T10:28:31Z</time>
      </trkpt>
      <trkpt lat="43.43911" lon="3.4535">
        <ele>63.565</ele>
        <time>2010-12-20T10:28:38Z</time>
      </trkpt>
      <trkpt lat="43.43916" lon="3.45356">
        <ele>64.294</ele>
        <time>2010-12-20T10:28:42Z</time>
      </trkpt>
      <trkpt lat="43.43921" lon="3.45366">
        <ele>64.765</ele>
        <time>2010-12-20T10:28:46Z</time>
      </trkpt>
      <trkpt lat="43.43936" lon="3.45375">
        <ele>66.04</ele>
        <time>2010-12-20T10:28:54Z</time>
      </trkpt>
      <trkpt lat="43.43946" lon="3.45379">
        <ele>67.567</ele>
        <time>2010-12-20T10:29:00Z</time>
      </trkpt>
      <trkpt lat="43.43956" lon="3.45389">
        <ele>68.802</ele>
        <time>2010-12-20T10:29:08Z</time>
      </trkpt>
      <trkpt lat="43.43955" lon="3.45388">
        <ele>68.769</ele>
        <time>2010-12-20T10:29:11Z</time>
      </trkpt>
      <trkpt lat="43.43952" lon="3.45386">
        <ele>68.469</ele>
        <time>2010-12-20T10:29:15Z</time>
      </trkpt>
      <trkpt lat="43.43937" lon="3.45375">
        <ele>67.999</ele>
        <time>2010-12-20T10:29:21Z</time>
      </trkpt>
      <trkpt lat="43.43923" lon="3.45369">
        <ele>66.225</ele>
        <time>2010-12-20T10:29:25Z</time>
      </trkpt>
      <trkpt lat="43.43919" lon="3.4536">
        <ele>65.314</ele>
        <time>2010-12-20T10:29:27Z</time>
      </trkpt>
      <trkpt lat="43.43906" lon="3.45346">
        <ele>63.841</ele>
        <time>2010-12-20T10:29:32Z</time>
      </trkpt>
      <trkpt lat="43.43898" lon="3.45342">
        <ele>63.214</ele>
        <time>2010-12-20T10:29:34Z</time>
      </trkpt>
      <trkpt lat="43.43884" lon="3.45327">
        <ele>62.284</ele>
        <time>2010-12-20T10:29:38Z</time>
      </trkpt>
      <trkpt lat="43.43873" lon="3.45315">
        <ele>60.566</ele>
        <time>2010-12-20T10:29:42Z</time>
      </trkpt>
      <trkpt lat="43.43864" lon="3.45311">
        <ele>59.064</ele>
        <time>2010-12-20T10:29:45Z</time>
      </trkpt>
      <trkpt lat="43.43849" lon="3.4531">
        <ele>57.273</ele>
        <time>2010-12-20T10:29:49Z</time>
      </trkpt>
      <trkpt lat="43.43823" lon="3.45292">
        <ele>53.666</ele>
        <time>2010-12-20T10:29:56Z</time>
      </trkpt>
      <trkpt lat="43.43802" lon="3.45277">
        <ele>51.505</ele>
        <time>2010-12-20T10:30:01Z</time>
      </trkpt>
      <trkpt lat="43.43795" lon="3.45269">
        <ele>50.279</ele>
        <time>2010-12-20T10:30:03Z</time>
      </trkpt>
      <trkpt lat="43.43792" lon="3.45264">
        <ele>49.714</ele>
        <time>2010-12-20T10:30:04Z</time>
      </trkpt>
      <trkpt lat="43.43786" lon="3.45255">
        <ele>48.834</ele>
        <time>2010-12-20T10:30:06Z</time>
      </trkpt>
      <trkpt lat="43.43771" lon="3.45238">
        <ele>46.993</ele>
        <time>2010-12-20T10:30:11Z</time>
      </trkpt>
      <trkpt lat="43.4375" lon="3.45232">
        <ele>43.267</ele>
        <time>2010-12-20T10:30:17Z</time>
      </trkpt>
      <trkpt lat="43.43744" lon="3.45225">
        <ele>42.029</ele>
        <time>2010-12-20T10:30:19Z</time>
      </trkpt>
      <trkpt lat="43.43741" lon="3.45205">
        <ele>39.299</ele>
        <time>2010-12-20T10:30:24Z</time>
      </trkpt>
      <trkpt lat="43.43732" lon="3.45205">
        <ele>38.132</ele>
        <time>2010-12-20T10:30:27Z</time>
      </trkpt>
      <trkpt lat="43.43708" lon="3.45209">
        <ele>37.723</ele>
        <time>2010-12-20T10:30:33Z</time>
      </trkpt>
      <trkpt lat="43.43705" lon="3.4521">
        <ele>37.887</ele>
        <time>2010-12-20T10:30:34Z</time>
      </trkpt>
      <trkpt lat="43.43697" lon="3.45197">
        <ele>39.082</ele>
        <time>2010-12-20T10:30:38Z</time>
      </trkpt>
      <trkpt lat="43.43688" lon="3.45161">
        <ele>40.325</ele>
        <time>2010-12-20T10:30:46Z</time>
      </trkpt>
      <trkpt lat="43.43678" lon="3.45138">
        <ele>42.507</ele>
        <time>2010-12-20T10:30:53Z</time>
      </trkpt>
      <trkpt lat="43.43667" lon="3.45116">
        <ele>44.654</ele>
        <time>2010-12-20T10:31:00Z</time>
      </trkpt>
      <trkpt lat="43.43649" lon="3.45107">
        <ele>46.084</ele>
        <time>2010-12-20T10:31:07Z</time>
      </trkpt>
      <trkpt lat="43.43622" lon="3.45106">
        <ele>48.492</ele>
        <time>2010-12-20T10:31:17Z</time>
      </trkpt>
      <trkpt lat="43.43604" lon="3.45111">
        <ele>49.313</ele>
        <time>2010-12-20T10:31:24Z</time>
      </trkpt>
      <trkpt lat="43.43602" lon="3.4511">
        <ele>49.531</ele>
        <time>2010-12-20T10:31:25Z</time>
      </trkpt>
      <trkpt lat="43.43593" lon="3.4509">
        <ele>50.799</ele>
        <time>2010-12-20T10:31:31Z</time>
      </trkpt>
      <trkpt lat="43.43576" lon="3.4507">
        <ele>50.274</ele>
        <time>2010-12-20T10:31:37Z</time>
      </trkpt>
      <trkpt lat="43.43563" lon="3.45056">
        <ele>49.404</ele>
        <time>2010-12-20T10:31:40Z</time>
      </trkpt>
      <trkpt lat="43.43538" lon="3.45038">
        <ele>47.506</ele>
        <time>2010-12-20T10:31:45Z</time>
      </trkpt>
      <trkpt lat="43.43527" lon="3.45015">
        <ele>45.37</ele>
        <time>2010-12-20T10:31:49Z</time>
      </trkpt>
      <trkpt lat="43.43529" lon="3.45002">
        <ele>44.554</ele>
        <time>2010-12-20T10:31:51Z</time>
      </trkpt>
      <trkpt lat="43.43531" lon="3.4494">
        <ele>43.138</ele>
        <time>2010-12-20T10:32:00Z</time>
      </trkpt>
      <trkpt lat="43.43531" lon="3.44918">
        <ele>42.807</ele>
        <time>2010-12-20T10:32:03Z</time>
      </trkpt>
      <trkpt lat="43.43532" lon="3.4489">
        <ele>42.199</ele>
        <time>2010-12-20T10:32:07Z</time>
      </trkpt>
      <trkpt lat="43.43538" lon="3.44851">
        <ele>41.781</ele>
        <time>2010-12-20T10:32:13Z</time>
      </trkpt>
      <trkpt lat="43.43545" lon="3.44822">
        <ele>41.44</ele>
        <time>2010-12-20T10:32:18Z</time>
      </trkpt>
      <trkpt lat="43.43547" lon="3.44809">
        <ele>41.166</ele>
        <time>2010-12-20T10:32:20Z</time>
      </trkpt>
      <trkpt lat="43.4355" lon="3.44785">
        <ele>40.155</ele>
        <time>2010-12-20T10:32:24Z</time>
      </trkpt>
      <trkpt lat="43.43552" lon="3.44763">
        <ele>39.806</ele>
        <time>2010-12-20T10:32:28Z</time>
      </trkpt>
      <trkpt lat="43.43555" lon="3.44744">
        <ele>39.809</ele>
        <time>2010-12-20T10:32:32Z</time>
      </trkpt>
      <trkpt lat="43.43556" lon="3.44742">
        <ele>39.87</ele>
        <time>2010-12-20T10:32:33Z</time>
      </trkpt>
      <trkpt lat="43.43562" lon="3.44727">
        <ele>40.066</ele>
        <time>2010-12-20T10:32:38Z</time>
      </trkpt>
      <trkpt lat="43.43564" lon="3.44704">
        <ele>39.488</ele>
        <time>2010-12-20T10:32:43Z</time>
      </trkpt>
      <trkpt lat="43.43565" lon="3.44697">
        <ele>39.365</ele>
        <time>2010-12-20T10:32:45Z</time>
      </trkpt>
      <trkpt lat="43.43564" lon="3.44684">
        <ele>38.682</ele>
        <time>2010-12-20T10:32:49Z</time>
      </trkpt>
      <trkpt lat="43.43569" lon="3.44678">
        <ele>37.78</ele>
        <time>2010-12-20T10:32:51Z</time>
      </trkpt>
      <trkpt lat="43.43585" lon="3.44659">
        <ele>35.528</ele>
        <time>2010-12-20T10:32:57Z</time>
      </trkpt>
      <trkpt lat="43.43592" lon="3.44653">
        <ele>35.192</ele>
        <time>2010-12-20T10:33:00Z</time>
      </trkpt>
      <trkpt lat="43.43598" lon="3.44642">
        <ele>33.747</ele>
        <time>2010-12-20T10:33:05Z</time>
      </trkpt>
      <trkpt lat="43.436" lon="3.44625">
        <ele>32.345</ele>
        <time>2010-12-20T10:33:09Z</time>
      </trkpt>
      <trkpt lat="43.43601" lon="3.44609">
        <ele>31.168</ele>
        <time>2010-12-20T10:33:13Z</time>
      </trkpt>
      <trkpt lat="43.43605" lon="3.44598">
        <ele>30.653</ele>
        <time>2010-12-20T10:33:18Z</time>
      </trkpt>
      <trkpt lat="43.43607" lon="3.44596">
        <ele>31.119</ele>
        <time>2010-12-20T10:33:20Z</time>
      </trkpt>
      <trkpt lat="43.43613" lon="3.44588">
        <ele>32.284</ele>
        <time>2010-12-20T10:33:24Z</time>
      </trkpt>
      <trkpt lat="43.43614" lon="3.44581">
        <ele>32.558</ele>
        <time>2010-12-20T10:33:26Z</time>
      </trkpt>
      <trkpt lat="43.43617" lon="3.44551">
        <ele>34.375</ele>
        <time>2010-12-20T10:33:34Z</time>
      </trkpt>
      <trkpt lat="43.43623" lon="3.44516">
        <ele>35.747</ele>
        <time>2010-12-20T10:33:43Z</time>
      </trkpt>
      <trkpt lat="43.43628" lon="3.44485">
        <ele>36.57</ele>
        <time>2010-12-20T10:33:51Z</time>
      </trkpt>
      <trkpt lat="43.43624" lon="3.44466">
        <ele>37.418</ele>
        <time>2010-12-20T10:33:56Z</time>
      </trkpt>
      <trkpt lat="43.4361" lon="3.44451">
        <ele>38.059</ele>
        <time>2010-12-20T10:34:02Z</time>
      </trkpt>
      <trkpt lat="43.43602" lon="3.44441">
        <ele>38.979</ele>
        <time>2010-12-20T10:34:06Z</time>
      </trkpt>
      <trkpt lat="43.43607" lon="3.44437">
        <ele>40.06</ele>
        <time>2010-12-20T10:34:10Z</time>
      </trkpt>
      <trkpt lat="43.43609" lon="3.44439">
        <ele>40.254</ele>
        <time>2010-12-20T10:34:11Z</time>
      </trkpt>
      <trkpt lat="43.43627" lon="3.44445">
        <ele>41.495</ele>
        <time>2010-12-20T10:34:18Z</time>
      </trkpt>
      <trkpt lat="43.4364" lon="3.44436">
        <ele>42.865</ele>
        <time>2010-12-20T10:34:24Z</time>
      </trkpt>
      <trkpt lat="43.43649" lon="3.44414">
        <ele>46.063</ele>
        <time>2010-12-20T10:34:32Z</time>
      </trkpt>
      <trkpt lat="43.43658" lon="3.44392">
        <ele>49.6</ele>
        <time>2010-12-20T10:34:40Z</time>
      </trkpt>
      <trkpt lat="43.43662" lon="3.44368">
        <ele>52.244</ele>
        <time>2010-12-20T10:34:48Z</time>
      </trkpt>
      <trkpt lat="43.43664" lon="3.44342">
        <ele>54.352</ele>
        <time>2010-12-20T10:34:56Z</time>
      </trkpt>
      <trkpt lat="43.43659" lon="3.44319">
        <ele>56.189</ele>
        <time>2010-12-20T10:35:03Z</time>
      </trkpt>
      <trkpt lat="43.43655" lon="3.44291">
        <ele>57.241</ele>
        <time>2010-12-20T10:35:11Z</time>
      </trkpt>
      <trkpt lat="43.43658" lon="3.44257">
        <ele>58.716</ele>
        <time>2010-12-20T10:35:20Z</time>
      </trkpt>
      <trkpt lat="43.4366" lon="3.44219">
        <ele>58.98</ele>
        <time>2010-12-20T10:35:28Z</time>
      </trkpt>
      <trkpt lat="43.43657" lon="3.44203">
        <ele>58.839</ele>
        <time>2010-12-20T10:35:31Z</time>
      </trkpt>
      <trkpt lat="43.43638" lon="3.44162">
        <ele>58.801</ele>
        <time>2010-12-20T10:35:39Z</time>
      </trkpt>
      <trkpt lat="43.43619" lon="3.44124">
        <ele>59.26</ele>
        <time>2010-12-20T10:35:47Z</time>
      </trkpt>
      <trkpt lat="43.43597" lon="3.44083">
        <ele>59.959</ele>
        <time>2010-12-20T10:35:56Z</time>
      </trkpt>
      <trkpt lat="43.43584" lon="3.44056">
        <ele>60.565</ele>
        <time>2010-12-20T10:36:02Z</time>
      </trkpt>
      <trkpt lat="43.43568" lon="3.44028">
        <ele>60.082</ele>
        <time>2010-12-20T10:36:08Z</time>
      </trkpt>
      <trkpt lat="43.43563" lon="3.44017">
        <ele>58.852</ele>
        <time>2010-12-20T10:36:11Z</time>
      </trkpt>
      <trkpt lat="43.43546" lon="3.43983">
        <ele>57.765</ele>
        <time>2010-12-20T10:36:17Z</time>
      </trkpt>
      <trkpt lat="43.43534" lon="3.43961">
        <ele>57.039</ele>
        <time>2010-12-20T10:36:21Z</time>
      </trkpt>
      <trkpt lat="43.43518" lon="3.43952">
        <ele>56.555</ele>
        <time>2010-12-20T10:36:26Z</time>
      </trkpt>
      <trkpt lat="43.43511" lon="3.43953">
        <ele>56.621</ele>
        <time>2010-12-20T10:36:28Z</time>
      </trkpt>
      <trkpt lat="43.4348" lon="3.43949">
        <ele>56.702</ele>
        <time>2010-12-20T10:36:35Z</time>
      </trkpt>
      <trkpt lat="43.43451" lon="3.43941">
        <ele>54.328</ele>
        <time>2010-12-20T10:36:39Z</time>
      </trkpt>
      <trkpt lat="43.43422" lon="3.43932">
        <ele>51.108</ele>
        <time>2010-12-20T10:36:43Z</time>
      </trkpt>
      <trkpt lat="43.43414" lon="3.43924">
        <ele>49.563</ele>
        <time>2010-12-20T10:36:46Z</time>
      </trkpt>
      <trkpt lat="43.43417" lon="3.43917">
        <ele>48.745</ele>
        <time>2010-12-20T10:36:48Z</time>
      </trkpt>
      <trkpt lat="43.43433" lon="3.43885">
        <ele>50.743</ele>
        <time>2010-12-20T10:36:56Z</time>
      </trkpt>
      <trkpt lat="43.43448" lon="3.43853">
        <ele>52.68</ele>
        <time>2010-12-20T10:37:03Z</time>
      </trkpt>
      <trkpt lat="43.43449" lon="3.43849">
        <ele>52.772</ele>
        <time>2010-12-20T10:37:04Z</time>
      </trkpt>
      <trkpt lat="43.43464" lon="3.43848">
        <ele>53.597</ele>
        <time>2010-12-20T10:37:09Z</time>
      </trkpt>
      <trkpt lat="43.4348" lon="3.4386">
        <ele>54.171</ele>
        <time>2010-12-20T10:37:14Z</time>
      </trkpt>
      <trkpt lat="43.43507" lon="3.43874">
        <ele>55.757</ele>
        <time>2010-12-20T10:37:22Z</time>
      </trkpt>
      <trkpt lat="43.4351" lon="3.43875">
        <ele>55.939</ele>
        <time>2010-12-20T10:37:23Z</time>
      </trkpt>
      <trkpt lat="43.43521" lon="3.43866">
        <ele>56.247</ele>
        <time>2010-12-20T10:37:27Z</time>
      </trkpt>
      <trkpt lat="43.4352" lon="3.43844">
        <ele>55.817</ele>
        <time>2010-12-20T10:37:31Z</time>
      </trkpt>
      <trkpt lat="43.43514" lon="3.43834">
        <ele>55.247</ele>
        <time>2010-12-20T10:37:33Z</time>
      </trkpt>
      <trkpt lat="43.43502" lon="3.43822">
        <ele>54.817</ele>
        <time>2010-12-20T10:37:36Z</time>
      </trkpt>
      <trkpt lat="43.43489" lon="3.43801">
        <ele>53.553</ele>
        <time>2010-12-20T10:37:41Z</time>
      </trkpt>
      <trkpt lat="43.43494" lon="3.4379">
        <ele>51.849</ele>
        <time>2010-12-20T10:37:44Z</time>
      </trkpt>
      <trkpt lat="43.4349" lon="3.43785">
        <ele>50.4</ele>
        <time>2010-12-20T10:37:47Z</time>
      </trkpt>
      <trkpt lat="43.43488" lon="3.43779">
        <ele>49.88</ele>
        <time>2010-12-20T10:37:49Z</time>
      </trkpt>
      <trkpt lat="43.43502" lon="3.43759">
        <ele>48.915</ele>
        <time>2010-12-20T10:37:54Z</time>
      </trkpt>
      <trkpt lat="43.43525" lon="3.43735">
        <ele>47.527</ele>
        <time>2010-12-20T10:38:01Z</time>
      </trkpt>
      <trkpt lat="43.43534" lon="3.43727">
        <ele>47.195</ele>
        <time>2010-12-20T10:38:04Z</time>
      </trkpt>
      <trkpt lat="43.43551" lon="3.43714">
        <ele>45.499</ele>
        <time>2010-12-20T10:38:09Z</time>
      </trkpt>
      <trkpt lat="43.43555" lon="3.43712">
        <ele>44.673</ele>
        <time>2010-12-20T10:38:11Z</time>
      </trkpt>
      <trkpt lat="43.43566" lon="3.43728">
        <ele>44.862</ele>
        <time>2010-12-20T10:38:15Z</time>
      </trkpt>
      <trkpt lat="43.43577" lon="3.43746">
        <ele>45.287</ele>
        <time>2010-12-20T10:38:20Z</time>
      </trkpt>
      <trkpt lat="43.43583" lon="3.43762">
        <ele>44.95</ele>
        <time>2010-12-20T10:38:24Z</time>
      </trkpt>
      <trkpt lat="43.43589" lon="3.43809">
        <ele>46.068</ele>
        <time>2010-12-20T10:38:32Z</time>
      </trkpt>
      <trkpt lat="43.43588" lon="3.43837">
        <ele>46.565</ele>
        <time>2010-12-20T10:38:37Z</time>
      </trkpt>
      <trkpt lat="43.43589" lon="3.43875">
        <ele>46.506</ele>
        <time>2010-12-20T10:38:43Z</time>
      </trkpt>
      <trkpt lat="43.4359" lon="3.43881">
        <ele>46.723</ele>
        <time>2010-12-20T10:38:44Z</time>
      </trkpt>
      <trkpt lat="43.43597" lon="3.43909">
        <ele>48.093</ele>
        <time>2010-12-20T10:38:50Z</time>
      </trkpt>
      <trkpt lat="43.43612" lon="3.43916">
        <ele>48.54</ele>
        <time>2010-12-20T10:38:55Z</time>
      </trkpt>
      <trkpt lat="43.43631" lon="3.43928">
        <ele>49.443</ele>
        <time>2010-12-20T10:39:00Z</time>
      </trkpt>
      <trkpt lat="43.43657" lon="3.43941">
        <ele>51.044</ele>
        <time>2010-12-20T10:39:07Z</time>
      </trkpt>
      <trkpt lat="43.43677" lon="3.43954">
        <ele>53.092</ele>
        <time>2010-12-20T10:39:14Z</time>
      </trkpt>
      <trkpt lat="43.43691" lon="3.43976">
        <ele>53.251</ele>
        <time>2010-12-20T10:39:19Z</time>
      </trkpt>
      <trkpt lat="43.43704" lon="3.43998">
        <ele>52.822</ele>
        <time>2010-12-20T10:39:24Z</time>
      </trkpt>
      <trkpt lat="43.4371" lon="3.44004">
        <ele>52.201</ele>
        <time>2010-12-20T10:39:28Z</time>
      </trkpt>
      <trkpt lat="43.43715" lon="3.44017">
        <ele>51.342</ele>
        <time>2010-12-20T10:39:35Z</time>
      </trkpt>
      <trkpt lat="43.43725" lon="3.4404">
        <ele>50.169</ele>
        <time>2010-12-20T10:39:39Z</time>
      </trkpt>
      <trkpt lat="43.43728" lon="3.44053">
        <ele>49.549</ele>
        <time>2010-12-20T10:39:41Z</time>
      </trkpt>
      <trkpt lat="43.43743" lon="3.4408">
        <ele>48.856</ele>
        <time>2010-12-20T10:39:47Z</time>
      </trkpt>
      <trkpt lat="43.43753" lon="3.44089">
        <ele>48.926</ele>
        <time>2010-12-20T10:39:50Z</time>
      </trkpt>
      <trkpt lat="43.43783" lon="3.44104">
        <ele>47.974</ele>
        <time>2010-12-20T10:39:56Z</time>
      </trkpt>
      <trkpt lat="43.43816" lon="3.4412">
        <ele>46.887</ele>
        <time>2010-12-20T10:40:02Z</time>
      </trkpt>
      <trkpt lat="43.43845" lon="3.44141">
        <ele>45.576</ele>
        <time>2010-12-20T10:40:07Z</time>
      </trkpt>
      <trkpt lat="43.43857" lon="3.44151">
        <ele>45.215</ele>
        <time>2010-12-20T10:40:09Z</time>
      </trkpt>
      <trkpt lat="43.43887" lon="3.44164">
        <ele>43.462</ele>
        <time>2010-12-20T10:40:13Z</time>
      </trkpt>
      <trkpt lat="43.43947" lon="3.44165">
        <ele>40.352</ele>
        <time>2010-12-20T10:40:20Z</time>
      </trkpt>
      <trkpt lat="43.43963" lon="3.44164">
        <ele>39.944</ele>
        <time>2010-12-20T10:40:22Z</time>
      </trkpt>
      <trkpt lat="43.43994" lon="3.44176">
        <ele>39.817</ele>
        <time>2010-12-20T10:40:26Z</time>
      </trkpt>
      <trkpt lat="43.44023" lon="3.44198">
        <ele>37.768</ele>
        <time>2010-12-20T10:40:30Z</time>
      </trkpt>
      <trkpt lat="43.44054" lon="3.44202">
        <ele>33.577</ele>
        <time>2010-12-20T10:40:34Z</time>
      </trkpt>
      <trkpt lat="43.44062" lon="3.442">
        <ele>33.192</ele>
        <time>2010-12-20T10:40:35Z</time>
      </trkpt>
      <trkpt lat="43.44089" lon="3.44202">
        <ele>32.234</ele>
        <time>2010-12-20T10:40:39Z</time>
      </trkpt>
      <trkpt lat="43.44133" lon="3.4422">
        <ele>32.32</ele>
        <time>2010-12-20T10:40:47Z</time>
      </trkpt>
      <trkpt lat="43.44152" lon="3.44236">
        <ele>32.388</ele>
        <time>2010-12-20T10:40:51Z</time>
      </trkpt>
      <trkpt lat="43.44182" lon="3.44265">
        <ele>32.53</ele>
        <time>2010-12-20T10:40:58Z</time>
      </trkpt>
      <trkpt lat="43.44197" lon="3.4427">
        <ele>32.689</ele>
        <time>2010-12-20T10:41:01Z</time>
      </trkpt>
      <trkpt lat="43.44245" lon="3.44287">
        <ele>33.143</ele>
        <time>2010-12-20T10:41:11Z</time>
      </trkpt>
      <trkpt lat="43.44276" lon="3.44303">
        <ele>33.347</ele>
        <time>2010-12-20T10:41:18Z</time>
      </trkpt>
      <trkpt lat="43.44299" lon="3.44322">
        <ele>31.877</ele>
        <time>2010-12-20T10:41:22Z</time>
      </trkpt>
      <trkpt lat="43.4433" lon="3.44331">
        <ele>29.365</ele>
        <time>2010-12-20T10:41:26Z</time>
      </trkpt>
      <trkpt lat="43.44339" lon="3.44332">
        <ele>29.363</ele>
        <time>2010-12-20T10:41:27Z</time>
      </trkpt>
      <trkpt lat="43.44357" lon="3.44328">
        <ele>28.145</ele>
        <time>2010-12-20T10:41:29Z</time>
      </trkpt>
      <trkpt lat="43.44383" lon="3.4432">
        <ele>26.766</ele>
        <time>2010-12-20T10:41:32Z</time>
      </trkpt>
      <trkpt lat="43.4441" lon="3.44313">
        <ele>26.12</ele>
        <time>2010-12-20T10:41:36Z</time>
      </trkpt>
      <trkpt lat="43.44433" lon="3.44307">
        <ele>26.836</ele>
        <time>2010-12-20T10:41:41Z</time>
      </trkpt>
      <trkpt lat="43.44466" lon="3.4431">
        <ele>29.251</ele>
        <time>2010-12-20T10:41:49Z</time>
      </trkpt>
      <trkpt lat="43.4449" lon="3.44321">
        <ele>31.566</ele>
        <time>2010-12-20T10:41:56Z</time>
      </trkpt>
      <trkpt lat="43.44501" lon="3.44334">
        <ele>32.603</ele>
        <time>2010-12-20T10:42:00Z</time>
      </trkpt>
      <trkpt lat="43.44513" lon="3.44369">
        <ele>34.168</ele>
        <time>2010-12-20T10:42:08Z</time>
      </trkpt>
      <trkpt lat="43.4451" lon="3.44394">
        <ele>35.146</ele>
        <time>2010-12-20T10:42:13Z</time>
      </trkpt>
      <trkpt lat="43.44498" lon="3.44453">
        <ele>36.416</ele>
        <time>2010-12-20T10:42:24Z</time>
      </trkpt>
      <trkpt lat="43.44491" lon="3.44514">
        <ele>37.125</ele>
        <time>2010-12-20T10:42:34Z</time>
      </trkpt>
      <trkpt lat="43.44487" lon="3.44575">
        <ele>38.175</ele>
        <time>2010-12-20T10:42:44Z</time>
      </trkpt>
      <trkpt lat="43.44486" lon="3.44613">
        <ele>38.688</ele>
        <time>2010-12-20T10:42:50Z</time>
      </trkpt>
      <trkpt lat="43.44495" lon="3.44639">
        <ele>38.613</ele>
        <time>2010-12-20T10:42:55Z</time>
      </trkpt>
      <trkpt lat="43.44508" lon="3.4467">
        <ele>39.492</ele>
        <time>2010-12-20T10:43:02Z</time>
      </trkpt>
      <trkpt lat="43.44523" lon="3.44713">
        <ele>41.499</ele>
        <time>2010-12-20T10:43:12Z</time>
      </trkpt>
      <trkpt lat="43.44532" lon="3.44745">
        <ele>43.83</ele>
        <time>2010-12-20T10:43:20Z</time>
      </trkpt>
      <trkpt lat="43.44537" lon="3.44779">
        <ele>45.288</ele>
        <time>2010-12-20T10:43:28Z</time>
      </trkpt>
      <trkpt lat="43.44549" lon="3.44814">
        <ele>46.983</ele>
        <time>2010-12-20T10:43:37Z</time>
      </trkpt>
      <trkpt lat="43.44566" lon="3.44842">
        <ele>49.365</ele>
        <time>2010-12-20T10:43:46Z</time>
      </trkpt>
      <trkpt lat="43.44586" lon="3.44881">
        <ele>52.109</ele>
        <time>2010-12-20T10:43:58Z</time>
      </trkpt>
      <trkpt lat="43.44602" lon="3.44916">
        <ele>54.035</ele>
        <time>2010-12-20T10:44:08Z</time>
      </trkpt>
      <trkpt lat="43.44616" lon="3.44954">
        <ele>55.878</ele>
        <time>2010-12-20T10:44:18Z</time>
      </trkpt>
      <trkpt lat="43.44632" lon="3.44999">
        <ele>57.928</ele>
        <time>2010-12-20T10:44:30Z</time>
      </trkpt>
      <trkpt lat="43.44642" lon="3.45034">
        <ele>60.015</ele>
        <time>2010-12-20T10:44:39Z</time>
      </trkpt>
      <trkpt lat="43.44649" lon="3.45062">
        <ele>60.378</ele>
        <time>2010-12-20T10:44:45Z</time>
      </trkpt>
      <trkpt lat="43.44651" lon="3.45087">
        <ele>60.258</ele>
        <time>2010-12-20T10:44:50Z</time>
      </trkpt>
      <trkpt lat="43.4465" lon="3.45121">
        <ele>60.042</ele>
        <time>2010-12-20T10:44:57Z</time>
      </trkpt>
      <trkpt lat="43.44659" lon="3.45159">
        <ele>60.005</ele>
        <time>2010-12-20T10:45:04Z</time>
      </trkpt>
      <trkpt lat="43.44672" lon="3.45207">
        <ele>58.806</ele>
        <time>2010-12-20T10:45:11Z</time>
      </trkpt>
      <trkpt lat="43.44691" lon="3.45253">
        <ele>58.077</ele>
        <time>2010-12-20T10:45:19Z</time>
      </trkpt>
      <trkpt lat="43.44692" lon="3.45259">
        <ele>58.208</ele>
        <time>2010-12-20T10:45:20Z</time>
      </trkpt>
      <trkpt lat="43.44695" lon="3.45284">
        <ele>58.501</ele>
        <time>2010-12-20T10:45:24Z</time>
      </trkpt>
      <trkpt lat="43.44699" lon="3.45313">
        <ele>58.158</ele>
        <time>2010-12-20T10:45:29Z</time>
      </trkpt>
      <trkpt lat="43.44712" lon="3.45334">
        <ele>58.055</ele>
        <time>2010-12-20T10:45:34Z</time>
      </trkpt>
      <trkpt lat="43.44717" lon="3.45336">
        <ele>57.799</ele>
        <time>2010-12-20T10:45:35Z</time>
      </trkpt>
      <trkpt lat="43.44783" lon="3.4535">
        <ele>55.739</ele>
        <time>2010-12-20T10:45:46Z</time>
      </trkpt>
      <trkpt lat="43.44828" lon="3.45363">
        <ele>54.489</ele>
        <time>2010-12-20T10:45:54Z</time>
      </trkpt>
      <trkpt lat="43.44859" lon="3.45374">
        <ele>54.059</ele>
        <time>2010-12-20T10:46:01Z</time>
      </trkpt>
      <trkpt lat="43.44904" lon="3.45388">
        <ele>54.453</ele>
        <time>2010-12-20T10:46:11Z</time>
      </trkpt>
      <trkpt lat="43.44943" lon="3.45399">
        <ele>55.744</ele>
        <time>2010-12-20T10:46:20Z</time>
      </trkpt>
      <trkpt lat="43.44971" lon="3.45405">
        <ele>56.508</ele>
        <time>2010-12-20T10:46:27Z</time>
      </trkpt>
      <trkpt lat="43.45003" lon="3.45415">
        <ele>57.753</ele>
        <time>2010-12-20T10:46:35Z</time>
      </trkpt>
      <trkpt lat="43.45023" lon="3.4542">
        <ele>59.443</ele>
        <time>2010-12-20T10:46:41Z</time>
      </trkpt>
      <trkpt lat="43.45045" lon="3.45428">
        <ele>61.978</ele>
        <time>2010-12-20T10:46:48Z</time>
      </trkpt>
      <trkpt lat="43.45069" lon="3.45434">
        <ele>63.791</ele>
        <time>2010-12-20T10:46:55Z</time>
      </trkpt>
      <trkpt lat="43.45103" lon="3.45442">
        <ele>63.516</ele>
        <time>2010-12-20T10:47:02Z</time>
      </trkpt>
      <trkpt lat="43.45147" lon="3.45445">
        <ele>61.929</ele>
        <time>2010-12-20T10:47:10Z</time>
      </trkpt>
      <trkpt lat="43.45196" lon="3.45443">
        <ele>60.303</ele>
        <time>2010-12-20T10:47:19Z</time>
      </trkpt>
      <trkpt lat="43.45201" lon="3.45442">
        <ele>60.076</ele>
        <time>2010-12-20T10:47:20Z</time>
      </trkpt>
      <trkpt lat="43.45216" lon="3.45436">
        <ele>59.583</ele>
        <time>2010-12-20T10:47:23Z</time>
      </trkpt>
      <trkpt lat="43.45245" lon="3.45429">
        <ele>57.581</ele>
        <time>2010-12-20T10:47:28Z</time>
      </trkpt>
      <trkpt lat="43.45303" lon="3.45415">
        <ele>54.037</ele>
        <time>2010-12-20T10:47:38Z</time>
      </trkpt>
      <trkpt lat="43.45324" lon="3.4542">
        <ele>53.015</ele>
        <time>2010-12-20T10:47:42Z</time>
      </trkpt>
      <trkpt lat="43.4534" lon="3.4544">
        <ele>51.244</ele>
        <time>2010-12-20T10:47:46Z</time>
      </trkpt>
      <trkpt lat="43.45345" lon="3.45441">
        <ele>50.752</ele>
        <time>2010-12-20T10:47:47Z</time>
      </trkpt>
      <trkpt lat="43.45357" lon="3.45443">
        <ele>49.808</ele>
        <time>2010-12-20T10:47:49Z</time>
      </trkpt>
      <trkpt lat="43.45367" lon="3.45442">
        <ele>49.099</ele>
        <time>2010-12-20T10:47:51Z</time>
      </trkpt>
      <trkpt lat="43.45381" lon="3.4544">
        <ele>49.17</ele>
        <time>2010-12-20T10:47:55Z</time>
      </trkpt>
      <trkpt lat="43.45402" lon="3.45431">
        <ele>51.051</ele>
        <time>2010-12-20T10:48:02Z</time>
      </trkpt>
      <trkpt lat="43.4542" lon="3.4543">
        <ele>52.208</ele>
        <time>2010-12-20T10:48:08Z</time>
      </trkpt>
      <trkpt lat="43.45422" lon="3.45433">
        <ele>52.319</ele>
        <time>2010-12-20T10:48:09Z</time>
      </trkpt>
      <trkpt lat="43.45434" lon="3.45441">
        <ele>53.973</ele>
        <time>2010-12-20T10:48:15Z</time>
      </trkpt>
      <trkpt lat="43.4545" lon="3.45452">
        <ele>55.29</ele>
        <time>2010-12-20T10:48:21Z</time>
      </trkpt>
      <trkpt lat="43.4547" lon="3.45465">
        <ele>56.461</ele>
        <time>2010-12-20T10:48:29Z</time>
      </trkpt>
      <trkpt lat="43.45486" lon="3.45476">
        <ele>57.183</ele>
        <time>2010-12-20T10:48:35Z</time>
      </trkpt>
      <trkpt lat="43.45502" lon="3.45499">
        <ele>58.341</ele>
        <time>2010-12-20T10:48:43Z</time>
      </trkpt>
      <trkpt lat="43.45506" lon="3.45504">
        <ele>58.57</ele>
        <time>2010-12-20T10:48:45Z</time>
      </trkpt>
      <trkpt lat="43.4552" lon="3.45506">
        <ele>59.801</ele>
        <time>2010-12-20T10:48:50Z</time>
      </trkpt>
      <trkpt lat="43.45556" lon="3.45505">
        <ele>61.35</ele>
        <time>2010-12-20T10:49:02Z</time>
      </trkpt>
      <trkpt lat="43.45578" lon="3.45506">
        <ele>63.395</ele>
        <time>2010-12-20T10:49:10Z</time>
      </trkpt>
      <trkpt lat="43.45597" lon="3.45506">
        <ele>65.608</ele>
        <time>2010-12-20T10:49:18Z</time>
      </trkpt>
      <trkpt lat="43.45618" lon="3.45508">
        <ele>67.705</ele>
        <time>2010-12-20T10:49:26Z</time>
      </trkpt>
      <trkpt lat="43.45636" lon="3.45516">
        <ele>67.973</ele>
        <time>2010-12-20T10:49:32Z</time>
      </trkpt>
      <trkpt lat="43.45643" lon="3.45518">
        <ele>67.947</ele>
        <time>2010-12-20T10:49:34Z</time>
      </trkpt>
      <trkpt lat="43.45672" lon="3.45512">
        <ele>65.831</ele>
        <time>2010-12-20T10:49:40Z</time>
      </trkpt>
      <trkpt lat="43.45696" lon="3.45507">
        <ele>64.313</ele>
        <time>2010-12-20T10:49:44Z</time>
      </trkpt>
      <trkpt lat="43.45728" lon="3.45516">
        <ele>62.259</ele>
        <time>2010-12-20T10:49:48Z</time>
      </trkpt>
      <trkpt lat="43.45759" lon="3.45527">
        <ele>60.694</ele>
        <time>2010-12-20T10:49:52Z</time>
      </trkpt>
      <trkpt lat="43.45796" lon="3.45528">
        <ele>59.276</ele>
        <time>2010-12-20T10:49:58Z</time>
      </trkpt>
      <trkpt lat="43.45823" lon="3.45524">
        <ele>58.009</ele>
        <time>2010-12-20T10:50:03Z</time>
      </trkpt>
      <trkpt lat="43.45839" lon="3.45522">
        <ele>57.225</ele>
        <time>2010-12-20T10:50:08Z</time>
      </trkpt>
      <trkpt lat="43.45853" lon="3.45523">
        <ele>56.77</ele>
        <time>2010-12-20T10:50:13Z</time>
      </trkpt>
      <trkpt lat="43.45868" lon="3.4552">
        <ele>56.834</ele>
        <time>2010-12-20T10:50:18Z</time>
      </trkpt>
      <trkpt lat="43.45887" lon="3.45521">
        <ele>57.067</ele>
        <time>2010-12-20T10:50:23Z</time>
      </trkpt>
      <trkpt lat="43.45915" lon="3.45527">
        <ele>57.726</ele>
        <time>2010-12-20T10:50:30Z</time>
      </trkpt>
      <trkpt lat="43.45946" lon="3.45537">
        <ele>58.107</ele>
        <time>2010-12-20T10:50:37Z</time>
      </trkpt>
      <trkpt lat="43.45965" lon="3.45544">
        <ele>58.444</ele>
        <time>2010-12-20T10:50:42Z</time>
      </trkpt>
      <trkpt lat="43.45986" lon="3.45552">
        <ele>58.692</ele>
        <time>2010-12-20T10:50:48Z</time>
      </trkpt>
      <trkpt lat="43.46003" lon="3.45566">
        <ele>58.711</ele>
        <time>2010-12-20T10:50:53Z</time>
      </trkpt>
      <trkpt lat="43.46033" lon="3.45585">
        <ele>58.749</ele>
        <time>2010-12-20T10:51:00Z</time>
      </trkpt>
      <trkpt lat="43.46062" lon="3.45609">
        <ele>57.891</ele>
        <time>2010-12-20T10:51:07Z</time>
      </trkpt>
      <trkpt lat="43.46083" lon="3.45626">
        <ele>56.542</ele>
        <time>2010-12-20T10:51:12Z</time>
      </trkpt>
      <trkpt lat="43.46104" lon="3.45653">
        <ele>53.55</ele>
        <time>2010-12-20T10:51:17Z</time>
      </trkpt>
      <trkpt lat="43.46124" lon="3.45686">
        <ele>47.831</ele>
        <time>2010-12-20T10:51:22Z</time>
      </trkpt>
      <trkpt lat="43.46137" lon="3.4571">
        <ele>44.518</ele>
        <time>2010-12-20T10:51:25Z</time>
      </trkpt>
      <trkpt lat="43.46158" lon="3.45742">
        <ele>42.106</ele>
        <time>2010-12-20T10:51:30Z</time>
      </trkpt>
      <trkpt lat="43.46176" lon="3.45758">
        <ele>41.599</ele>
        <time>2010-12-20T10:51:34Z</time>
      </trkpt>
      <trkpt lat="43.46211" lon="3.45787">
        <ele>41.278</ele>
        <time>2010-12-20T10:51:42Z</time>
      </trkpt>
      <trkpt lat="43.46233" lon="3.45804">
        <ele>40.998</ele>
        <time>2010-12-20T10:51:47Z</time>
      </trkpt>
      <trkpt lat="43.46253" lon="3.45812">
        <ele>40.318</ele>
        <time>2010-12-20T10:51:51Z</time>
      </trkpt>
      <trkpt lat="43.46289" lon="3.45818">
        <ele>39.168</ele>
        <time>2010-12-20T10:51:57Z</time>
      </trkpt>
      <trkpt lat="43.46323" lon="3.45826">
        <ele>37.934</ele>
        <time>2010-12-20T10:52:02Z</time>
      </trkpt>
      <trkpt lat="43.46344" lon="3.45832">
        <ele>36.577</ele>
        <time>2010-12-20T10:52:05Z</time>
      </trkpt>
      <trkpt lat="43.46386" lon="3.45861">
        <ele>34.376</ele>
        <time>2010-12-20T10:52:11Z</time>
      </trkpt>
      <trkpt lat="43.46413" lon="3.45876">
        <ele>32.281</ele>
        <time>2010-12-20T10:52:15Z</time>
      </trkpt>
      <trkpt lat="43.46424" lon="3.45891">
        <ele>30.681</ele>
        <time>2010-12-20T10:52:18Z</time>
      </trkpt>
      <trkpt lat="43.46444" lon="3.4592">
        <ele>31.053</ele>
        <time>2010-12-20T10:52:25Z</time>
      </trkpt>
      <trkpt lat="43.46455" lon="3.45932">
        <ele>32.262</ele>
        <time>2010-12-20T10:52:29Z</time>
      </trkpt>
      <trkpt lat="43.46469" lon="3.45956">
        <ele>34.11</ele>
        <time>2010-12-20T10:52:35Z</time>
      </trkpt>
      <trkpt lat="43.4648" lon="3.45985">
        <ele>35.835</ele>
        <time>2010-12-20T10:52:42Z</time>
      </trkpt>
      <trkpt lat="43.46489" lon="3.46027">
        <ele>37.416</ele>
        <time>2010-12-20T10:52:51Z</time>
      </trkpt>
      <trkpt lat="43.46502" lon="3.46069">
        <ele>40.147</ele>
        <time>2010-12-20T10:53:01Z</time>
      </trkpt>
      <trkpt lat="43.46516" lon="3.461">
        <ele>42.244</ele>
        <time>2010-12-20T10:53:09Z</time>
      </trkpt>
      <trkpt lat="43.46536" lon="3.46138">
        <ele>44.484</ele>
        <time>2010-12-20T10:53:19Z</time>
      </trkpt>
      <trkpt lat="43.46557" lon="3.46163">
        <ele>46.439</ele>
        <time>2010-12-20T10:53:27Z</time>
      </trkpt>
      <trkpt lat="43.46576" lon="3.46184">
        <ele>49.173</ele>
        <time>2010-12-20T10:53:35Z</time>
      </trkpt>
      <trkpt lat="43.46585" lon="3.462">
        <ele>50.537</ele>
        <time>2010-12-20T10:53:40Z</time>
      </trkpt>
      <trkpt lat="43.46581" lon="3.46216">
        <ele>51.731</ele>
        <time>2010-12-20T10:53:44Z</time>
      </trkpt>
      <trkpt lat="43.46578" lon="3.46243">
        <ele>52.165</ele>
        <time>2010-12-20T10:53:50Z</time>
      </trkpt>
      <trkpt lat="43.46588" lon="3.46251">
        <ele>53.36</ele>
        <time>2010-12-20T10:53:54Z</time>
      </trkpt>
      <trkpt lat="43.46602" lon="3.46254">
        <ele>54.671</ele>
        <time>2010-12-20T10:53:59Z</time>
      </trkpt>
      <trkpt lat="43.46619" lon="3.46254">
        <ele>56.776</ele>
        <time>2010-12-20T10:54:05Z</time>
      </trkpt>
      <trkpt lat="43.46621" lon="3.46253">
        <ele>56.776</ele>
        <time>2010-12-20T10:54:06Z</time>
      </trkpt>
      <trkpt lat="43.46628" lon="3.46259">
        <ele>57.796</ele>
        <time>2010-12-20T10:54:11Z</time>
      </trkpt>
      <trkpt lat="43.46631" lon="3.46258">
        <ele>57.892</ele>
        <time>2010-12-20T10:54:13Z</time>
      </trkpt>
      <trkpt lat="43.46638" lon="3.46264">
        <ele>57.809</ele>
        <time>2010-12-20T10:54:18Z</time>
      </trkpt>
      <trkpt lat="43.46639" lon="3.46288">
        <ele>58.298</ele>
        <time>2010-12-20T10:54:25Z</time>
      </trkpt>
      <trkpt lat="43.46638" lon="3.46316">
        <ele>58.558</ele>
        <time>2010-12-20T10:54:33Z</time>
      </trkpt>
      <trkpt lat="43.4664" lon="3.46341">
        <ele>58.479</ele>
        <time>2010-12-20T10:54:40Z</time>
      </trkpt>
      <trkpt lat="43.46643" lon="3.46352">
        <ele>58.532</ele>
        <time>2010-12-20T10:54:43Z</time>
      </trkpt>
      <trkpt lat="43.46654" lon="3.46358">
        <ele>58.766</ele>
        <time>2010-12-20T10:54:49Z</time>
      </trkpt>
      <trkpt lat="43.4667" lon="3.4635">
        <ele>57.788</ele>
        <time>2010-12-20T10:54:53Z</time>
      </trkpt>
      <trkpt lat="43.46675" lon="3.46348">
        <ele>57.786</ele>
        <time>2010-12-20T10:54:54Z</time>
      </trkpt>
      <trkpt lat="43.46688" lon="3.46346">
        <ele>56.744</ele>
        <time>2010-12-20T10:54:56Z</time>
      </trkpt>
      <trkpt lat="43.46726" lon="3.46354">
        <ele>55.21</ele>
        <time>2010-12-20T10:55:02Z</time>
      </trkpt>
      <trkpt lat="43.46761" lon="3.4636">
        <ele>55.173</ele>
        <time>2010-12-20T10:55:08Z</time>
      </trkpt>
      <trkpt lat="43.46782" lon="3.46364">
        <ele>54.731</ele>
        <time>2010-12-20T10:55:12Z</time>
      </trkpt>
      <trkpt lat="43.46792" lon="3.46382">
        <ele>54.396</ele>
        <time>2010-12-20T10:55:16Z</time>
      </trkpt>
      <trkpt lat="43.46797" lon="3.46427">
        <ele>54.744</ele>
        <time>2010-12-20T10:55:23Z</time>
      </trkpt>
      <trkpt lat="43.46806" lon="3.46462">
        <ele>55.366</ele>
        <time>2010-12-20T10:55:29Z</time>
      </trkpt>
      <trkpt lat="43.46824" lon="3.46485">
        <ele>56.275</ele>
        <time>2010-12-20T10:55:35Z</time>
      </trkpt>
      <trkpt lat="43.46828" lon="3.46487">
        <ele>56.377</ele>
        <time>2010-12-20T10:55:36Z</time>
      </trkpt>
      <trkpt lat="43.46869" lon="3.46502">
        <ele>58.556</ele>
        <time>2010-12-20T10:55:47Z</time>
      </trkpt>
      <trkpt lat="43.46902" lon="3.46512">
        <ele>60.449</ele>
        <time>2010-12-20T10:55:56Z</time>
      </trkpt>
      <trkpt lat="43.46927" lon="3.46524">
        <ele>61.851</ele>
        <time>2010-12-20T10:56:03Z</time>
      </trkpt>
      <trkpt lat="43.46943" lon="3.46544">
        <ele>63.639</ele>
        <time>2010-12-20T10:56:09Z</time>
      </trkpt>
      <trkpt lat="43.46964" lon="3.46571">
        <ele>65.106</ele>
        <time>2010-12-20T10:56:17Z</time>
      </trkpt>
      <trkpt lat="43.46983" lon="3.46594">
        <ele>66.267</ele>
        <time>2010-12-20T10:56:24Z</time>
      </trkpt>
      <trkpt lat="43.47007" lon="3.46623">
        <ele>68.231</ele>
        <time>2010-12-20T10:56:33Z</time>
      </trkpt>
      <trkpt lat="43.47023" lon="3.46649">
        <ele>69.979</ele>
        <time>2010-12-20T10:56:41Z</time>
      </trkpt>
      <trkpt lat="43.47035" lon="3.46672">
        <ele>72.081</ele>
        <time>2010-12-20T10:56:48Z</time>
      </trkpt>
      <trkpt lat="43.47052" lon="3.46707">
        <ele>75.508</ele>
        <time>2010-12-20T10:56:59Z</time>
      </trkpt>
      <trkpt lat="43.47061" lon="3.4673">
        <ele>77.476</ele>
        <time>2010-12-20T10:57:06Z</time>
      </trkpt>
      <trkpt lat="43.47077" lon="3.4676">
        <ele>80.871</ele>
        <time>2010-12-20T10:57:16Z</time>
      </trkpt>
      <trkpt lat="43.47088" lon="3.4677">
        <ele>82.598</ele>
        <time>2010-12-20T10:57:21Z</time>
      </trkpt>
      <trkpt lat="43.47107" lon="3.46775">
        <ele>84.504</ele>
        <time>2010-12-20T10:57:28Z</time>
      </trkpt>
      <trkpt lat="43.47126" lon="3.46781">
        <ele>85.109</ele>
        <time>2010-12-20T10:57:34Z</time>
      </trkpt>
      <trkpt lat="43.47146" lon="3.46794">
        <ele>84.425</ele>
        <time>2010-12-20T10:57:39Z</time>
      </trkpt>
      <trkpt lat="43.47174" lon="3.46817">
        <ele>83.164</ele>
        <time>2010-12-20T10:57:45Z</time>
      </trkpt>
      <trkpt lat="43.47194" lon="3.46819">
        <ele>83.204</ele>
        <time>2010-12-20T10:57:49Z</time>
      </trkpt>
      <trkpt lat="43.47225" lon="3.46804">
        <ele>84.251</ele>
        <time>2010-12-20T10:57:57Z</time>
      </trkpt>
      <trkpt lat="43.47243" lon="3.46796">
        <ele>86.127</ele>
        <time>2010-12-20T10:58:03Z</time>
      </trkpt>
      <trkpt lat="43.47261" lon="3.46782">
        <ele>87.28</ele>
        <time>2010-12-20T10:58:09Z</time>
      </trkpt>
      <trkpt lat="43.47268" lon="3.46778">
        <ele>86.944</ele>
        <time>2010-12-20T10:58:11Z</time>
      </trkpt>
      <trkpt lat="43.4728" lon="3.46784">
        <ele>86.401</ele>
        <time>2010-12-20T10:58:14Z</time>
      </trkpt>
      <trkpt lat="43.47292" lon="3.46787">
        <ele>85.597</ele>
        <time>2010-12-20T10:58:18Z</time>
      </trkpt>
      <trkpt lat="43.47295" lon="3.46786">
        <ele>85.34</ele>
        <time>2010-12-20T10:58:19Z</time>
      </trkpt>
      <trkpt lat="43.47316" lon="3.46779">
        <ele>82.671</ele>
        <time>2010-12-20T10:58:25Z</time>
      </trkpt>
      <trkpt lat="43.47329" lon="3.46776">
        <ele>80.297</ele>
        <time>2010-12-20T10:58:29Z</time>
      </trkpt>
      <trkpt lat="43.47331" lon="3.46787">
        <ele>78.329</ele>
        <time>2010-12-20T10:58:33Z</time>
      </trkpt>
      <trkpt lat="43.47341" lon="3.46824">
        <ele>75.508</ele>
        <time>2010-12-20T10:58:39Z</time>
      </trkpt>
      <trkpt lat="43.47344" lon="3.46833">
        <ele>73.976</ele>
        <time>2010-12-20T10:58:41Z</time>
      </trkpt>
      <trkpt lat="43.47351" lon="3.46851">
        <ele>72.331</ele>
        <time>2010-12-20T10:58:44Z</time>
      </trkpt>
      <trkpt lat="43.47354" lon="3.46858">
        <ele>71.567</ele>
        <time>2010-12-20T10:58:45Z</time>
      </trkpt>
      <trkpt lat="43.47364" lon="3.46885">
        <ele>67.907</ele>
        <time>2010-12-20T10:58:50Z</time>
      </trkpt>
      <trkpt lat="43.47373" lon="3.46918">
        <ele>63.662</ele>
        <time>2010-12-20T10:58:56Z</time>
      </trkpt>
      <trkpt lat="43.47379" lon="3.46931">
        <ele>61.841</ele>
        <time>2010-12-20T10:58:59Z</time>
      </trkpt>
      <trkpt lat="43.47397" lon="3.4694">
        <ele>59.402</ele>
        <time>2010-12-20T10:59:04Z</time>
      </trkpt>
      <trkpt lat="43.47409" lon="3.46951">
        <ele>58.137</ele>
        <time>2010-12-20T10:59:08Z</time>
      </trkpt>
      <trkpt lat="43.47418" lon="3.46972">
        <ele>57.197</ele>
        <time>2010-12-20T10:59:12Z</time>
      </trkpt>
      <trkpt lat="43.47421" lon="3.46977">
        <ele>56.638</ele>
        <time>2010-12-20T10:59:13Z</time>
      </trkpt>
      <trkpt lat="43.47432" lon="3.47005">
        <ele>52.518</ele>
        <time>2010-12-20T10:59:18Z</time>
      </trkpt>
      <trkpt lat="43.47447" lon="3.47045">
        <ele>49.342</ele>
        <time>2010-12-20T10:59:23Z</time>
      </trkpt>
      <trkpt lat="43.47463" lon="3.47093">
        <ele>47.15</ele>
        <time>2010-12-20T10:59:29Z</time>
      </trkpt>
      <trkpt lat="43.47464" lon="3.4712">
        <ele>45.618</ele>
        <time>2010-12-20T10:59:33Z</time>
      </trkpt>
      <trkpt lat="43.47463" lon="3.47128">
        <ele>45.394</ele>
        <time>2010-12-20T10:59:35Z</time>
      </trkpt>
      <trkpt lat="43.47471" lon="3.47135">
        <ele>44.807</ele>
        <time>2010-12-20T10:59:40Z</time>
      </trkpt>
      <trkpt lat="43.47487" lon="3.47145">
        <ele>44.976</ele>
        <time>2010-12-20T10:59:46Z</time>
      </trkpt>
      <trkpt lat="43.47509" lon="3.47156">
        <ele>45.171</ele>
        <time>2010-12-20T10:59:52Z</time>
      </trkpt>
      <trkpt lat="43.47536" lon="3.47173">
        <ele>45.791</ele>
        <time>2010-12-20T10:59:59Z</time>
      </trkpt>
      <trkpt lat="43.47543" lon="3.47179">
        <ele>45.849</ele>
        <time>2010-12-20T11:00:01Z</time>
      </trkpt>
      <trkpt lat="43.47564" lon="3.47202">
        <ele>46.424</ele>
        <time>2010-12-20T11:00:07Z</time>
      </trkpt>
      <trkpt lat="43.47586" lon="3.47232">
        <ele>46.33</ele>
        <time>2010-12-20T11:00:13Z</time>
      </trkpt>
      <trkpt lat="43.47609" lon="3.47277">
        <ele>45.631</ele>
        <time>2010-12-20T11:00:20Z</time>
      </trkpt>
      <trkpt lat="43.47623" lon="3.47301">
        <ele>45.748</ele>
        <time>2010-12-20T11:00:24Z</time>
      </trkpt>
      <trkpt lat="43.47647" lon="3.4734">
        <ele>46.484</ele>
        <time>2010-12-20T11:00:31Z</time>
      </trkpt>
      <trkpt lat="43.4765" lon="3.47345">
        <ele>46.563</ele>
        <time>2010-12-20T11:00:32Z</time>
      </trkpt>
      <trkpt lat="43.47664" lon="3.47388">
        <ele>47.579</ele>
        <time>2010-12-20T11:00:39Z</time>
      </trkpt>
      <trkpt lat="43.47667" lon="3.47401">
        <ele>47.898</ele>
        <time>2010-12-20T11:00:41Z</time>
      </trkpt>
      <trkpt lat="43.47689" lon="3.47465">
        <ele>49.792</ele>
        <time>2010-12-20T11:00:52Z</time>
      </trkpt>
      <trkpt lat="43.47708" lon="3.47519">
        <ele>51.903</ele>
        <time>2010-12-20T11:01:02Z</time>
      </trkpt>
      <trkpt lat="43.47723" lon="3.47565">
        <ele>53.379</ele>
        <time>2010-12-20T11:01:11Z</time>
      </trkpt>
      <trkpt lat="43.47735" lon="3.47601">
        <ele>53.332</ele>
        <time>2010-12-20T11:01:17Z</time>
      </trkpt>
      <trkpt lat="43.47754" lon="3.47649">
        <ele>51.371</ele>
        <time>2010-12-20T11:01:23Z</time>
      </trkpt>
      <trkpt lat="43.47776" lon="3.47708">
        <ele>48.264</ele>
        <time>2010-12-20T11:01:29Z</time>
      </trkpt>
      <trkpt lat="43.47798" lon="3.47754">
        <ele>46.594</ele>
        <time>2010-12-20T11:01:34Z</time>
      </trkpt>
      <trkpt lat="43.47816" lon="3.47788">
        <ele>45.252</ele>
        <time>2010-12-20T11:01:38Z</time>
      </trkpt>
      <trkpt lat="43.47834" lon="3.47842">
        <ele>43.284</ele>
        <time>2010-12-20T11:01:44Z</time>
      </trkpt>
      <trkpt lat="43.47841" lon="3.47925">
        <ele>41.437</ele>
        <time>2010-12-20T11:01:53Z</time>
      </trkpt>
      <trkpt lat="43.47842" lon="3.47949">
        <ele>40.87</ele>
        <time>2010-12-20T11:01:56Z</time>
      </trkpt>
      <trkpt lat="43.47831" lon="3.47991">
        <ele>39.867</ele>
        <time>2010-12-20T11:02:02Z</time>
      </trkpt>
      <trkpt lat="43.47829" lon="3.47998">
        <ele>39.851</ele>
        <time>2010-12-20T11:02:03Z</time>
      </trkpt>
      <trkpt lat="43.47825" lon="3.48026">
        <ele>39.251</ele>
        <time>2010-12-20T11:02:08Z</time>
      </trkpt>
      <trkpt lat="43.47826" lon="3.48034">
        <ele>38.474</ele>
        <time>2010-12-20T11:02:12Z</time>
      </trkpt>
      <trkpt lat="43.47835" lon="3.48041">
        <ele>38.048</ele>
        <time>2010-12-20T11:02:15Z</time>
      </trkpt>
      <trkpt lat="43.47861" lon="3.48073">
        <ele>37.65</ele>
        <time>2010-12-20T11:02:22Z</time>
      </trkpt>
      <trkpt lat="43.47895" lon="3.48114">
        <ele>37.619</ele>
        <time>2010-12-20T11:02:31Z</time>
      </trkpt>
      <trkpt lat="43.47919" lon="3.4814">
        <ele>38.18</ele>
        <time>2010-12-20T11:02:37Z</time>
      </trkpt>
      <trkpt lat="43.4795" lon="3.48174">
        <ele>40.402</ele>
        <time>2010-12-20T11:02:46Z</time>
      </trkpt>
      <trkpt lat="43.47982" lon="3.48212">
        <ele>42.333</ele>
        <time>2010-12-20T11:02:56Z</time>
      </trkpt>
      <trkpt lat="43.47993" lon="3.48227">
        <ele>43.059</ele>
        <time>2010-12-20T11:03:01Z</time>
      </trkpt>
      <trkpt lat="43.48013" lon="3.48251">
        <ele>43.933</ele>
        <time>2010-12-20T11:03:08Z</time>
      </trkpt>
      <trkpt lat="43.48033" lon="3.48274">
        <ele>44.794</ele>
        <time>2010-12-20T11:03:15Z</time>
      </trkpt>
      <trkpt lat="43.48043" lon="3.48285">
        <ele>44.922</ele>
        <time>2010-12-20T11:03:21Z</time>
      </trkpt>
      <trkpt lat="43.4805" lon="3.48291">
        <ele>45.051</ele>
        <time>2010-12-20T11:03:25Z</time>
      </trkpt>
      <trkpt lat="43.48056" lon="3.48304">
        <ele>45.635</ele>
        <time>2010-12-20T11:03:31Z</time>
      </trkpt>
      <trkpt lat="43.48059" lon="3.48307">
        <ele>45.924</ele>
        <time>2010-12-20T11:03:40Z</time>
      </trkpt>
      <trkpt lat="43.4806" lon="3.48323">
        <ele>46.041</ele>
        <time>2010-12-20T11:03:45Z</time>
      </trkpt>
      <trkpt lat="43.48067" lon="3.4834">
        <ele>46.262</ele>
        <time>2010-12-20T11:03:49Z</time>
      </trkpt>
      <trkpt lat="43.4808" lon="3.48355">
        <ele>46.467</ele>
        <time>2010-12-20T11:03:53Z</time>
      </trkpt>
      <trkpt lat="43.48087" lon="3.4836">
        <ele>46.657</ele>
        <time>2010-12-20T11:03:55Z</time>
      </trkpt>
      <trkpt lat="43.48102" lon="3.48368">
        <ele>47.345</ele>
        <time>2010-12-20T11:03:59Z</time>
      </trkpt>
      <trkpt lat="43.48128" lon="3.48378">
        <ele>48.611</ele>
        <time>2010-12-20T11:04:06Z</time>
      </trkpt>
      <trkpt lat="43.48153" lon="3.48385">
        <ele>49.382</ele>
        <time>2010-12-20T11:04:12Z</time>
      </trkpt>
      <trkpt lat="43.4818" lon="3.48391">
        <ele>50.412</ele>
        <time>2010-12-20T11:04:18Z</time>
      </trkpt>
      <trkpt lat="43.48184" lon="3.48392">
        <ele>50.534</ele>
        <time>2010-12-20T11:04:19Z</time>
      </trkpt>
      <trkpt lat="43.48211" lon="3.484">
        <ele>51.747</ele>
        <time>2010-12-20T11:04:25Z</time>
      </trkpt>
      <trkpt lat="43.48231" lon="3.48409">
        <ele>52.857</ele>
        <time>2010-12-20T11:04:30Z</time>
      </trkpt>
      <trkpt lat="43.48254" lon="3.48429">
        <ele>54.321</ele>
        <time>2010-12-20T11:04:36Z</time>
      </trkpt>
      <trkpt lat="43.4828" lon="3.48456">
        <ele>55.537</ele>
        <time>2010-12-20T11:04:43Z</time>
      </trkpt>
      <trkpt lat="43.48309" lon="3.48484">
        <ele>55.617</ele>
        <time>2010-12-20T11:04:50Z</time>
      </trkpt>
      <trkpt lat="43.48348" lon="3.48525">
        <ele>55.501</ele>
        <time>2010-12-20T11:04:59Z</time>
      </trkpt>
      <trkpt lat="43.48405" lon="3.48587">
        <ele>55.126</ele>
        <time>2010-12-20T11:05:12Z</time>
      </trkpt>
      <trkpt lat="43.48439" lon="3.48628">
        <ele>55.611</ele>
        <time>2010-12-20T11:05:21Z</time>
      </trkpt>
      <trkpt lat="43.48469" lon="3.48678">
        <ele>56.232</ele>
        <time>2010-12-20T11:05:31Z</time>
      </trkpt>
      <trkpt lat="43.48503" lon="3.48733">
        <ele>57.003</ele>
        <time>2010-12-20T11:05:42Z</time>
      </trkpt>
      <trkpt lat="43.48529" lon="3.48774">
        <ele>57.313</ele>
        <time>2010-12-20T11:05:50Z</time>
      </trkpt>
      <trkpt lat="43.48561" lon="3.48825">
        <ele>58.126</ele>
        <time>2010-12-20T11:06:00Z</time>
      </trkpt>
      <trkpt lat="43.4858" lon="3.4885">
        <ele>58.239</ele>
        <time>2010-12-20T11:06:05Z</time>
      </trkpt>
      <trkpt lat="43.48586" lon="3.48874">
        <ele>57.906</ele>
        <time>2010-12-20T11:06:09Z</time>
      </trkpt>
      <trkpt lat="43.48588" lon="3.48887">
        <ele>57.622</ele>
        <time>2010-12-20T11:06:11Z</time>
      </trkpt>
      <trkpt lat="43.486" lon="3.48941">
        <ele>56.661</ele>
        <time>2010-12-20T11:06:19Z</time>
      </trkpt>
      <trkpt lat="43.48601" lon="3.48948">
        <ele>56.659</ele>
        <time>2010-12-20T11:06:20Z</time>
      </trkpt>
      <trkpt lat="43.48611" lon="3.48975">
        <ele>55.075</ele>
        <time>2010-12-20T11:06:24Z</time>
      </trkpt>
      <trkpt lat="43.48625" lon="3.49022">
        <ele>53.41</ele>
        <time>2010-12-20T11:06:31Z</time>
      </trkpt>
      <trkpt lat="43.48626" lon="3.49048">
        <ele>51.454</ele>
        <time>2010-12-20T11:06:36Z</time>
      </trkpt>
      <trkpt lat="43.48627" lon="3.49061">
        <ele>50.086</ele>
        <time>2010-12-20T11:06:39Z</time>
      </trkpt>
      <trkpt lat="43.48626" lon="3.49081">
        <ele>50.234</ele>
        <time>2010-12-20T11:06:44Z</time>
      </trkpt>
      <trkpt lat="43.4862" lon="3.49096">
        <ele>52.53</ele>
        <time>2010-12-20T11:06:50Z</time>
      </trkpt>
      <trkpt lat="43.48609" lon="3.49109">
        <ele>55.361</ele>
        <time>2010-12-20T11:06:58Z</time>
      </trkpt>
      <trkpt lat="43.486" lon="3.4913">
        <ele>58.291</ele>
        <time>2010-12-20T11:07:07Z</time>
      </trkpt>
      <trkpt lat="43.48597" lon="3.49146">
        <ele>60.202</ele>
        <time>2010-12-20T11:07:14Z</time>
      </trkpt>
      <trkpt lat="43.48595" lon="3.49165">
        <ele>62.996</ele>
        <time>2010-12-20T11:07:22Z</time>
      </trkpt>
      <trkpt lat="43.48591" lon="3.49189">
        <ele>65.893</ele>
        <time>2010-12-20T11:07:31Z</time>
      </trkpt>
      <trkpt lat="43.48587" lon="3.49212">
        <ele>68.341</ele>
        <time>2010-12-20T11:07:40Z</time>
      </trkpt>
      <trkpt lat="43.48578" lon="3.49231">
        <ele>69.699</ele>
        <time>2010-12-20T11:07:48Z</time>
      </trkpt>
      <trkpt lat="43.48565" lon="3.49249">
        <ele>72.974</ele>
        <time>2010-12-20T11:07:58Z</time>
      </trkpt>
      <trkpt lat="43.48553" lon="3.49266">
        <ele>73.607</ele>
        <time>2010-12-20T11:08:06Z</time>
      </trkpt>
      <trkpt lat="43.48541" lon="3.49295">
        <ele>75.811</ele>
        <time>2010-12-20T11:08:17Z</time>
      </trkpt>
      <trkpt lat="43.48532" lon="3.49318">
        <ele>77.724</ele>
        <time>2010-12-20T11:08:26Z</time>
      </trkpt>
      <trkpt lat="43.48526" lon="3.49341">
        <ele>79.379</ele>
        <time>2010-12-20T11:08:34Z</time>
      </trkpt>
      <trkpt lat="43.48518" lon="3.4936">
        <ele>80.712</ele>
        <time>2010-12-20T11:08:41Z</time>
      </trkpt>
      <trkpt lat="43.48506" lon="3.49383">
        <ele>82.488</ele>
        <time>2010-12-20T11:08:50Z</time>
      </trkpt>
      <trkpt lat="43.48494" lon="3.49408">
        <ele>84.76</ele>
        <time>2010-12-20T11:09:00Z</time>
      </trkpt>
      <trkpt lat="43.48483" lon="3.49425">
        <ele>85.73</ele>
        <time>2010-12-20T11:09:07Z</time>
      </trkpt>
      <trkpt lat="43.4847" lon="3.49445">
        <ele>87.075</ele>
        <time>2010-12-20T11:09:15Z</time>
      </trkpt>
      <trkpt lat="43.48458" lon="3.49473">
        <ele>87.237</ele>
        <time>2010-12-20T11:09:22Z</time>
      </trkpt>
      <trkpt lat="43.48436" lon="3.49516">
        <ele>86.03</ele>
        <time>2010-12-20T11:09:32Z</time>
      </trkpt>
      <trkpt lat="43.48419" lon="3.49552">
        <ele>85.863</ele>
        <time>2010-12-20T11:09:40Z</time>
      </trkpt>
      <trkpt lat="43.48406" lon="3.49589">
        <ele>85.784</ele>
        <time>2010-12-20T11:09:48Z</time>
      </trkpt>
      <trkpt lat="43.48391" lon="3.49629">
        <ele>86.424</ele>
        <time>2010-12-20T11:09:57Z</time>
      </trkpt>
      <trkpt lat="43.48377" lon="3.49672">
        <ele>86.316</ele>
        <time>2010-12-20T11:10:06Z</time>
      </trkpt>
      <trkpt lat="43.48356" lon="3.49726">
        <ele>86.12</ele>
        <time>2010-12-20T11:10:17Z</time>
      </trkpt>
      <trkpt lat="43.48335" lon="3.49783">
        <ele>85.893</ele>
        <time>2010-12-20T11:10:28Z</time>
      </trkpt>
      <trkpt lat="43.48315" lon="3.49846">
        <ele>87.42</ele>
        <time>2010-12-20T11:10:42Z</time>
      </trkpt>
      <trkpt lat="43.483" lon="3.49879">
        <ele>87.745</ele>
        <time>2010-12-20T11:10:50Z</time>
      </trkpt>
      <trkpt lat="43.48285" lon="3.49897">
        <ele>88.072</ele>
        <time>2010-12-20T11:10:55Z</time>
      </trkpt>
      <trkpt lat="43.48275" lon="3.49923">
        <ele>88.614</ele>
        <time>2010-12-20T11:11:00Z</time>
      </trkpt>
      <trkpt lat="43.48262" lon="3.49963">
        <ele>88.723</ele>
        <time>2010-12-20T11:11:07Z</time>
      </trkpt>
      <trkpt lat="43.48242" lon="3.50008">
        <ele>88.884</ele>
        <time>2010-12-20T11:11:15Z</time>
      </trkpt>
      <trkpt lat="43.48225" lon="3.50055">
        <ele>88.641</ele>
        <time>2010-12-20T11:11:23Z</time>
      </trkpt>
      <trkpt lat="43.48204" lon="3.50111">
        <ele>87.675</ele>
        <time>2010-12-20T11:11:31Z</time>
      </trkpt>
      <trkpt lat="43.48188" lon="3.50142">
        <ele>86.825</ele>
        <time>2010-12-20T11:11:36Z</time>
      </trkpt>
      <trkpt lat="43.48172" lon="3.50155">
        <ele>86.667</ele>
        <time>2010-12-20T11:11:40Z</time>
      </trkpt>
      <trkpt lat="43.4814" lon="3.50163">
        <ele>88.104</ele>
        <time>2010-12-20T11:11:48Z</time>
      </trkpt>
      <trkpt lat="43.48109" lon="3.50168">
        <ele>89.655</ele>
        <time>2010-12-20T11:11:57Z</time>
      </trkpt>
      <trkpt lat="43.48093" lon="3.50167">
        <ele>91.132</ele>
        <time>2010-12-20T11:12:03Z</time>
      </trkpt>
      <trkpt lat="43.48078" lon="3.50168">
        <ele>92.475</ele>
        <time>2010-12-20T11:12:09Z</time>
      </trkpt>
      <trkpt lat="43.48063" lon="3.5016">
        <ele>94.055</ele>
        <time>2010-12-20T11:12:16Z</time>
      </trkpt>
      <trkpt lat="43.48044" lon="3.50156">
        <ele>95.511</ele>
        <time>2010-12-20T11:12:23Z</time>
      </trkpt>
      <trkpt lat="43.48024" lon="3.50156">
        <ele>97.022</ele>
        <time>2010-12-20T11:12:31Z</time>
      </trkpt>
      <trkpt lat="43.47994" lon="3.5015">
        <ele>98.53</ele>
        <time>2010-12-20T11:12:41Z</time>
      </trkpt>
      <trkpt lat="43.47975" lon="3.50151">
        <ele>99.393</ele>
        <time>2010-12-20T11:12:47Z</time>
      </trkpt>
      <trkpt lat="43.47951" lon="3.50168">
        <ele>99.909</ele>
        <time>2010-12-20T11:12:55Z</time>
      </trkpt>
      <trkpt lat="43.47937" lon="3.50181">
        <ele>100.62</ele>
        <time>2010-12-20T11:13:00Z</time>
      </trkpt>
      <trkpt lat="43.47917" lon="3.50212">
        <ele>101.953</ele>
        <time>2010-12-20T11:13:09Z</time>
      </trkpt>
      <trkpt lat="43.47902" lon="3.50228">
        <ele>102.348</ele>
        <time>2010-12-20T11:13:15Z</time>
      </trkpt>
      <trkpt lat="43.47871" lon="3.50239">
        <ele>103.707</ele>
        <time>2010-12-20T11:13:25Z</time>
      </trkpt>
      <trkpt lat="43.47845" lon="3.50244">
        <ele>105.313</ele>
        <time>2010-12-20T11:13:34Z</time>
      </trkpt>
      <trkpt lat="43.47831" lon="3.50247">
        <ele>105.946</ele>
        <time>2010-12-20T11:13:39Z</time>
      </trkpt>
      <trkpt lat="43.47827" lon="3.50262">
        <ele>106.034</ele>
        <time>2010-12-20T11:13:43Z</time>
      </trkpt>
      <trkpt lat="43.47829" lon="3.50268">
        <ele>106.06</ele>
        <time>2010-12-20T11:13:44Z</time>
      </trkpt>
      <trkpt lat="43.47844" lon="3.50321">
        <ele>106.337</ele>
        <time>2010-12-20T11:13:53Z</time>
      </trkpt>
      <trkpt lat="43.47858" lon="3.50372">
        <ele>106.456</ele>
        <time>2010-12-20T11:14:01Z</time>
      </trkpt>
      <trkpt lat="43.4788" lon="3.50457">
        <ele>106.679</ele>
        <time>2010-12-20T11:14:14Z</time>
      </trkpt>
      <trkpt lat="43.47896" lon="3.50531">
        <ele>106.998</ele>
        <time>2010-12-20T11:14:25Z</time>
      </trkpt>
      <trkpt lat="43.47909" lon="3.5059">
        <ele>107.52</ele>
        <time>2010-12-20T11:14:34Z</time>
      </trkpt>
      <trkpt lat="43.47923" lon="3.50659">
        <ele>108.606</ele>
        <time>2010-12-20T11:14:45Z</time>
      </trkpt>
      <trkpt lat="43.47933" lon="3.50713">
        <ele>108.458</ele>
        <time>2010-12-20T11:14:53Z</time>
      </trkpt>
      <trkpt lat="43.47945" lon="3.50781">
        <ele>108.97</ele>
        <time>2010-12-20T11:15:03Z</time>
      </trkpt>
      <trkpt lat="43.47951" lon="3.50812">
        <ele>109.557</ele>
        <time>2010-12-20T11:15:08Z</time>
      </trkpt>
      <trkpt lat="43.47946" lon="3.50831">
        <ele>109.711</ele>
        <time>2010-12-20T11:15:12Z</time>
      </trkpt>
      <trkpt lat="43.47942" lon="3.50834">
        <ele>109.766</ele>
        <time>2010-12-20T11:15:13Z</time>
      </trkpt>
      <trkpt lat="43.47923" lon="3.5085">
        <ele>111.014</ele>
        <time>2010-12-20T11:15:18Z</time>
      </trkpt>
      <trkpt lat="43.47888" lon="3.50886">
        <ele>113.84</ele>
        <time>2010-12-20T11:15:29Z</time>
      </trkpt>
      <trkpt lat="43.4786" lon="3.50916">
        <ele>116.579</ele>
        <time>2010-12-20T11:15:39Z</time>
      </trkpt>
      <trkpt lat="43.47838" lon="3.5094">
        <ele>118.404</ele>
        <time>2010-12-20T11:15:47Z</time>
      </trkpt>
      <trkpt lat="43.47809" lon="3.50971">
        <ele>120.033</ele>
        <time>2010-12-20T11:15:56Z</time>
      </trkpt>
      <trkpt lat="43.47782" lon="3.51006">
        <ele>121.274</ele>
        <time>2010-12-20T11:16:05Z</time>
      </trkpt>
      <trkpt lat="43.47754" lon="3.5104">
        <ele>122.492</ele>
        <time>2010-12-20T11:16:14Z</time>
      </trkpt>
      <trkpt lat="43.47724" lon="3.51076">
        <ele>122.479</ele>
        <time>2010-12-20T11:16:23Z</time>
      </trkpt>
      <trkpt lat="43.47699" lon="3.51104">
        <ele>122.964</ele>
        <time>2010-12-20T11:16:30Z</time>
      </trkpt>
      <trkpt lat="43.47675" lon="3.51143">
        <ele>123.868</ele>
        <time>2010-12-20T11:16:39Z</time>
      </trkpt>
      <trkpt lat="43.47653" lon="3.51173">
        <ele>125.536</ele>
        <time>2010-12-20T11:16:47Z</time>
      </trkpt>
      <trkpt lat="43.47621" lon="3.51222">
        <ele>126.181</ele>
        <time>2010-12-20T11:16:58Z</time>
      </trkpt>
      <trkpt lat="43.47591" lon="3.51259">
        <ele>125.527</ele>
        <time>2010-12-20T11:17:06Z</time>
      </trkpt>
      <trkpt lat="43.4755" lon="3.51303">
        <ele>125.164</ele>
        <time>2010-12-20T11:17:15Z</time>
      </trkpt>
      <trkpt lat="43.47524" lon="3.51327">
        <ele>124.034</ele>
        <time>2010-12-20T11:17:21Z</time>
      </trkpt>
      <trkpt lat="43.47515" lon="3.51321">
        <ele>122.996</ele>
        <time>2010-12-20T11:17:24Z</time>
      </trkpt>
      <trkpt lat="43.47514" lon="3.51307">
        <ele>122.21</ele>
        <time>2010-12-20T11:17:26Z</time>
      </trkpt>
      <trkpt lat="43.4751" lon="3.51228">
        <ele>122.766</ele>
        <time>2010-12-20T11:17:37Z</time>
      </trkpt>
      <trkpt lat="43.47507" lon="3.51156">
        <ele>123.678</ele>
        <time>2010-12-20T11:17:47Z</time>
      </trkpt>
      <trkpt lat="43.47505" lon="3.51107">
        <ele>125.636</ele>
        <time>2010-12-20T11:17:55Z</time>
      </trkpt>
      <trkpt lat="43.475" lon="3.51058">
        <ele>127.918</ele>
        <time>2010-12-20T11:18:04Z</time>
      </trkpt>
      <trkpt lat="43.47496" lon="3.51008">
        <ele>130.892</ele>
        <time>2010-12-20T11:18:14Z</time>
      </trkpt>
      <trkpt lat="43.47494" lon="3.50966">
        <ele>134.227</ele>
        <time>2010-12-20T11:18:23Z</time>
      </trkpt>
      <trkpt lat="43.47492" lon="3.50929">
        <ele>135.166</ele>
        <time>2010-12-20T11:18:30Z</time>
      </trkpt>
      <trkpt lat="43.47488" lon="3.50874">
        <ele>134.419</ele>
        <time>2010-12-20T11:18:38Z</time>
      </trkpt>
      <trkpt lat="43.47485" lon="3.50816">
        <ele>133.003</ele>
        <time>2010-12-20T11:18:45Z</time>
      </trkpt>
      <trkpt lat="43.47483" lon="3.50754">
        <ele>131.028</ele>
        <time>2010-12-20T11:18:51Z</time>
      </trkpt>
      <trkpt lat="43.47478" lon="3.5069">
        <ele>130.841</ele>
        <time>2010-12-20T11:18:58Z</time>
      </trkpt>
      <trkpt lat="43.47472" lon="3.50616">
        <ele>130.983</ele>
        <time>2010-12-20T11:19:07Z</time>
      </trkpt>
      <trkpt lat="43.47467" lon="3.50551">
        <ele>130.516</ele>
        <time>2010-12-20T11:19:15Z</time>
      </trkpt>
      <trkpt lat="43.47467" lon="3.50512">
        <ele>128.969</ele>
        <time>2010-12-20T11:19:20Z</time>
      </trkpt>
      <trkpt lat="43.47467" lon="3.50506">
        <ele>128.627</ele>
        <time>2010-12-20T11:19:21Z</time>
      </trkpt>
      <trkpt lat="43.47459" lon="3.50503">
        <ele>127.975</ele>
        <time>2010-12-20T11:19:25Z</time>
      </trkpt>
      <trkpt lat="43.47433" lon="3.50535">
        <ele>127.577</ele>
        <time>2010-12-20T11:19:33Z</time>
      </trkpt>
      <trkpt lat="43.47409" lon="3.50574">
        <ele>127.68</ele>
        <time>2010-12-20T11:19:41Z</time>
      </trkpt>
      <trkpt lat="43.47401" lon="3.50589">
        <ele>127.845</ele>
        <time>2010-12-20T11:19:44Z</time>
      </trkpt>
      <trkpt lat="43.47384" lon="3.50635">
        <ele>126.998</ele>
        <time>2010-12-20T11:19:52Z</time>
      </trkpt>
      <trkpt lat="43.47361" lon="3.50685">
        <ele>124.907</ele>
        <time>2010-12-20T11:20:00Z</time>
      </trkpt>
      <trkpt lat="43.4734" lon="3.50725">
        <ele>122.966</ele>
        <time>2010-12-20T11:20:07Z</time>
      </trkpt>
      <trkpt lat="43.47311" lon="3.50773">
        <ele>121.101</ele>
        <time>2010-12-20T11:20:15Z</time>
      </trkpt>
      <trkpt lat="43.47287" lon="3.50813">
        <ele>120.218</ele>
        <time>2010-12-20T11:20:22Z</time>
      </trkpt>
      <trkpt lat="43.47262" lon="3.50851">
        <ele>118.213</ele>
        <time>2010-12-20T11:20:29Z</time>
      </trkpt>
      <trkpt lat="43.47241" lon="3.50889">
        <ele>116.273</ele>
        <time>2010-12-20T11:20:35Z</time>
      </trkpt>
      <trkpt lat="43.47227" lon="3.50934">
        <ele>114.006</ele>
        <time>2010-12-20T11:20:41Z</time>
      </trkpt>
      <trkpt lat="43.47218" lon="3.50963">
        <ele>112.548</ele>
        <time>2010-12-20T11:20:45Z</time>
      </trkpt>
      <trkpt lat="43.47211" lon="3.50986">
        <ele>111.465</ele>
        <time>2010-12-20T11:20:49Z</time>
      </trkpt>
      <trkpt lat="43.4721" lon="3.51046">
        <ele>110.638</ele>
        <time>2010-12-20T11:20:57Z</time>
      </trkpt>
      <trkpt lat="43.47207" lon="3.51119">
        <ele>109.848</ele>
        <time>2010-12-20T11:21:06Z</time>
      </trkpt>
      <trkpt lat="43.47193" lon="3.51168">
        <ele>108.505</ele>
        <time>2010-12-20T11:21:12Z</time>
      </trkpt>
      <trkpt lat="43.47164" lon="3.51231">
        <ele>106.513</ele>
        <time>2010-12-20T11:21:20Z</time>
      </trkpt>
      <trkpt lat="43.47156" lon="3.51245">
        <ele>105.826</ele>
        <time>2010-12-20T11:21:22Z</time>
      </trkpt>
      <trkpt lat="43.47142" lon="3.51285">
        <ele>104.79</ele>
        <time>2010-12-20T11:21:27Z</time>
      </trkpt>
      <trkpt lat="43.47116" lon="3.51361">
        <ele>102.665</ele>
        <time>2010-12-20T11:21:36Z</time>
      </trkpt>
      <trkpt lat="43.47105" lon="3.51422">
        <ele>101.41</ele>
        <time>2010-12-20T11:21:43Z</time>
      </trkpt>
      <trkpt lat="43.47092" lon="3.51481">
        <ele>100.569</ele>
        <time>2010-12-20T11:21:50Z</time>
      </trkpt>
      <trkpt lat="43.47083" lon="3.51531">
        <ele>100.4</ele>
        <time>2010-12-20T11:21:56Z</time>
      </trkpt>
      <trkpt lat="43.47069" lon="3.51609">
        <ele>99.673</ele>
        <time>2010-12-20T11:22:06Z</time>
      </trkpt>
      <trkpt lat="43.47062" lon="3.51682">
        <ele>100.657</ele>
        <time>2010-12-20T11:22:16Z</time>
      </trkpt>
      <trkpt lat="43.47058" lon="3.51772">
        <ele>100.335</ele>
        <time>2010-12-20T11:22:28Z</time>
      </trkpt>
      <trkpt lat="43.4706" lon="3.51836">
        <ele>99.714</ele>
        <time>2010-12-20T11:22:36Z</time>
      </trkpt>
      <trkpt lat="43.47062" lon="3.51913">
        <ele>99.591</ele>
        <time>2010-12-20T11:22:46Z</time>
      </trkpt>
      <trkpt lat="43.47065" lon="3.51988">
        <ele>99.679</ele>
        <time>2010-12-20T11:22:56Z</time>
      </trkpt>
      <trkpt lat="43.47072" lon="3.5203">
        <ele>99.733</ele>
        <time>2010-12-20T11:23:02Z</time>
      </trkpt>
      <trkpt lat="43.47088" lon="3.52073">
        <ele>100.273</ele>
        <time>2010-12-20T11:23:09Z</time>
      </trkpt>
      <trkpt lat="43.47108" lon="3.52118">
        <ele>100.451</ele>
        <time>2010-12-20T11:23:16Z</time>
      </trkpt>
      <trkpt lat="43.47133" lon="3.52182">
        <ele>99.069</ele>
        <time>2010-12-20T11:23:25Z</time>
      </trkpt>
      <trkpt lat="43.47145" lon="3.52226">
        <ele>100.408</ele>
        <time>2010-12-20T11:23:31Z</time>
      </trkpt>
      <trkpt lat="43.47158" lon="3.52301">
        <ele>100.905</ele>
        <time>2010-12-20T11:23:41Z</time>
      </trkpt>
      <trkpt lat="43.47171" lon="3.52371">
        <ele>102.022</ele>
        <time>2010-12-20T11:23:51Z</time>
      </trkpt>
      <trkpt lat="43.47181" lon="3.5244">
        <ele>102.807</ele>
        <time>2010-12-20T11:24:01Z</time>
      </trkpt>
      <trkpt lat="43.4718" lon="3.52523">
        <ele>104.05</ele>
        <time>2010-12-20T11:24:13Z</time>
      </trkpt>
      <trkpt lat="43.47178" lon="3.52592">
        <ele>105.025</ele>
        <time>2010-12-20T11:24:23Z</time>
      </trkpt>
      <trkpt lat="43.47178" lon="3.52658">
        <ele>106.555</ele>
        <time>2010-12-20T11:24:33Z</time>
      </trkpt>
      <trkpt lat="43.47184" lon="3.52713">
        <ele>107.44</ele>
        <time>2010-12-20T11:24:41Z</time>
      </trkpt>
      <trkpt lat="43.47192" lon="3.52761">
        <ele>109.431</ele>
        <time>2010-12-20T11:24:49Z</time>
      </trkpt>
      <trkpt lat="43.47199" lon="3.5281">
        <ele>110.599</ele>
        <time>2010-12-20T11:24:57Z</time>
      </trkpt>
      <trkpt lat="43.47199" lon="3.52816">
        <ele>110.773</ele>
        <time>2010-12-20T11:24:58Z</time>
      </trkpt>
      <trkpt lat="43.47199" lon="3.52862">
        <ele>112.068</ele>
        <time>2010-12-20T11:25:05Z</time>
      </trkpt>
      <trkpt lat="43.472" lon="3.52922">
        <ele>109.795</ele>
        <time>2010-12-20T11:25:12Z</time>
      </trkpt>
      <trkpt lat="43.47201" lon="3.52969">
        <ele>107.928</ele>
        <time>2010-12-20T11:25:17Z</time>
      </trkpt>
      <trkpt lat="43.47195" lon="3.53024">
        <ele>105.387</ele>
        <time>2010-12-20T11:25:22Z</time>
      </trkpt>
      <trkpt lat="43.47178" lon="3.53109">
        <ele>99.941</ele>
        <time>2010-12-20T11:25:29Z</time>
      </trkpt>
      <trkpt lat="43.47174" lon="3.53134">
        <ele>98.466</ele>
        <time>2010-12-20T11:25:31Z</time>
      </trkpt>
      <trkpt lat="43.47174" lon="3.53186">
        <ele>95.376</ele>
        <time>2010-12-20T11:25:35Z</time>
      </trkpt>
      <trkpt lat="43.47171" lon="3.5326">
        <ele>91.043</ele>
        <time>2010-12-20T11:25:41Z</time>
      </trkpt>
      <trkpt lat="43.4717" lon="3.53286">
        <ele>90.202</ele>
        <time>2010-12-20T11:25:43Z</time>
      </trkpt>
      <trkpt lat="43.47163" lon="3.53351">
        <ele>85.884</ele>
        <time>2010-12-20T11:25:48Z</time>
      </trkpt>
      <trkpt lat="43.47157" lon="3.53436">
        <ele>82.593</ele>
        <time>2010-12-20T11:25:55Z</time>
      </trkpt>
      <trkpt lat="43.47155" lon="3.53471">
        <ele>81.335</ele>
        <time>2010-12-20T11:25:58Z</time>
      </trkpt>
      <trkpt lat="43.47167" lon="3.53523">
        <ele>79.24</ele>
        <time>2010-12-20T11:26:03Z</time>
      </trkpt>
      <trkpt lat="43.47174" lon="3.53541">
        <ele>78.826</ele>
        <time>2010-12-20T11:26:05Z</time>
      </trkpt>
      <trkpt lat="43.47188" lon="3.53572">
        <ele>78.585</ele>
        <time>2010-12-20T11:26:09Z</time>
      </trkpt>
      <trkpt lat="43.47205" lon="3.53634">
        <ele>78.72</ele>
        <time>2010-12-20T11:26:17Z</time>
      </trkpt>
      <trkpt lat="43.47216" lon="3.53679">
        <ele>80.33</ele>
        <time>2010-12-20T11:26:24Z</time>
      </trkpt>
      <trkpt lat="43.47224" lon="3.53702">
        <ele>80.596</ele>
        <time>2010-12-20T11:26:29Z</time>
      </trkpt>
      <trkpt lat="43.4724" lon="3.53718">
        <ele>80.426</ele>
        <time>2010-12-20T11:26:34Z</time>
      </trkpt>
      <trkpt lat="43.4728" lon="3.53751">
        <ele>80.906</ele>
        <time>2010-12-20T11:26:43Z</time>
      </trkpt>
      <trkpt lat="43.47288" lon="3.53758">
        <ele>81.2</ele>
        <time>2010-12-20T11:26:45Z</time>
      </trkpt>
      <trkpt lat="43.47301" lon="3.53776">
        <ele>81.95</ele>
        <time>2010-12-20T11:26:49Z</time>
      </trkpt>
      <trkpt lat="43.4731" lon="3.53808">
        <ele>84.094</ele>
        <time>2010-12-20T11:26:55Z</time>
      </trkpt>
      <trkpt lat="43.4731" lon="3.53819">
        <ele>84.668</ele>
        <time>2010-12-20T11:26:57Z</time>
      </trkpt>
      <trkpt lat="43.47301" lon="3.53862">
        <ele>84.879</ele>
        <time>2010-12-20T11:27:04Z</time>
      </trkpt>
      <trkpt lat="43.47304" lon="3.53891">
        <ele>84.368</ele>
        <time>2010-12-20T11:27:08Z</time>
      </trkpt>
      <trkpt lat="43.47328" lon="3.5396">
        <ele>83.529</ele>
        <time>2010-12-20T11:27:18Z</time>
      </trkpt>
      <trkpt lat="43.47346" lon="3.54018">
        <ele>83.912</ele>
        <time>2010-12-20T11:27:27Z</time>
      </trkpt>
      <trkpt lat="43.47358" lon="3.54056">
        <ele>84.653</ele>
        <time>2010-12-20T11:27:34Z</time>
      </trkpt>
      <trkpt lat="43.47371" lon="3.54053">
        <ele>85.022</ele>
        <time>2010-12-20T11:27:38Z</time>
      </trkpt>
      <trkpt lat="43.47392" lon="3.54027">
        <ele>86.714</ele>
        <time>2010-12-20T11:27:45Z</time>
      </trkpt>
      <trkpt lat="43.47414" lon="3.53991">
        <ele>89.562</ele>
        <time>2010-12-20T11:27:54Z</time>
      </trkpt>
      <trkpt lat="43.47437" lon="3.53961">
        <ele>92.498</ele>
        <time>2010-12-20T11:28:03Z</time>
      </trkpt>
      <trkpt lat="43.47466" lon="3.53932">
        <ele>95.036</ele>
        <time>2010-12-20T11:28:13Z</time>
      </trkpt>
      <trkpt lat="43.47472" lon="3.53929">
        <ele>95.442</ele>
        <time>2010-12-20T11:28:15Z</time>
      </trkpt>
      <trkpt lat="43.47491" lon="3.53939">
        <ele>96.518</ele>
        <time>2010-12-20T11:28:21Z</time>
      </trkpt>
      <trkpt lat="43.47497" lon="3.53945">
        <ele>96.957</ele>
        <time>2010-12-20T11:28:23Z</time>
      </trkpt>
      <trkpt lat="43.47511" lon="3.53953">
        <ele>98.573</ele>
        <time>2010-12-20T11:28:28Z</time>
      </trkpt>
      <trkpt lat="43.47534" lon="3.53955">
        <ele>100.801</ele>
        <time>2010-12-20T11:28:35Z</time>
      </trkpt>
      <trkpt lat="43.47558" lon="3.53956">
        <ele>102.304</ele>
        <time>2010-12-20T11:28:42Z</time>
      </trkpt>
      <trkpt lat="43.4758" lon="3.53952">
        <ele>103.561</ele>
        <time>2010-12-20T11:28:48Z</time>
      </trkpt>
      <trkpt lat="43.47605" lon="3.53949">
        <ele>104.264</ele>
        <time>2010-12-20T11:28:55Z</time>
      </trkpt>
      <trkpt lat="43.47626" lon="3.53947">
        <ele>104.58</ele>
        <time>2010-12-20T11:29:01Z</time>
      </trkpt>
      <trkpt lat="43.47629" lon="3.53946">
        <ele>104.733</ele>
        <time>2010-12-20T11:29:02Z</time>
      </trkpt>
      <trkpt lat="43.4764" lon="3.53927">
        <ele>105.276</ele>
        <time>2010-12-20T11:29:07Z</time>
      </trkpt>
      <trkpt lat="43.47641" lon="3.53922">
        <ele>105.401</ele>
        <time>2010-12-20T11:29:08Z</time>
      </trkpt>
      <trkpt lat="43.47652" lon="3.53894">
        <ele>105.861</ele>
        <time>2010-12-20T11:29:14Z</time>
      </trkpt>
      <trkpt lat="43.47671" lon="3.53859">
        <ele>107.843</ele>
        <time>2010-12-20T11:29:22Z</time>
      </trkpt>
      <trkpt lat="43.47683" lon="3.53835">
        <ele>110.214</ele>
        <time>2010-12-20T11:29:28Z</time>
      </trkpt>
      <trkpt lat="43.47697" lon="3.5383">
        <ele>111.157</ele>
        <time>2010-12-20T11:29:32Z</time>
      </trkpt>
      <trkpt lat="43.4771" lon="3.53838">
        <ele>112.372</ele>
        <time>2010-12-20T11:29:36Z</time>
      </trkpt>
      <trkpt lat="43.47721" lon="3.53848">
        <ele>114.242</ele>
        <time>2010-12-20T11:29:41Z</time>
      </trkpt>
      <trkpt lat="43.47742" lon="3.53866">
        <ele>115.46</ele>
        <time>2010-12-20T11:29:48Z</time>
      </trkpt>
      <trkpt lat="43.4776" lon="3.53871">
        <ele>116.216</ele>
        <time>2010-12-20T11:29:53Z</time>
      </trkpt>
      <trkpt lat="43.47777" lon="3.53859">
        <ele>116.537</ele>
        <time>2010-12-20T11:29:58Z</time>
      </trkpt>
      <trkpt lat="43.47789" lon="3.53853">
        <ele>116.612</ele>
        <time>2010-12-20T11:30:01Z</time>
      </trkpt>
      <trkpt lat="43.47827" lon="3.53852">
        <ele>116.802</ele>
        <time>2010-12-20T11:30:10Z</time>
      </trkpt>
      <trkpt lat="43.47871" lon="3.53848">
        <ele>117.349</ele>
        <time>2010-12-20T11:30:20Z</time>
      </trkpt>
      <trkpt lat="43.47894" lon="3.53841">
        <ele>118.165</ele>
        <time>2010-12-20T11:30:26Z</time>
      </trkpt>
      <trkpt lat="43.47921" lon="3.53832">
        <ele>119.246</ele>
        <time>2010-12-20T11:30:33Z</time>
      </trkpt>
      <trkpt lat="43.47949" lon="3.53816">
        <ele>120.432</ele>
        <time>2010-12-20T11:30:41Z</time>
      </trkpt>
      <trkpt lat="43.4796" lon="3.53806">
        <ele>120.916</ele>
        <time>2010-12-20T11:30:45Z</time>
      </trkpt>
      <trkpt lat="43.47969" lon="3.53815">
        <ele>121.329</ele>
        <time>2010-12-20T11:30:49Z</time>
      </trkpt>
    </trkseg>
  </trk>
</gpx>